
Distance (Route):
Temperature : -1.7°C
Humidity : 54.6%
Pressure : 600.6hPa| Receiver | Frames | First received | Last received |
|---|---|---|---|
| PETON7-10 | 335 | 2026-09-04 11:36:54 | 2026-09-04 13:03:50 |
| OM5KV | 102 | 2026-09-04 11:22:15 | 2026-09-04 11:28:48 |
| ATIDSZ-14 | 83 | 2026-09-04 11:25:53 | 2026-09-04 12:00:05 |
| GYPAP8-17 | 83 | 2026-09-04 11:30:56 | 2026-09-04 13:09:03 |
| OE3JTB-15 | 51 | 2026-09-04 11:48:34 | 2026-09-04 13:02:09 |
| 9A1FER-10 | 47 | 2026-09-04 12:04:30 | 2026-09-04 12:49:26 |
| LZ4TU-5 | 42 | 2026-09-04 12:08:10 | 2026-09-04 12:53:42 |
| OE5DRO-10 | 36 | 2026-09-04 12:12:07 | 2026-09-04 12:47:20 |
| OE5DXL-15 | 18 | 2026-09-04 12:34:04 | 2026-09-04 12:48:42 |
| SP9KGR-15 | 6 | 2026-09-04 12:34:55 | 2026-09-04 12:42:04 |
| 9A1FER-3 | 5 | 2026-09-04 12:21:15 | 2026-09-04 12:22:32 |
| Receiver | Date | Latitude | Longitude | Direction | Speed | Altitude | Climb | Temperature | Humidity | Pressure | Voltage | Killtimer | Uptime | BKT | XDATA |
|---|---|---|---|---|---|---|---|---|---|---|---|---|---|---|---|
| GYPAP8-17 | 2026-09-04 13:09:03 | 46.90602 | 19.77230 | 147° | 69km/h | 4439m | -11.0m/s | -1.7°C | 54.6% | 600.6hPa | 2.6V | 00:00:00 | 00:00:00 | 00:00:00 | |
| GYPAP8-17 | 2026-09-04 13:08:04 | 46.91440 | 19.76488 | 153° | 66km/h | 5089m | -11.4m/s | -6.2°C | 55.3% | 553.0hPa | 2.6V | 00:00:00 | 00:00:00 | 00:00:00 | |
| GYPAP8-17 | 2026-09-04 13:07:07 | 46.92301 | 19.75928 | 154° | 66km/h | 5765m | -11.7m/s | -11.0°C | 48.1% | 506.8hPa | 2.6V | 00:00:00 | 00:00:00 | 00:00:00 | |
| GYPAP8-17 | 2026-09-04 13:06:10 | 46.93166 | 19.75087 | 149° | 73km/h | 6467m | -13.6m/s | -13.1°C | 50.7% | 462.6hPa | 2.6V | 00:00:00 | 00:00:00 | 00:00:00 | |
| GYPAP8-17 | 2026-09-04 13:05:12 | 46.94037 | 19.74271 | 149° | 68km/h | 7247m | -14.6m/s | -18.1°C | 76.5% | 417.5hPa | 2.6V | 00:00:00 | 00:00:00 | 00:00:00 | |
| GYPAP8-17 | 2026-09-04 13:04:02 | 46.95103 | 19.73410 | 152° | 73km/h | 8196m | -13.7m/s | -25.5°C | 81.7% | 366.8hPa | 2.6V | 00:00:00 | 00:00:00 | 00:00:00 | |
| PETON7-10 | 2026-09-04 13:03:50 | 46.95327 | 19.73237 | 155° | 77km/h | 8372m | -14.7m/s | -26.3°C | 70.6% | 358.1hPa | 2.6V | 00:00:00 | 00:00:00 | 00:00:00 | |
| PETON7-10 | 2026-09-04 13:03:08 | 46.96041 | 19.72730 | 155° | 78km/h | 8959m | -14.0m/s | -30.9°C | 67.6% | 330.2hPa | 2.6V | 00:00:00 | 02:08:48 | 00:00:00 | |
| GYPAP8-17 | 2026-09-04 13:02:55 | 46.96251 | 19.72568 | 151° | 78km/h | 9131m | -14.7m/s | -32.0°C | 55.7% | 322.3hPa | 2.6V | 00:00:00 | 00:00:00 | 00:00:00 | |
| PETON7-10 | 2026-09-04 13:02:52 | 46.96322 | 19.72512 | 155° | 82km/h | 9188m | -14.3m/s | -32.4°C | 58.1% | 319.7hPa | 2.6V | 08:12:00 | 00:00:00 | 00:00:00 | |
| PETON7-10 | 2026-09-04 13:02:37 | 46.96598 | 19.72295 | 151° | 86km/h | 9399m | -14.5m/s | -33.9°C | 52.0% | 310.2hPa | 2.6V | 00:00:00 | 00:00:00 | 00:00:00 | |
| PETON7-10 | 2026-09-04 13:02:22 | 46.96881 | 19.72060 | 151° | 88km/h | 9608m | -12.8m/s | -35.4°C | 49.4% | 300.9hPa | 2.6V | 00:00:00 | 02:08:02 | 00:00:00 | |
| OE3JTB-15 | 2026-09-04 13:02:09 | 46.97131 | 19.71858 | 152° | 93km/h | 9792m | -15.7m/s | -37.0°C | 51.4% | 293.1hPa | 2.6V | 00:00:00 | 00:00:00 | 00:00:00 | |
| PETON7-10 | 2026-09-04 13:02:07 | 46.97170 | 19.71827 | 153° | 91km/h | 9821m | -15.1m/s | -37.3°C | 52.7% | 291.8hPa | 2.6V | 00:00:00 | 00:00:00 | 00:00:00 | |
| PETON7-10 | 2026-09-04 13:01:52 | 46.97474 | 19.71597 | 156° | 91km/h | 10035m | -14.8m/s | -39.2°C | 57.1% | 283.1hPa | 2.6V | 00:00:00 | 00:00:00 | 00:00:00 | |
| GYPAP8-17 | 2026-09-04 13:01:43 | 46.97642 | 19.71482 | 158° | 91km/h | 10151m | -14.7m/s | -40.4°C | 54.1% | 278.3hPa | 2.6V | 00:00:00 | 00:00:00 | 00:00:00 | |
| PETON7-10 | 2026-09-04 13:01:37 | 46.97788 | 19.71388 | 157° | 93km/h | 10252m | -15.0m/s | -41.2°C | 54.5% | 274.0hPa | 2.6V | 00:00:00 | 02:07:17 | 00:00:00 | |
| PETON7-10 | 2026-09-04 13:01:22 | 46.98114 | 19.71176 | 158° | 95km/h | 10482m | -15.3m/s | -43.2°C | 45.9% | 265.0hPa | 2.6V | 00:00:00 | 00:00:00 | 00:00:00 | |
| PETON7-10 | 2026-09-04 13:01:08 | 46.98445 | 19.70954 | 155° | 100km/h | 10719m | -16.0m/s | -45.2°C | 43.9% | 255.9hPa | 2.7V | 00:00:00 | 00:00:00 | 00:00:00 | |
| PETON7-10 | 2026-09-04 13:00:52 | 46.98790 | 19.70722 | 158° | 104km/h | 10941m | -15.2m/s | -47.3°C | 45.0% | 247.4hPa | 2.7V | 00:00:00 | 02:06:32 | 00:00:00 | |
| PETON7-10 | 2026-09-04 13:00:37 | 46.99153 | 19.70492 | 158° | 106km/h | 11166m | -15.5m/s | -49.1°C | 40.5% | 239.1hPa | 2.7V | 08:15:00 | 00:00:00 | 00:00:00 | |
| GYPAP8-17 | 2026-09-04 13:00:28 | 46.99348 | 19.70365 | 157° | 106km/h | 11286m | -15.7m/s | -50.1°C | 35.4% | 234.7hPa | 2.7V | 00:00:00 | 00:00:00 | 00:00:00 | |
| PETON7-10 | 2026-09-04 13:00:22 | 46.99518 | 19.70246 | 155° | 110km/h | 11394m | -15.6m/s | -51.0°C | 41.8% | 231.0hPa | 2.7V | 00:00:00 | 00:00:00 | 00:00:00 | |
| PETON7-10 | 2026-09-04 13:00:07 | 46.99885 | 19.69969 | 151° | 111km/h | 11629m | -16.3m/s | -52.9°C | 45.3% | 222.8hPa | 2.7V | 00:00:00 | 02:05:47 | 00:00:00 | |
| PETON7-10 | 2026-09-04 12:59:52 | 47.00257 | 19.69680 | 156° | 110km/h | 11862m | -15.2m/s | -55.0°C | 47.3% | 214.9hPa | 2.7V | 00:00:00 | 00:00:00 | 00:00:00 | |
| PETON7-10 | 2026-09-04 12:59:37 | 47.00638 | 19.69430 | 156° | 110km/h | 12102m | -17.1m/s | -57.2°C | 44.5% | 206.9hPa | 2.6V | 00:00:00 | 00:00:00 | 00:00:00 | |
| PETON7-10 | 2026-09-04 12:59:22 | 47.01015 | 19.69180 | 156° | 108km/h | 12349m | -17.6m/s | -59.4°C | 41.9% | 198.9hPa | 2.6V | 00:00:00 | 02:05:02 | 00:00:00 | |
| GYPAP8-17 | 2026-09-04 12:58:54 | 47.01699 | 19.68773 | 164° | 110km/h | 12799m | -17.5m/s | -63.0°C | 29.6% | 185.1hPa | 2.6V | 00:00:00 | 00:00:00 | 00:00:00 | |
| PETON7-10 | 2026-09-04 12:58:52 | 47.01777 | 19.68735 | 161° | 110km/h | 12850m | -16.7m/s | -63.3°C | 36.1% | 183.5hPa | 2.6V | 00:00:00 | 00:00:00 | 00:00:00 | |
| OE3JTB-15 | 2026-09-04 12:58:41 | 47.02065 | 19.68603 | 164° | 104km/h | 13034m | -16.2m/s | -64.7°C | 34.8% | 178.1hPa | 2.6V | 00:00:00 | 00:00:00 | 00:00:00 | |
| PETON7-10 | 2026-09-04 12:58:37 | 47.02177 | 19.68564 | 168° | 106km/h | 13099m | -16.3m/s | -64.6°C | 32.8% | 176.2hPa | 2.6V | 00:00:00 | 02:04:17 | 00:00:00 | |
| PETON7-10 | 2026-09-04 12:58:22 | 47.02573 | 19.68447 | 169° | 91km/h | 13343m | -15.7m/s | -65.5°C | 28.5% | 169.3hPa | 2.6V | 08:17:00 | 00:00:00 | 00:00:00 | |
| OE3JTB-15 | 2026-09-04 12:58:12 | 47.02798 | 19.68356 | 159° | 75km/h | 13502m | -15.1m/s | -66.2°C | 24.2% | 164.8hPa | 2.6V | 00:00:00 | 02:03:52 | 00:00:00 | |
| PETON7-10 | 2026-09-04 12:58:07 | 47.02898 | 19.68303 | 159° | 73km/h | 13583m | -17.0m/s | -66.4°C | 20.9% | 162.7hPa | 2.6V | 00:00:00 | 00:00:00 | 00:00:00 | |
| PETON7-10 | 2026-09-04 12:57:52 | 47.03127 | 19.68099 | 140° | 80km/h | 13832m | -17.5m/s | -63.7°C | 11.5% | 156.1hPa | 2.6V | 00:00:00 | 02:03:32 | 00:00:00 | |
| OE3JTB-15 | 2026-09-04 12:57:41 | 47.03298 | 19.67902 | 147° | 66km/h | 14022m | -16.3m/s | -64.0°C | 10.7% | 151.4hPa | 2.6V | 00:00:00 | 00:00:00 | 00:00:00 | |
| PETON7-10 | 2026-09-04 12:57:37 | 47.03371 | 19.67837 | 151° | 75km/h | 14087m | -16.5m/s | -63.8°C | 10.0% | 149.8hPa | 2.7V | 00:00:00 | 00:00:00 | 00:00:00 | |
| GYPAP8-17 | 2026-09-04 12:57:34 | 47.03426 | 19.67793 | 155° | 78km/h | 14138m | -16.5m/s | -63.4°C | 4.7% | 148.6hPa | 2.7V | 00:00:00 | 00:00:00 | 00:00:00 | |
| PETON7-10 | 2026-09-04 12:57:22 | 47.03620 | 19.67658 | 152° | 60km/h | 14346m | -16.4m/s | -60.4°C | 6.8% | 143.7hPa | 2.7V | 00:00:00 | 00:00:00 | 00:00:00 | |
| PETON7-10 | 2026-09-04 12:57:07 | 47.03814 | 19.67499 | 152° | 47km/h | 14597m | -17.9m/s | -60.1°C | 6.3% | 138.0hPa | 2.7V | 00:00:00 | 02:02:47 | 00:00:00 | |
| PETON7-10 | 2026-09-04 12:56:52 | 47.03967 | 19.67359 | 147° | 51km/h | 14864m | -16.7m/s | -60.4°C | 6.1% | 132.3hPa | 2.7V | 00:00:00 | 00:00:00 | 00:00:00 | |
| PETON7-10 | 2026-09-04 12:56:37 | 47.04124 | 19.67195 | 141° | 49km/h | 15125m | -18.8m/s | -60.6°C | 6.3% | 126.8hPa | 2.6V | 00:00:00 | 00:00:00 | 00:00:00 | |
| OE3JTB-15 | 2026-09-04 12:56:35 | 47.04166 | 19.67146 | 140° | 51km/h | 15198m | -18.4m/s | -59.9°C | 6.1% | 125.3hPa | 2.6V | 00:00:00 | 00:00:00 | 00:00:00 | |
| GYPAP8-17 | 2026-09-04 12:56:16 | 47.04303 | 19.66957 | 128° | 46km/h | 15489m | -18.2m/s | -58.0°C | 1.9% | 119.7hPa | 2.6V | 00:00:00 | 00:00:00 | 00:00:00 | |
| PETON7-10 | 2026-09-04 12:56:07 | 47.04375 | 19.66812 | 125° | 53km/h | 15675m | -18.4m/s | -58.3°C | 5.2% | 116.2hPa | 2.6V | 08:19:00 | 00:00:00 | 00:00:00 | |
| PETON7-10 | 2026-09-04 12:55:52 | 47.04491 | 19.66567 | 118° | 51km/h | 15957m | -17.9m/s | -58.2°C | 5.4% | 111.1hPa | 2.6V | 00:00:00 | 00:00:00 | 00:00:00 | |
| PETON7-10 | 2026-09-04 12:55:37 | 47.04579 | 19.66315 | 119° | 42km/h | 16246m | -19.0m/s | -56.3°C | 4.6% | 106.1hPa | 2.6V | 00:00:00 | 02:01:17 | 00:00:00 | |
| PETON7-10 | 2026-09-04 12:55:22 | 47.04630 | 19.66100 | 109° | 33km/h | 16536m | -19.8m/s | -55.8°C | 4.2% | 101.4hPa | 2.6V | 00:00:00 | 00:00:00 | 00:00:00 | |
| PETON7-10 | 2026-09-04 12:55:07 | 47.04671 | 19.65939 | 101° | 29km/h | 16825m | -20.1m/s | -56.6°C | 4.4% | 96.9hPa | 2.7V | 00:00:00 | 00:00:00 | 00:00:00 | |
| GYPAP8-17 | 2026-09-04 12:54:58 | 47.04676 | 19.65862 | 107° | 29km/h | 16986m | -18.8m/s | -57.9°C | 1.6% | 94.5hPa | 2.7V | 00:00:00 | 00:00:00 | 00:00:00 | |
| PETON7-10 | 2026-09-04 12:54:52 | 47.04699 | 19.65783 | 116° | 42km/h | 17118m | -20.3m/s | -57.2°C | 4.7% | 92.5hPa | 2.7V | 00:00:00 | 02:00:32 | 00:00:00 | |
| PETON7-10 | 2026-09-04 12:54:37 | 47.04817 | 19.65642 | 159° | 20km/h | 17422m | -18.1m/s | -57.1°C | 4.7% | 88.2hPa | 2.7V | 00:00:00 | 00:00:00 | 00:00:00 | |
| PETON7-10 | 2026-09-04 12:54:22 | 47.04882 | 19.65598 | 119° | 18km/h | 17727m | -21.2m/s | -56.1°C | 4.4% | 84.1hPa | 2.7V | 00:00:00 | 00:00:00 | 00:00:00 | |
| PETON7-10 | 2026-09-04 12:54:06 | 47.04886 | 19.65499 | 51° | 27km/h | 18055m | -21.1m/s | -54.8°C | 3.9% | 79.9hPa | 2.7V | 00:00:00 | 01:59:46 | 00:00:00 | |
| PETON7-10 | 2026-09-04 12:53:51 | 47.04838 | 19.65362 | 83° | 40km/h | 18372m | -20.7m/s | -56.0°C | 4.3% | 76.0hPa | 2.7V | 08:21:00 | 00:00:00 | 00:00:00 | |
| LZ4TU-5 | 2026-09-04 12:53:42 | 47.04834 | 19.65243 | 92° | 38km/h | 18543m | -21.1m/s | -56.8°C | 1.4% | 74.0hPa | 2.6V | 00:00:00 | 00:00:00 | 00:00:00 | |
| LZ4TU-5 | 2026-09-04 12:53:38 | 47.04840 | 19.65185 | 103° | 40km/h | 18622m | -18.9m/s | -57.0°C | 1.4% | 73.1hPa | 2.6V | 00:00:00 | 00:00:00 | 00:00:00 | |
| PETON7-10 | 2026-09-04 12:53:36 | 47.04849 | 19.65138 | 108° | 37km/h | 18682m | -20.9m/s | -56.7°C | 4.8% | 72.4hPa | 2.6V | 00:00:00 | 00:00:00 | 00:00:00 | |
| PETON7-10 | 2026-09-04 12:53:21 | 47.04926 | 19.64970 | 160° | 24km/h | 18999m | -22.2m/s | -55.3°C | 4.2% | 68.8hPa | 2.6V | 00:00:00 | 01:59:01 | 00:00:00 | |
| PETON7-10 | 2026-09-04 12:53:06 | 47.05003 | 19.64909 | 135° | 16km/h | 19336m | -23.3m/s | -55.5°C | 4.3% | 65.3hPa | 2.6V | 00:00:00 | 00:00:00 | 00:00:00 | |
| PETON7-10 | 2026-09-04 12:52:51 | 47.05051 | 19.64870 | 97° | 15km/h | 19675m | -22.6m/s | -55.8°C | 4.5% | 61.9hPa | 2.7V | 00:00:00 | 00:00:00 | 00:00:00 | |
| GYPAP8-17 | 2026-09-04 12:52:45 | 47.05051 | 19.64849 | 87° | 15km/h | 19789m | -22.5m/s | -54.2°C | 1.1% | 60.9hPa | 2.7V | 00:00:00 | 00:00:00 | 00:00:00 | |
| PETON7-10 | 2026-09-04 12:52:36 | 47.05046 | 19.64790 | 90° | 9km/h | 20029m | -23.5m/s | -54.8°C | 4.2% | 58.6hPa | 2.7V | 00:00:00 | 01:58:16 | 00:00:00 | |
| PETON7-10 | 2026-09-04 12:52:21 | 47.05049 | 19.64745 | 75° | 13km/h | 20378m | -22.8m/s | -54.7°C | 4.3% | 55.4hPa | 2.7V | 00:00:00 | 00:00:00 | 00:00:00 | |
| PETON7-10 | 2026-09-04 12:52:06 | 47.05072 | 19.64681 | 140° | 15km/h | 20739m | -25.3m/s | -53.7°C | 3.9% | 52.5hPa | 2.6V | 00:00:00 | 00:00:00 | 00:00:00 | |
| PETON7-10 | 2026-09-04 12:51:51 | 47.05116 | 19.64660 | 348° | 13km/h | 21103m | -25.2m/s | -53.6°C | 3.8% | 49.6hPa | 2.6V | 00:00:00 | 01:57:31 | 00:00:00 | |
| LZ4TU-5 | 2026-09-04 12:51:40 | 47.05090 | 19.64644 | 46° | 16km/h | 21340m | -28.0m/s | -53.6°C | 1.0% | 47.8hPa | 2.6V | 08:23:00 | 00:00:00 | 00:00:00 | |
| GYPAP8-17 | 2026-09-04 12:51:38 | 47.05085 | 19.64635 | 58° | 13km/h | 21393m | -27.0m/s | -53.5°C | 1.0% | 47.4hPa | 2.6V | 00:00:00 | 00:00:00 | 00:00:00 | |
| LZ4TU-5 | 2026-09-04 12:51:36 | 47.05082 | 19.64621 | 87° | 11km/h | 21468m | -24.7m/s | -53.8°C | 1.0% | 46.8hPa | 2.6V | 00:00:00 | 00:00:00 | 00:00:00 | |
| PETON7-10 | 2026-09-04 12:51:21 | 47.05083 | 19.64616 | 360° | 7km/h | 21831m | -24.4m/s | -54.7°C | 4.3% | 44.2hPa | 2.6V | 00:00:00 | 00:00:00 | 00:00:00 | |
| PETON7-10 | 2026-09-04 12:51:06 | 47.05060 | 19.64602 | 58° | 18km/h | 22215m | -26.7m/s | -54.5°C | 4.3% | 41.7hPa | 2.6V | 00:00:00 | 01:56:46 | 00:00:00 | |
| PETON7-10 | 2026-09-04 12:50:51 | 47.05082 | 19.64513 | 146° | 9km/h | 22605m | -27.1m/s | -53.4°C | 4.0% | 39.2hPa | 2.6V | 00:00:00 | 00:00:00 | 00:00:00 | |
| PETON7-10 | 2026-09-04 12:50:36 | 47.05110 | 19.64509 | 151° | 7km/h | 22991m | -26.5m/s | -52.9°C | 4.0% | 36.9hPa | 2.6V | 00:00:00 | 00:00:00 | 00:00:00 | |
| GYPAP8-17 | 2026-09-04 12:50:33 | 47.05113 | 19.64509 | 190° | 5km/h | 23072m | -28.6m/s | -52.8°C | 1.1% | 36.5hPa | 2.6V | 00:00:00 | 00:00:00 | 00:00:00 | |
| PETON7-10 | 2026-09-04 12:50:21 | 47.05134 | 19.64531 | 258° | 7km/h | 23394m | -27.2m/s | -51.2°C | 3.5% | 34.7hPa | 2.6V | 00:00:00 | 01:56:01 | 00:00:00 | |
| PETON7-10 | 2026-09-04 12:50:06 | 47.05126 | 19.64527 | 120° | 11km/h | 23799m | -27.4m/s | -51.0°C | 3.5% | 32.6hPa | 2.6V | 00:00:00 | 00:00:00 | 00:00:00 | |
| PETON7-10 | 2026-09-04 12:49:51 | 47.05085 | 19.64528 | 21° | 26km/h | 24187m | -23.7m/s | -50.5°C | 3.5% | 30.6hPa | 2.7V | 00:00:00 | 00:00:00 | 00:00:00 | |
| LZ4TU-5 | 2026-09-04 12:49:46 | 47.05064 | 19.64509 | 50° | 20km/h | 24292m | -27.7m/s | -50.9°C | 0.9% | 30.3hPa | 2.7V | 00:00:00 | 00:00:00 | 00:00:00 | |
| PETON7-10 | 2026-09-04 12:49:36 | 47.05066 | 19.64413 | 127° | 20km/h | 24591m | -27.3m/s | -50.3°C | 3.5% | 28.8hPa | 2.7V | 00:00:00 | 01:55:16 | 00:00:00 | |
| 9A1FER-10 | 2026-09-04 12:49:26 | 47.05117 | 19.64370 | 159° | 7km/h | 24853m | -23.0m/s | -49.6°C | 3.4% | 27.7hPa | 2.7V | 00:00:00 | 01:55:06 | 00:00:00 | |
| PETON7-10 | 2026-09-04 12:49:21 | 47.05130 | 19.64362 | 170° | 4km/h | 24981m | -26.9m/s | -49.5°C | 3.4% | 27.2hPa | 2.7V | 08:26:00 | 00:00:00 | 00:00:00 | |
| 9A1FER-10 | 2026-09-04 12:49:11 | 47.05131 | 19.64350 | 27° | 2km/h | 25262m | -29.6m/s | -49.5°C | 3.4% | 26.0hPa | 2.6V | 00:00:00 | 01:54:51 | 00:00:00 | |
| PETON7-10 | 2026-09-04 12:49:06 | 47.05132 | 19.64351 | 171° | 4km/h | 25408m | -29.5m/s | -49.4°C | 3.4% | 25.5hPa | 2.6V | 00:00:00 | 00:00:00 | 00:00:00 | |
| 9A1FER-10 | 2026-09-04 12:48:56 | 47.05132 | 19.64343 | 90° | 4km/h | 25713m | -28.7m/s | -48.8°C | 3.2% | 24.3hPa | 2.6V | 00:00:00 | 01:54:36 | 00:00:00 | |
| PETON7-10 | 2026-09-04 12:48:51 | 47.05131 | 19.64339 | 65° | 5km/h | 25854m | -31.2m/s | -48.8°C | 3.2% | 23.8hPa | 2.6V | 00:00:00 | 01:54:31 | 00:00:00 | |
| OE5DXL-15 | 2026-09-04 12:48:42 | 47.05124 | 19.64333 | 109° | 11km/h | 26155m | -27.8m/s | -49.0°C | 3.4% | 22.7hPa | 2.6V | 00:00:00 | 00:00:00 | 08:30:00 | |
| 9A1FER-10 | 2026-09-04 12:48:41 | 47.05124 | 19.64333 | 109° | 9km/h | 26155m | -27.8m/s | -49.0°C | 3.4% | 22.7hPa | 2.6V | 08:26:00 | 01:54:21 | 00:00:00 | |
| PETON7-10 | 2026-09-04 12:48:36 | 47.05119 | 19.64325 | 36° | 13km/h | 26305m | -31.9m/s | -49.0°C | 3.4% | 22.2hPa | 2.6V | 00:00:00 | 00:00:00 | 00:00:00 | |
| GYPAP8-17 | 2026-09-04 12:48:29 | 47.05104 | 19.64315 | 23° | 13km/h | 26497m | -33.1m/s | -48.6°C | 0.8% | 21.6hPa | 2.6V | 00:00:00 | 00:00:00 | 00:00:00 | |
| 9A1FER-10 | 2026-09-04 12:48:26 | 47.05091 | 19.64303 | 55° | 13km/h | 26625m | -33.5m/s | -48.1°C | 3.2% | 21.2hPa | 2.6V | 00:00:00 | 01:54:06 | 00:00:00 | |
| PETON7-10 | 2026-09-04 12:48:21 | 47.05083 | 19.64278 | 88° | 9km/h | 26782m | -31.4m/s | -47.7°C | 3.2% | 20.6hPa | 2.6V | 00:00:00 | 00:00:00 | 00:00:00 | |
| OE3JTB-15 | 2026-09-04 12:48:15 | 47.05100 | 19.64261 | 136° | 18km/h | 27038m | -29.9m/s | -47.1°C | 3.1% | 19.8hPa | 2.6V | 08:27:00 | 00:00:00 | 00:00:00 | |
| 9A1FER-10 | 2026-09-04 12:48:11 | 47.05101 | 19.64259 | 126° | 9km/h | 27068m | -30.4m/s | -47.0°C | 3.1% | 19.8hPa | 2.7V | 00:00:00 | 01:53:51 | 00:00:00 | |
| PETON7-10 | 2026-09-04 12:48:06 | 47.05102 | 19.64247 | 76° | 11km/h | 27227m | -33.2m/s | -46.9°C | 3.1% | 19.3hPa | 2.7V | 00:00:00 | 01:53:46 | 00:00:00 | |
| 9A1FER-10 | 2026-09-04 12:47:56 | 47.05093 | 19.64208 | 37° | 15km/h | 27531m | -33.4m/s | -46.1°C | 2.9% | 18.4hPa | 2.7V | 00:00:00 | 01:53:36 | 00:00:00 | |
| PETON7-10 | 2026-09-04 12:47:51 | 47.05080 | 19.64206 | 14° | 20km/h | 27700m | -34.8m/s | -46.0°C | 3.0% | 18.0hPa | 2.7V | 00:00:00 | 00:00:00 | 00:00:00 | |
| LZ4TU-5 | 2026-09-04 12:47:50 | 47.05080 | 19.64206 | 15° | 13km/h | 27700m | -34.9m/s | -46.0°C | 0.8% | 18.0hPa | 2.7V | 00:00:00 | 00:00:00 | 00:00:00 | |
| LZ4TU-5 | 2026-09-04 12:47:45 | 47.05066 | 19.64193 | 45° | 18km/h | 27879m | -37.3m/s | -45.5°C | 0.7% | 17.6hPa | 2.7V | 00:00:00 | 00:00:00 | 00:00:00 | |
| 9A1FER-10 | 2026-09-04 12:47:41 | 47.05053 | 19.64158 | 74° | 24km/h | 28060m | -34.9m/s | -45.7°C | 2.9% | 17.1hPa | 2.7V | 00:00:00 | 01:53:21 | 00:00:00 | |
| PETON7-10 | 2026-09-04 12:47:36 | 47.05043 | 19.64107 | 90° | 20km/h | 28238m | -37.4m/s | -45.3°C | 2.9% | 16.6hPa | 2.7V | 00:00:00 | 00:00:00 | 00:00:00 | |
| GYPAP8-17 | 2026-09-04 12:47:31 | 47.05045 | 19.64070 | 105° | 22km/h | 28387m | -37.2m/s | -45.6°C | 0.7% | 16.3hPa | 2.7V | 00:00:00 | 00:00:00 | 00:00:00 | |
| PETON7-10 | 2026-09-04 12:47:21 | 47.05062 | 19.63997 | 112° | 11km/h | 28790m | -39.4m/s | -44.8°C | 2.9% | 15.3hPa | 2.7V | 00:00:00 | 01:53:01 | 00:00:00 | |
| OE5DRO-10 | 2026-09-04 12:47:20 | 47.05065 | 19.63987 | 121° | 18km/h | 28865m | -35.5m/s | -44.6°C | 2.9% | 15.1hPa | 2.7V | 00:00:00 | 00:00:00 | 00:00:00 | |
| PETON7-10 | 2026-09-04 12:47:06 | 47.05049 | 19.63947 | 58° | 13km/h | 29332m | -34.3m/s | -43.8°C | 2.9% | 14.1hPa | 2.7V | 08:28:00 | 00:00:00 | 00:00:00 | |
| OE5DXL-15 | 2026-09-04 12:47:04 | 47.05045 | 19.63930 | 67° | 22km/h | 29441m | -39.7m/s | -43.5°C | 2.8% | 13.8hPa | 2.7V | 00:00:00 | 00:00:00 | 00:00:00 | |
| PETON7-10 | 2026-09-04 12:46:50 | 47.05038 | 19.63882 | 355° | 16km/h | 29937m | -35.7m/s | -41.3°C | 2.4% | 12.9hPa | 2.7V | 00:00:00 | 00:00:00 | 00:00:00 | |
| PETON7-10 | 2026-09-04 12:46:35 | 47.04971 | 19.63882 | 3° | 31km/h | 30526m | -42.7m/s | -39.8°C | 2.1% | 11.8hPa | 2.7V | 00:00:00 | 01:52:15 | 00:00:00 | |
| OE3JTB-15 | 2026-09-04 12:46:30 | 47.04907 | 19.63853 | 28° | 24km/h | 30853m | -39.4m/s | -40.5°C | 2.3% | 11.2hPa | 2.7V | 00:00:00 | 00:00:00 | 00:00:00 | |
| PETON7-10 | 2026-09-04 12:46:20 | 47.04871 | 19.63807 | 59° | 11km/h | 31106m | -38.8m/s | -40.9°C | 2.4% | 10.8hPa | 2.7V | 00:00:00 | 00:00:00 | 00:00:00 | |
| GYPAP8-17 | 2026-09-04 12:46:16 | 47.04868 | 19.63787 | 93° | 16km/h | 31220m | -37.4m/s | -40.8°C | 0.6% | 10.7hPa | 2.7V | 00:00:00 | 00:00:00 | 00:00:00 | |
| OE5DXL-15 | 2026-09-04 12:46:15 | 47.04869 | 19.63776 | 108° | 13km/h | 31297m | -41.0m/s | -40.6°C | 2.4% | 10.5hPa | 2.7V | 00:00:00 | 00:00:00 | 00:00:00 | |
| OE5DRO-10 | 2026-09-04 12:46:12 | 47.04872 | 19.63766 | 112° | 18km/h | 31420m | -42.4m/s | -39.4°C | 2.1% | 10.3hPa | 2.6V | 00:00:00 | 00:00:00 | 00:00:00 | |
| PETON7-10 | 2026-09-04 12:46:05 | 47.04869 | 19.63747 | 64° | 16km/h | 31706m | -40.6m/s | -40.0°C | 2.3% | 9.9hPa | 2.6V | 00:00:00 | 00:00:00 | 00:00:00 | |
| PETON7-10 | 2026-09-04 12:45:50 | 47.04879 | 19.63666 | 120° | 11km/h | 32297m | -37.6m/s | -38.3°C | 1.9% | 9.0hPa | 2.6V | 00:00:00 | 01:51:30 | 00:00:00 | |
| LZ4TU-5 | 2026-09-04 12:45:46 | 47.04884 | 19.63651 | 124° | 11km/h | 32444m | -40.3m/s | -38.2°C | 0% | 8.9hPa | 2.6V | 00:00:00 | 00:00:00 | 00:00:00 | |
| OE5DXL-15 | 2026-09-04 12:45:45 | 47.04885 | 19.63647 | 111° | 16km/h | 32484m | -38.7m/s | -38.1°C | 2.0% | 8.8hPa | 2.6V | 00:00:00 | 00:00:00 | 00:00:00 | |
| PETON7-10 | 2026-09-04 12:45:35 | 47.04872 | 19.63650 | 319° | 24km/h | 32870m | -38.3m/s | -37.5°C | 1.9% | 8.3hPa | 2.6V | 00:00:00 | 00:00:00 | 00:00:00 | |
| PETON7-10 | 2026-09-04 12:45:20 | 47.04791 | 19.63690 | 349° | 29km/h | 33292m | -24.4m/s | -38.3°C | 2.1% | 7.8hPa | 2.7V | 00:00:00 | 00:00:00 | 00:00:00 | |
| OE5DRO-10 | 2026-09-04 12:45:19 | 47.04787 | 19.63689 | 40° | 31km/h | 33318m | -26.1m/s | -38.3°C | 2.1% | 7.7hPa | 2.7V | 00:00:00 | 00:00:00 | 00:00:00 | |
| PETON7-10 | 2026-09-04 12:45:05 | 47.04732 | 19.63590 | 14° | 22km/h | 33659m | 5.0m/s | -37.9°C | 2.1% | 7.3hPa | 2.7V | 00:00:00 | 01:50:45 | 00:00:00 | |
| 9A1FER-10 | 2026-09-04 12:45:00 | 47.04723 | 19.63569 | 68° | 24km/h | 33624m | 6.8m/s | -37.6°C | 2.0% | 7.3hPa | 2.7V | 00:00:00 | 01:50:40 | 00:00:00 | |
| PETON7-10 | 2026-09-04 12:44:50 | 47.04676 | 19.63508 | 337° | 24km/h | 33552m | 4.2m/s | -37.5°C | 2.0% | 7.4hPa | 2.7V | 00:00:00 | 00:00:00 | 08:30:00 | |
| 9A1FER-10 | 2026-09-04 12:44:44 | 47.04648 | 19.63484 | 34° | 29km/h | 33513m | 8.1m/s | -37.7°C | 2.0% | 7.5hPa | 2.7V | 00:00:00 | 01:50:24 | 00:00:00 | |
| PETON7-10 | 2026-09-04 12:44:35 | 47.04605 | 19.63440 | 357° | 24km/h | 33448m | 9.7m/s | -38.3°C | 2.2% | 7.5hPa | 2.6V | 00:00:00 | 00:00:00 | 00:00:00 | |
| 9A1FER-10 | 2026-09-04 12:44:29 | 47.04557 | 19.63424 | 28° | 27km/h | 33410m | 4.3m/s | -38.0°C | 2.1% | 7.6hPa | 2.6V | 00:00:00 | 01:50:09 | 00:00:00 | |
| OE5DRO-10 | 2026-09-04 12:44:22 | 47.04531 | 19.63422 | 29° | 27km/h | 33357m | 4.2m/s | -37.9°C | 2.0% | 7.7hPa | 2.6V | 00:00:00 | 00:00:00 | 00:00:00 | |
| PETON7-10 | 2026-09-04 12:44:20 | 47.04520 | 19.63415 | 16° | 24km/h | 33347m | 7.0m/s | -38.2°C | 2.2% | 7.7hPa | 2.6V | 00:00:00 | 01:50:00 | 00:00:00 | |
| 9A1FER-10 | 2026-09-04 12:44:14 | 47.04468 | 19.63412 | 14° | 22km/h | 33304m | 7.8m/s | -38.2°C | 2.0% | 7.7hPa | 2.6V | 00:00:00 | 01:49:54 | 00:00:00 | |
| PETON7-10 | 2026-09-04 12:44:05 | 47.04436 | 19.63427 | 354° | 22km/h | 33241m | 5.3m/s | -38.2°C | 2.1% | 7.8hPa | 2.6V | 00:00:00 | 00:00:00 | 00:00:00 | |
| LZ4TU-5 | 2026-09-04 12:43:52 | 47.04375 | 19.63475 | 339° | 31km/h | 33145m | 10.4m/s | -38.1°C | 0% | 7.9hPa | 2.6V | 00:00:00 | 00:00:00 | 00:00:00 | |
| PETON7-10 | 2026-09-04 12:43:50 | 47.04361 | 19.63483 | 336° | 20km/h | 33132m | 5.1m/s | -37.8°C | 2.0% | 7.9hPa | 2.6V | 00:00:00 | 00:00:00 | 00:00:00 | |
| 9A1FER-10 | 2026-09-04 12:43:49 | 47.04356 | 19.63487 | 331° | 18km/h | 33126m | 7.3m/s | -37.8°C | 2.0% | 7.9hPa | 2.6V | 00:00:00 | 01:49:29 | 08:30:00 | |
| LZ4TU-5 | 2026-09-04 12:43:47 | 47.04346 | 19.63499 | 309° | 26km/h | 33108m | 6.6m/s | -38.2°C | 0% | 8.0hPa | 2.6V | 00:00:00 | 00:00:00 | 00:00:00 | |
| PETON7-10 | 2026-09-04 12:43:35 | 47.04321 | 19.63570 | 291° | 16km/h | 33020m | 7.2m/s | -37.8°C | 2.0% | 8.0hPa | 2.6V | 00:00:00 | 01:49:15 | 00:00:00 | |
| 9A1FER-10 | 2026-09-04 12:43:33 | 47.04320 | 19.63579 | 279° | 16km/h | 33008m | 7.2m/s | -38.0°C | 2.0% | 8.0hPa | 2.6V | 00:00:00 | 01:49:13 | 00:00:00 | |
| PETON7-10 | 2026-09-04 12:43:20 | 47.04279 | 19.63622 | 323° | 9km/h | 32908m | 8.7m/s | -37.7°C | 2.0% | 8.2hPa | 2.6V | 00:00:00 | 00:00:00 | 00:00:00 | |
| GYPAP8-17 | 2026-09-04 12:43:08 | 47.04264 | 19.63627 | 34° | 13km/h | 32829m | 9.5m/s | -37.9°C | 0.5% | 8.3hPa | 2.7V | 00:00:00 | 00:00:00 | 00:00:00 | |
| PETON7-10 | 2026-09-04 12:43:05 | 47.04256 | 19.63624 | 236° | 7km/h | 32801m | 9.5m/s | -37.9°C | 2.0% | 8.3hPa | 2.7V | 00:00:00 | 00:00:00 | 00:00:00 | |
| OE5DXL-15 | 2026-09-04 12:43:01 | 47.04252 | 19.63626 | 32° | 13km/h | 32758m | 5.9m/s | -38.4°C | 2.1% | 8.3hPa | 2.7V | 00:00:00 | 00:00:00 | 00:00:00 | |
| PETON7-10 | 2026-09-04 12:42:50 | 47.04260 | 19.63616 | 189° | 16km/h | 32689m | 7.8m/s | -38.3°C | 2.1% | 8.4hPa | 2.7V | 00:00:00 | 01:48:30 | 00:00:00 | |
| PETON7-10 | 2026-09-04 12:42:35 | 47.04290 | 19.63542 | 116° | 11km/h | 32583m | 9.1m/s | -38.6°C | 1.9% | 8.6hPa | 2.7V | 00:00:00 | 00:00:00 | 08:30:00 | |
| OE5DXL-15 | 2026-09-04 12:42:31 | 47.04299 | 19.63527 | 121° | 9km/h | 32537m | 4.0m/s | -38.3°C | 1.9% | 8.6hPa | 2.7V | 00:00:00 | 00:00:00 | 00:00:00 | |
| PETON7-10 | 2026-09-04 12:42:20 | 47.04313 | 19.63492 | 107° | 9km/h | 32472m | 4.4m/s | -38.5°C | 2.0% | 8.7hPa | 2.7V | 00:00:00 | 00:00:00 | 00:00:00 | |
| PETON7-10 | 2026-09-04 12:42:05 | 47.04329 | 19.63467 | 115° | 13km/h | 32358m | 7.8m/s | -38.3°C | 2.0% | 8.9hPa | 2.7V | 00:00:00 | 01:47:45 | 00:00:00 | |
| SP9KGR-15 | 2026-09-04 12:42:04 | 47.04330 | 19.63466 | 157° | 2km/h | 32351m | 5.7m/s | 0°C | 0% | 0hPa | 2.7V | 00:00:00 | 00:00:00 | 00:00:00 | |
| OE5DXL-15 | 2026-09-04 12:41:58 | 47.04340 | 19.63462 | 125° | 22km/h | 32305m | 10.4m/s | -38.5°C | 2.0% | 8.9hPa | 2.7V | 00:00:00 | 00:00:00 | 00:00:00 | |
| PETON7-10 | 2026-09-04 12:41:50 | 47.04349 | 19.63416 | 109° | 20km/h | 32245m | 11.3m/s | -38.8°C | 1.9% | 9.0hPa | 2.7V | 00:00:00 | 00:00:00 | 00:00:00 | |
| GYPAP8-17 | 2026-09-04 12:41:41 | 47.04368 | 19.63367 | 107° | 31km/h | 32186m | 10.9m/s | -39.6°C | 0.5% | 9.1hPa | 2.7V | 00:00:00 | 00:00:00 | 00:00:00 | |
| PETON7-10 | 2026-09-04 12:41:35 | 47.04373 | 19.63319 | 125° | 24km/h | 32138m | 8.5m/s | -40.1°C | 2.2% | 9.2hPa | 2.7V | 00:00:00 | 00:00:00 | 00:00:00 | |
| SP9KGR-15 | 2026-09-04 12:41:33 | 47.04375 | 19.63314 | 140° | 18km/h | 32128m | 11.7m/s | 0°C | 0% | 0hPa | 2.7V | 00:00:00 | 00:00:00 | 00:00:00 | |
| OE5DXL-15 | 2026-09-04 12:41:27 | 47.04399 | 19.63267 | 99° | 18km/h | 32076m | 10.0m/s | -40.9°C | 2.3% | 9.2hPa | 2.7V | 00:00:00 | 00:00:00 | 00:00:00 | |
| SP9KGR-15 | 2026-09-04 12:41:15 | 47.04393 | 19.63179 | 83° | 16km/h | 31994m | 9.0m/s | 0°C | 0% | 0hPa | 2.7V | 00:00:00 | 00:00:00 | 00:00:00 | |
| LZ4TU-5 | 2026-09-04 12:41:09 | 47.04375 | 19.63141 | 35° | 16km/h | 31942m | 8.0m/s | -40.9°C | 0% | 9.5hPa | 2.7V | 00:00:00 | 00:00:00 | 00:00:00 | |
| PETON7-10 | 2026-09-04 12:41:05 | 47.04368 | 19.63138 | 126° | 9km/h | 31912m | 9.3m/s | -40.9°C | 2.3% | 9.5hPa | 2.7V | 00:00:00 | 00:00:00 | 00:00:00 | |
| LZ4TU-5 | 2026-09-04 12:41:04 | 47.04368 | 19.63138 | 127° | 4km/h | 31912m | 9.4m/s | -41.0°C | 0% | 0hPa | 2.6V | 00:00:00 | 00:00:00 | 00:00:00 | |
| SP9KGR-15 | 2026-09-04 12:40:58 | 47.04359 | 19.63118 | 25° | 9km/h | 31867m | 6.1m/s | 0°C | 0% | 0hPa | 2.6V | 00:00:00 | 00:00:00 | 00:00:00 | |
| OE5DXL-15 | 2026-09-04 12:40:57 | 47.04355 | 19.63114 | 44° | 7km/h | 31851m | 9.4m/s | -40.9°C | 2.4% | 9.6hPa | 2.6V | 00:00:00 | 00:00:00 | 08:30:00 | |
| PETON7-10 | 2026-09-04 12:40:50 | 47.04349 | 19.63118 | 170° | 5km/h | 31801m | 9.1m/s | -40.4°C | 2.2% | 9.6hPa | 2.7V | 00:00:00 | 00:00:00 | 00:00:00 | |
| SP9KGR-15 | 2026-09-04 12:40:39 | 47.04338 | 19.63106 | 17° | 4km/h | 31723m | 4.5m/s | 0°C | 0% | 0hPa | 2.7V | 00:00:00 | 00:00:00 | 00:00:00 | |
| PETON7-10 | 2026-09-04 12:40:35 | 47.04342 | 19.63104 | 129° | 9km/h | 31689m | 4.8m/s | -39.6°C | 2.2% | 9.8hPa | 2.7V | 00:00:00 | 01:46:15 | 00:00:00 | |
| GYPAP8-17 | 2026-09-04 12:40:33 | 47.04342 | 19.63097 | 67° | 13km/h | 31673m | 10.6m/s | -39.8°C | 0.6% | 9.9hPa | 2.7V | 00:00:00 | 00:00:00 | 00:00:00 | |
| OE5DXL-15 | 2026-09-04 12:40:25 | 47.04339 | 19.63094 | 110° | 11km/h | 31609m | 5.5m/s | -39.9°C | 2.2% | 9.9hPa | 2.7V | 00:00:00 | 00:00:00 | 00:00:00 | |
| PETON7-10 | 2026-09-04 12:40:20 | 47.04342 | 19.63083 | 97° | 11km/h | 31579m | 6.4m/s | -39.7°C | 2.1% | 10.0hPa | 2.7V | 00:00:00 | 00:00:00 | 08:30:00 | |
| PETON7-10 | 2026-09-04 12:40:05 | 47.04354 | 19.63051 | 88° | 16km/h | 31470m | 6.6m/s | -39.6°C | 2.0% | 10.1hPa | 2.7V | 00:00:00 | 00:00:00 | 00:00:00 | |
| OE5DXL-15 | 2026-09-04 12:39:53 | 47.04371 | 19.62977 | 83° | 22km/h | 31368m | 5.9m/s | -41.1°C | 2.4% | 10.3hPa | 2.7V | 00:00:00 | 00:00:00 | 00:00:00 | |
| PETON7-10 | 2026-09-04 12:39:50 | 47.04370 | 19.62969 | 84° | 22km/h | 31361m | 8.7m/s | -41.3°C | 2.3% | 10.3hPa | 2.7V | 00:00:00 | 01:45:30 | 00:00:00 | |
| PETON7-10 | 2026-09-04 12:39:35 | 47.04334 | 19.62872 | 66° | 22km/h | 31251m | 8.4m/s | -40.5°C | 2.3% | 10.4hPa | 2.7V | 00:00:00 | 00:00:00 | 00:00:00 | |
| OE5DXL-15 | 2026-09-04 12:39:22 | 47.04288 | 19.62800 | 64° | 26km/h | 31159m | 7.7m/s | 0°C | 0% | 0hPa | 2.7V | 00:00:00 | 00:00:00 | 00:00:00 | |
| PETON7-10 | 2026-09-04 12:39:20 | 47.04283 | 19.62785 | 61° | 27km/h | 31146m | 6.3m/s | -41.2°C | 2.5% | 10.6hPa | 2.7V | 00:00:00 | 00:00:00 | 00:00:00 | |
| GYPAP8-17 | 2026-09-04 12:39:16 | 47.04271 | 19.62770 | 30° | 20km/h | 31123m | 5.8m/s | -40.9°C | 0.5% | 10.7hPa | 2.7V | 00:00:00 | 00:00:00 | 00:00:00 | |
| PETON7-10 | 2026-09-04 12:39:05 | 47.04210 | 19.62673 | 37° | 38km/h | 31039m | 7.7m/s | -40.8°C | 2.4% | 10.8hPa | 2.7V | 00:00:00 | 01:44:45 | 00:00:00 | |
| LZ4TU-5 | 2026-09-04 12:39:00 | 47.04180 | 19.62654 | 24° | 35km/h | 31009m | 8.9m/s | -40.7°C | 0% | 0hPa | 2.7V | 00:00:00 | 00:00:00 | 00:00:00 | |
| LZ4TU-5 | 2026-09-04 12:38:57 | 47.04145 | 19.62617 | 38° | 49km/h | 30979m | 9.9m/s | 0°C | 0% | 0hPa | 2.7V | 00:00:00 | 00:00:00 | 00:00:00 | |
| OE5DRO-10 | 2026-09-04 12:38:56 | 47.04134 | 19.62607 | 31° | 40km/h | 30971m | 6.1m/s | -40.2°C | 2.3% | 10.9hPa | 2.7V | 00:00:00 | 00:00:00 | 00:00:00 | |
| PETON7-10 | 2026-09-04 12:38:50 | 47.04084 | 19.62573 | 6° | 38km/h | 30928m | 7.7m/s | -40.1°C | 2.3% | 11.0hPa | 2.7V | 00:00:00 | 00:00:00 | 00:00:00 | |
| PETON7-10 | 2026-09-04 12:38:34 | 47.03943 | 19.62509 | 353° | 35km/h | 30808m | 8.9m/s | -39.7°C | 2.2% | 11.2hPa | 2.6V | 00:00:00 | 00:00:00 | 00:00:00 | |
| OE5DRO-10 | 2026-09-04 12:38:31 | 47.03920 | 19.62503 | 24° | 33km/h | 30787m | 8.9m/s | -39.6°C | 2.2% | 11.2hPa | 2.6V | 00:00:00 | 00:00:00 | 00:00:00 | |
| PETON7-10 | 2026-09-04 12:38:19 | 47.03825 | 19.62460 | 354° | 27km/h | 30695m | 5.9m/s | -39.5°C | 2.1% | 11.4hPa | 2.6V | 00:00:00 | 01:43:59 | 00:00:00 | |
| OE5DRO-10 | 2026-09-04 12:38:11 | 47.03768 | 19.62449 | 360° | 20km/h | 30634m | 6.5m/s | -39.9°C | 2.0% | 11.4hPa | 2.6V | 00:00:00 | 00:00:00 | 00:00:00 | |
| OE5DXL-15 | 2026-09-04 12:38:06 | 47.03721 | 19.62453 | 359° | 16km/h | 30582m | 6.1m/s | 0°C | 0% | 0hPa | 2.6V | 00:00:00 | 00:00:00 | 00:00:00 | |
| PETON7-10 | 2026-09-04 12:38:04 | 47.03721 | 19.62453 | 359° | 20km/h | 30582m | 6.1m/s | -40.2°C | 2.3% | 11.6hPa | 2.6V | 00:00:00 | 00:00:00 | 08:30:00 | |
| GYPAP8-17 | 2026-09-04 12:38:03 | 47.03721 | 19.62453 | 359° | 26km/h | 30582m | 6.1m/s | -40.3°C | 0.6% | 11.6hPa | 2.6V | 00:00:00 | 00:00:00 | 00:00:00 | |
| PETON7-10 | 2026-09-04 12:37:49 | 47.03650 | 19.62466 | 18° | 16km/h | 30471m | 7.4m/s | -40.5°C | 2.2% | 11.7hPa | 2.6V | 00:00:00 | 00:00:00 | 00:00:00 | |
| 9A1FER-10 | 2026-09-04 12:37:36 | 47.03604 | 19.62462 | 13° | 16km/h | 30370m | 7.0m/s | -40.2°C | 2.4% | 11.9hPa | 2.6V | 00:00:00 | 01:43:16 | 00:00:00 | |
| PETON7-10 | 2026-09-04 12:37:34 | 47.03595 | 19.62457 | 36° | 15km/h | 30357m | 8.1m/s | -40.2°C | 2.3% | 11.9hPa | 2.6V | 00:00:00 | 01:43:14 | 00:00:00 | |
| OE5DXL-15 | 2026-09-04 12:37:29 | 47.03588 | 19.62448 | 336° | 18km/h | 30317m | 8.7m/s | 0°C | 0% | 0hPa | 2.6V | 00:00:00 | 00:00:00 | 00:00:00 | |
| 9A1FER-10 | 2026-09-04 12:37:21 | 47.03555 | 19.62456 | 360° | 16km/h | 30258m | 4.0m/s | -40.2°C | 2.2% | 12.1hPa | 2.6V | 00:00:00 | 01:43:01 | 00:00:00 | |
| PETON7-10 | 2026-09-04 12:37:19 | 47.03545 | 19.62454 | 18° | 20km/h | 30247m | 8.4m/s | -40.4°C | 2.2% | 12.2hPa | 2.7V | 00:00:00 | 00:00:00 | 00:00:00 | |
| PETON7-10 | 2026-09-04 12:37:03 | 47.03473 | 19.62482 | 318° | 11km/h | 30131m | 9.7m/s | -41.1°C | 2.3% | 12.4hPa | 2.6V | 00:00:00 | 00:00:00 | 00:00:00 | |
| LZ4TU-5 | 2026-09-04 12:37:02 | 47.03472 | 19.62483 | 276° | 4km/h | 30123m | 5.6m/s | 0°C | 0% | 0hPa | 2.6V | 00:00:00 | 00:00:00 | 00:00:00 | |
| OE5DXL-15 | 2026-09-04 12:36:59 | 47.03469 | 19.62488 | 349° | 15km/h | 30101m | 7.8m/s | 0°C | 0% | 0hPa | 2.6V | 00:00:00 | 00:00:00 | 00:00:00 | |
| LZ4TU-5 | 2026-09-04 12:36:58 | 47.03465 | 19.62488 | 355° | 15km/h | 30094m | 6.1m/s | !°C | 0% | 0hPa | 2.6V | 00:00:00 | 00:00:00 | 00:00:00 | |
| PETON7-10 | 2026-09-04 12:36:48 | 47.03448 | 19.62501 | 182° | 11km/h | 30020m | 5.6m/s | -41.1°C | 2.4% | 12.6hPa | 2.6V | 00:00:00 | 01:42:28 | 00:00:00 | |
| GYPAP8-17 | 2026-09-04 12:36:44 | 47.03460 | 19.62498 | 141° | 9km/h | 29999m | 9.1m/s | -41.0°C | 0.6% | 12.6hPa | 2.6V | 00:00:00 | 00:00:00 | 00:00:00 | |
| PETON7-10 | 2026-09-04 12:36:33 | 47.03451 | 19.62469 | 170° | 15km/h | 29912m | 4.5m/s | -41.1°C | 2.3% | 12.7hPa | 2.6V | 00:00:00 | 00:00:00 | 00:00:00 | |
| OE5DXL-15 | 2026-09-04 12:36:28 | 47.03469 | 19.62434 | 99° | 9km/h | 29863m | 5.3m/s | 0°C | 0% | 0hPa | 2.7V | 00:00:00 | 00:00:00 | 00:00:00 | |
| PETON7-10 | 2026-09-04 12:36:18 | 47.03456 | 19.62415 | 135° | 18km/h | 29809m | 4.7m/s | -41.3°C | 2.3% | 13.0hPa | 2.7V | 00:00:00 | 00:00:00 | 00:00:00 | |
| PETON7-10 | 2026-09-04 12:36:03 | 47.03435 | 19.62335 | 81° | 15km/h | 29705m | 7.6m/s | -41.7°C | 2.5% | 13.2hPa | 2.7V | 00:00:00 | 01:41:43 | 00:00:00 | |
| PETON7-10 | 2026-09-04 12:35:48 | 47.03405 | 19.62273 | 68° | 16km/h | 29599m | 8.6m/s | -41.9°C | 2.3% | 13.4hPa | 2.7V | 00:00:00 | 00:00:00 | 08:30:00 | |
| GYPAP8-17 | 2026-09-04 12:35:41 | 47.03399 | 19.62235 | 68° | 18km/h | 29558m | 7.8m/s | -42.4°C | 0.6% | 13.5hPa | 2.7V | 00:00:00 | 00:00:00 | 00:00:00 | |
| PETON7-10 | 2026-09-04 12:35:33 | 47.03388 | 19.62185 | 87° | 18km/h | 29492m | 8.3m/s | -43.7°C | 2.6% | 13.6hPa | 2.7V | 00:00:00 | 00:00:00 | 00:00:00 | |
| 9A1FER-10 | 2026-09-04 12:35:30 | 47.03388 | 19.62163 | 83° | 15km/h | 29473m | 5.2m/s | -43.9°C | 2.6% | 13.6hPa | 2.7V | 00:00:00 | 01:41:10 | 00:00:00 | |
| PETON7-10 | 2026-09-04 12:35:18 | 47.03360 | 19.62106 | 95° | 15km/h | 29390m | 5.1m/s | -44.1°C | 2.6% | 13.8hPa | 2.7V | 00:00:00 | 01:40:58 | 00:00:00 | |
| 9A1FER-10 | 2026-09-04 12:35:15 | 47.03356 | 19.62092 | 43° | 15km/h | 29370m | 4.8m/s | -44.0°C | 2.7% | 13.8hPa | 2.7V | 00:00:00 | 01:40:55 | 00:00:00 | |
| PETON7-10 | 2026-09-04 12:35:03 | 47.03324 | 19.62065 | 95° | 9km/h | 29289m | 8.7m/s | -43.9°C | 2.6% | 14.0hPa | 2.7V | 00:00:00 | 00:00:00 | 00:00:00 | |
| LZ4TU-5 | 2026-09-04 12:35:01 | 47.03323 | 19.62061 | 74° | 13km/h | 29281m | 6.4m/s | 0°C | 0% | 0hPa | 2.6V | 00:00:00 | 00:00:00 | 00:00:00 | |
| 9A1FER-10 | 2026-09-04 12:35:00 | 47.03320 | 19.62053 | 44° | 7km/h | 29268m | 7.8m/s | -43.8°C | 2.7% | 14.1hPa | 2.6V | 00:00:00 | 01:40:40 | 00:00:00 | |
| LZ4TU-5 | 2026-09-04 12:34:57 | 47.03314 | 19.62049 | 14° | 11km/h | 29253m | 5.9m/s | 0°C | 0% | 0hPa | 2.6V | 00:00:00 | 00:00:00 | 00:00:00 | |
| SP9KGR-15 | 2026-09-04 12:34:55 | 47.03310 | 19.62047 | 28° | 9km/h | 29239m | 7.4m/s | 0°C | 0% | 0hPa | 2.6V | 00:00:00 | 00:00:00 | 00:00:00 | |
| PETON7-10 | 2026-09-04 12:34:48 | 47.03308 | 19.62035 | 78° | 7km/h | 29185m | 6.6m/s | -43.7°C | 2.7% | 14.2hPa | 2.6V | 00:00:00 | 00:00:00 | 00:00:00 | |
| 9A1FER-10 | 2026-09-04 12:34:45 | 47.03305 | 19.62035 | 331° | 5km/h | 29163m | 5.7m/s | -43.9°C | 2.6% | 14.3hPa | 2.6V | 00:00:00 | 01:40:25 | 00:00:00 | |
| OE5DXL-15 | 2026-09-04 12:34:35 | 47.03293 | 19.62028 | 90° | 11km/h | 29093m | 4.8m/s | 0°C | 0% | 0hPa | 2.6V | 00:00:00 | 01:40:15 | 00:00:00 | |
| PETON7-10 | 2026-09-04 12:34:33 | 47.03293 | 19.62024 | 106° | 9km/h | 29080m | 8.8m/s | -44.3°C | 2.7% | 14.5hPa | 2.6V | 00:00:00 | 01:40:13 | 00:00:00 | |
| 9A1FER-10 | 2026-09-04 12:34:30 | 47.03295 | 19.62024 | 157° | 11km/h | 29060m | 7.5m/s | -44.4°C | 2.7% | 14.5hPa | 2.6V | 00:00:00 | 01:40:10 | 00:00:00 | |
| GYPAP8-17 | 2026-09-04 12:34:25 | 47.03297 | 19.62016 | 109° | 5km/h | 29032m | 7.2m/s | -44.6°C | 0.7% | 14.6hPa | 2.6V | 00:00:00 | 00:00:00 | 00:00:00 | |
| PETON7-10 | 2026-09-04 12:34:18 | 47.03313 | 19.61982 | 132° | 15km/h | 28976m | 4.2m/s | -44.4°C | 2.7% | 14.7hPa | 2.6V | 00:00:00 | 00:00:00 | 00:00:00 | |
| 9A1FER-10 | 2026-09-04 12:34:15 | 47.03317 | 19.61967 | 88° | 16km/h | 28957m | 6.3m/s | -44.8°C | 2.7% | 14.8hPa | 2.7V | 00:00:00 | 01:39:55 | 08:30:00 | |
| OE5DXL-15 | 2026-09-04 12:34:04 | 47.03330 | 19.61913 | 124° | 20km/h | 28880m | 6.5m/s | 0°C | 0% | 0hPa | 2.7V | 00:00:00 | 00:00:00 | 00:00:00 | |
| PETON7-10 | 2026-09-04 12:34:03 | 47.03332 | 19.61908 | 113° | 24km/h | 28873m | 7.7m/s | -45.0°C | 2.7% | 14.9hPa | 2.7V | 00:00:00 | 00:00:00 | 00:00:00 | |
| 9A1FER-10 | 2026-09-04 12:34:00 | 47.03337 | 19.61884 | 109° | 22km/h | 28852m | 8.7m/s | -45.2°C | 2.8% | 15.0hPa | 2.7V | 00:00:00 | 01:39:40 | 00:00:00 | |
| PETON7-10 | 2026-09-04 12:33:48 | 47.03363 | 19.61788 | 54° | 18km/h | 28767m | 5.8m/s | -45.6°C | 2.9% | 15.2hPa | 2.7V | 00:00:00 | 01:39:28 | 00:00:00 | |
| 9A1FER-10 | 2026-09-04 12:33:45 | 47.03358 | 19.61779 | 83° | 20km/h | 28747m | 4.9m/s | -45.3°C | 2.9% | 15.2hPa | 2.7V | 00:00:00 | 01:39:25 | 00:00:00 | |
| PETON7-10 | 2026-09-04 12:33:33 | 47.03377 | 19.61693 | 132° | 18km/h | 28670m | 5.4m/s | -45.4°C | 2.7% | 15.4hPa | 2.7V | 00:00:00 | 00:00:00 | 08:30:00 | |
| OE3JTB-15 | 2026-09-04 12:33:32 | 47.03382 | 19.61677 | 82° | 24km/h | 28648m | 4.6m/s | -45.4°C | 2.8% | 15.5hPa | 2.7V | 00:00:00 | 00:00:00 | 00:00:00 | |
| 9A1FER-10 | 2026-09-04 12:33:30 | 47.03382 | 19.61677 | 82° | 20km/h | 28648m | 4.6m/s | -45.4°C | 2.8% | 15.5hPa | 2.7V | 00:00:00 | 01:39:10 | 00:00:00 | |
| PETON7-10 | 2026-09-04 12:33:18 | 47.03389 | 19.61596 | 110° | 20km/h | 28570m | 5.8m/s | -46.1°C | 2.9% | 15.7hPa | 2.7V | 00:00:00 | 00:00:00 | 00:00:00 | |
| 9A1FER-10 | 2026-09-04 12:33:15 | 47.03390 | 19.61569 | 81° | 22km/h | 28548m | 5.9m/s | -46.2°C | 2.8% | 15.7hPa | 2.7V | 00:00:00 | 01:38:55 | 00:00:00 | |
| PETON7-10 | 2026-09-04 12:33:03 | 47.03392 | 19.61486 | 96° | 26km/h | 28466m | 9.9m/s | -45.5°C | 2.9% | 15.9hPa | 2.7V | 00:00:00 | 01:38:43 | 00:00:00 | |
| 9A1FER-10 | 2026-09-04 12:33:00 | 47.03388 | 19.61449 | 81° | 27km/h | 28448m | 8.3m/s | -45.7°C | 3.0% | 15.9hPa | 2.7V | 00:00:00 | 01:38:40 | 00:00:00 | |
| GYPAP8-17 | 2026-09-04 12:32:56 | 47.03382 | 19.61412 | 67° | 33km/h | 28428m | 7.1m/s | -45.9°C | 0.8% | 16.0hPa | 2.7V | 00:00:00 | 00:00:00 | 00:00:00 | |
| LZ4TU-5 | 2026-09-04 12:32:52 | 47.03369 | 19.61385 | 68° | 7km/h | 28401m | 8.7m/s | 0°C | 0% | 0hPa | 2.7V | 00:00:00 | 00:00:00 | 00:00:00 | |
| PETON7-10 | 2026-09-04 12:32:48 | 47.03368 | 19.61356 | 74° | 37km/h | 28368m | 7.0m/s | -45.8°C | 2.9% | 16.1hPa | 2.7V | 00:00:00 | 00:00:00 | 00:00:00 | |
| LZ4TU-5 | 2026-09-04 12:32:47 | 47.03368 | 19.61356 | 75° | 35km/h | 28368m | 7.1m/s | 0°C | 0% | 0hPa | 2.6V | 00:00:00 | 00:00:00 | 00:00:00 | |
| 9A1FER-10 | 2026-09-04 12:32:45 | 47.03360 | 19.61309 | 75° | 35km/h | 28345m | 5.5m/s | -45.4°C | 2.9% | 16.2hPa | 2.6V | 00:00:00 | 01:38:25 | 00:00:00 | |
| OE5DRO-10 | 2026-09-04 12:32:35 | 47.03308 | 19.61181 | 71° | 29km/h | 28266m | 7.3m/s | -45.6°C | 2.8% | 16.4hPa | 2.6V | 00:00:00 | 00:00:00 | 00:00:00 | |
| PETON7-10 | 2026-09-04 12:32:33 | 47.03308 | 19.61181 | 71° | 27km/h | 28266m | 7.3m/s | -45.6°C | 2.8% | 16.4hPa | 2.6V | 00:00:00 | 00:00:00 | 00:00:00 | |
| 9A1FER-10 | 2026-09-04 12:32:30 | 47.03299 | 19.61144 | 63° | 26km/h | 28246m | 5.3m/s | -45.7°C | 2.8% | 16.4hPa | 2.6V | 00:00:00 | 01:38:10 | 00:00:00 | |
| PETON7-10 | 2026-09-04 12:32:18 | 47.03270 | 19.61047 | 95° | 26km/h | 28159m | 5.6m/s | -45.9°C | 3.0% | 16.6hPa | 2.6V | 00:00:00 | 01:37:58 | 00:00:00 | |
| 9A1FER-10 | 2026-09-04 12:32:15 | 47.03264 | 19.61020 | 50° | 26km/h | 28137m | 7.2m/s | -45.8°C | 2.9% | 16.7hPa | 2.6V | 00:00:00 | 01:37:55 | 00:00:00 | |
| PETON7-10 | 2026-09-04 12:32:03 | 47.03212 | 19.60945 | 65° | 22km/h | 28049m | 5.7m/s | -45.5°C | 2.9% | 16.9hPa | 2.6V | 00:00:00 | 00:00:00 | 00:00:00 | |
| 9A1FER-10 | 2026-09-04 12:32:00 | 47.03201 | 19.60919 | 52° | 20km/h | 28028m | 8.6m/s | -45.5°C | 2.8% | 17.0hPa | 2.7V | 00:00:00 | 01:37:40 | 08:30:00 | |
| PETON7-10 | 2026-09-04 12:31:47 | 47.03151 | 19.60858 | 43° | 15km/h | 27934m | 8.5m/s | -45.1°C | 2.8% | 17.2hPa | 2.6V | 00:00:00 | 00:00:00 | 00:00:00 | |
| GYPAP8-17 | 2026-09-04 12:31:46 | 47.03151 | 19.60858 | 43° | 16km/h | 27934m | 8.5m/s | -45.2°C | 0.7% | 17.3hPa | 2.6V | 00:00:00 | 00:00:00 | 00:00:00 | |
| 9A1FER-10 | 2026-09-04 12:31:45 | 47.03145 | 19.60852 | 29° | 15km/h | 27921m | 7.2m/s | -45.2°C | 2.9% | 17.2hPa | 2.6V | 00:00:00 | 01:37:25 | 00:00:00 | |
| PETON7-10 | 2026-09-04 12:31:32 | 47.03100 | 19.60832 | 357° | 15km/h | 27827m | 8.3m/s | -45.2°C | 2.7% | 17.5hPa | 2.6V | 00:00:00 | 01:37:12 | 00:00:00 | |
| 9A1FER-10 | 2026-09-04 12:31:30 | 47.03092 | 19.60830 | 18° | 15km/h | 27811m | 4.2m/s | -45.2°C | 2.8% | 17.5hPa | 2.6V | 00:00:00 | 01:37:10 | 00:00:00 | |
| OE5DRO-10 | 2026-09-04 12:31:29 | 47.03088 | 19.60828 | 17° | 15km/h | 27806m | 6.5m/s | -45.1°C | 2.7% | 17.5hPa | 2.6V | 00:00:00 | 00:00:00 | 00:00:00 | |
| PETON7-10 | 2026-09-04 12:31:17 | 47.03046 | 19.60833 | 327° | 7km/h | 27719m | 6.2m/s | -45.5°C | 2.8% | 17.8hPa | 2.6V | 00:00:00 | 00:00:00 | 08:30:00 | |
| 9A1FER-10 | 2026-09-04 12:31:15 | 47.03041 | 19.60837 | 325° | 7km/h | 27704m | 8.3m/s | -45.7°C | 2.7% | 17.8hPa | 2.7V | 00:00:00 | 01:36:55 | 00:00:00 | |
| OE5DRO-10 | 2026-09-04 12:31:10 | 47.03029 | 19.60850 | 344° | 11km/h | 27669m | 7.1m/s | -45.6°C | 2.9% | 17.9hPa | 2.6V | 00:00:00 | 00:00:00 | 00:00:00 | |
| PETON7-10 | 2026-09-04 12:31:02 | 47.03025 | 19.60842 | 71° | 11km/h | 27611m | 7.8m/s | -45.5°C | 2.7% | 18.1hPa | 2.6V | 00:00:00 | 00:00:00 | 00:00:00 | |
| PETON7-10 | 2026-09-04 12:30:47 | 47.03021 | 19.60796 | 76° | 16km/h | 27505m | 6.7m/s | -45.7°C | 2.7% | 18.4hPa | 2.6V | 00:00:00 | 01:36:27 | 00:00:00 | |
| 9A1FER-10 | 2026-09-04 12:30:45 | 47.03017 | 19.60786 | 43° | 16km/h | 27489m | 8.4m/s | -45.8°C | 2.9% | 18.4hPa | 2.6V | 00:00:00 | 01:36:25 | 00:00:00 | |
| LZ4TU-5 | 2026-09-04 12:30:43 | 47.03012 | 19.60781 | 34° | 24km/h | 27482m | 5.5m/s | 0°C | 0% | 0hPa | 2.6V | 00:00:00 | 00:00:00 | 00:00:00 | |
| LZ4TU-5 | 2026-09-04 12:30:39 | 47.02991 | 19.60766 | 58° | 11km/h | 27446m | 9.2m/s | 0°C | 0% | 0hPa | 2.6V | 00:00:00 | 00:00:00 | 00:00:00 | |
| GYPAP8-17 | 2026-09-04 12:30:36 | 47.02991 | 19.60756 | 108° | 18km/h | 27431m | 6.4m/s | -46.0°C | 0.8% | 18.6hPa | 2.6V | 00:00:00 | 00:00:00 | 00:00:00 | |
| PETON7-10 | 2026-09-04 12:30:32 | 47.02997 | 19.60733 | 82° | 15km/h | 27394m | 8.5m/s | -46.2°C | 2.9% | 18.7hPa | 2.6V | 00:00:00 | 00:00:00 | 00:00:00 | |
| 9A1FER-10 | 2026-09-04 12:30:30 | 47.02994 | 19.60725 | 35° | 15km/h | 27380m | 7.7m/s | -46.0°C | 2.7% | 18.7hPa | 2.7V | 00:00:00 | 01:36:10 | 00:00:00 | |
| PETON7-10 | 2026-09-04 12:30:18 | 47.02992 | 19.60676 | 69° | 15km/h | 27286m | 7.9m/s | -46.6°C | 3.0% | 19.0hPa | 2.6V | 00:00:00 | 00:00:00 | 00:00:00 | |
| 9A1FER-10 | 2026-09-04 12:30:15 | 47.02987 | 19.60668 | 28° | 15km/h | 27272m | 6.7m/s | -46.7°C | 3.1% | 19.0hPa | 2.6V | 00:00:00 | 01:35:55 | 00:00:00 | |
| PETON7-10 | 2026-09-04 12:30:02 | 47.02963 | 19.60614 | 22° | 9km/h | 27178m | 7.2m/s | -46.5°C | 2.9% | 19.3hPa | 2.6V | 00:00:00 | 01:35:42 | 00:00:00 | |
| 9A1FER-10 | 2026-09-04 12:30:00 | 47.02960 | 19.60611 | 37° | 9km/h | 27163m | 6.5m/s | -46.7°C | 3.0% | 19.3hPa | 2.6V | 00:00:00 | 01:35:40 | 00:00:00 | |
| PETON7-10 | 2026-09-04 12:29:47 | 47.02973 | 19.60574 | 160° | 11km/h | 27069m | 5.9m/s | -47.1°C | 3.0% | 19.6hPa | 2.6V | 00:00:00 | 00:00:00 | 00:00:00 | |
| 9A1FER-10 | 2026-09-04 12:29:45 | 47.02976 | 19.60576 | 223° | 13km/h | 27056m | 5.4m/s | -47.0°C | 3.0% | 19.7hPa | 2.6V | 00:00:00 | 01:35:25 | 08:30:00 | |
| PETON7-10 | 2026-09-04 12:29:32 | 47.03004 | 19.60553 | 134° | 13km/h | 26961m | 6.0m/s | -47.0°C | 2.9% | 19.9hPa | 2.6V | 00:00:00 | 00:00:00 | 00:00:00 | |
| 9A1FER-10 | 2026-09-04 12:29:30 | 47.03006 | 19.60549 | 110° | 13km/h | 26947m | 8.6m/s | 0°C | 0% | 0hPa | 2.6V | 00:00:00 | 01:35:10 | 00:00:00 | |
| PETON7-10 | 2026-09-04 12:29:17 | 47.03011 | 19.60484 | 93° | 16km/h | 26855m | 7.8m/s | -47.3°C | 3.1% | 20.3hPa | 2.6V | 00:00:00 | 01:34:57 | 00:00:00 | |
| 9A1FER-10 | 2026-09-04 12:29:15 | 47.03010 | 19.60473 | 75° | 16km/h | 26841m | 7.7m/s | 0°C | 0% | 0hPa | 2.6V | 00:00:00 | 01:34:55 | 00:00:00 | |
| PETON7-10 | 2026-09-04 12:29:02 | 47.02991 | 19.60404 | 72° | 16km/h | 26750m | 8.8m/s | -47.4°C | 3.1% | 20.6hPa | 2.6V | 00:00:00 | 00:00:00 | 08:30:00 | |
| 9A1FER-10 | 2026-09-04 12:28:59 | 47.02980 | 19.60392 | 31° | 16km/h | 26729m | 6.9m/s | 0°C | 0% | 0hPa | 2.7V | 00:00:00 | 01:34:39 | 00:00:00 | |
| GYPAP8-17 | 2026-09-04 12:28:52 | 47.02954 | 19.60357 | 49° | 15km/h | 26687m | 4.6m/s | -47.7°C | 0.7% | 20.9hPa | 2.7V | 00:00:00 | 00:00:00 | 00:00:00 | |
| 9A1FER-10 | 2026-09-04 12:28:44 | 47.02945 | 19.60333 | 46° | 15km/h | 26625m | 6.7m/s | 0°C | 0% | 0hPa | 2.7V | 00:00:00 | 01:34:24 | 00:00:00 | |
| LZ4TU-5 | 2026-09-04 12:28:43 | 47.02942 | 19.60330 | 38° | 16km/h | 26619m | 4.3m/s | 0°C | 0% | 0hPa | 2.7V | 00:00:00 | 00:00:00 | 00:00:00 | |
| LZ4TU-5 | 2026-09-04 12:28:37 | 47.02915 | 19.60314 | 26° | 26km/h | 26584m | 8.0m/s | 0°C | 0% | 0hPa | 2.7V | 00:00:00 | 00:00:00 | 00:00:00 | |
| PETON7-10 | 2026-09-04 12:28:32 | 47.02896 | 19.60303 | 114° | 13km/h | 26545m | 8.2m/s | -48.3°C | 3.1% | 21.3hPa | 2.7V | 00:00:00 | 01:34:12 | 00:00:00 | |
| 9A1FER-10 | 2026-09-04 12:28:29 | 47.02894 | 19.60294 | 43° | 15km/h | 26527m | 7.4m/s | 0°C | 0% | 0hPa | 2.7V | 00:00:00 | 01:34:09 | 00:00:00 | |
| PETON7-10 | 2026-09-04 12:28:17 | 47.02848 | 19.60283 | 33° | 11km/h | 26444m | 5.7m/s | -48.5°C | 3.0% | 21.6hPa | 2.7V | 00:00:00 | 00:00:00 | 00:00:00 | |
| 9A1FER-10 | 2026-09-04 12:28:14 | 47.02844 | 19.60283 | 339° | 11km/h | 26424m | 5.8m/s | 0°C | 0% | 0hPa | 2.7V | 00:00:00 | 01:33:54 | 00:00:00 | |
| OE5DRO-10 | 2026-09-04 12:28:06 | 47.02823 | 19.60265 | 55° | 11km/h | 26367m | 5.3m/s | -48.7°C | 3.1% | 21.8hPa | 2.7V | 00:00:00 | 00:00:00 | 00:00:00 | |
| PETON7-10 | 2026-09-04 12:28:02 | 47.02817 | 19.60252 | 9° | 9km/h | 26340m | 5.7m/s | -48.9°C | 3.3% | 21.9hPa | 2.6V | 00:00:00 | 00:00:00 | 00:00:00 | |
| 9A1FER-10 | 2026-09-04 12:27:59 | 47.02810 | 19.60252 | 11° | 11km/h | 26319m | 5.1m/s | 0°C | 0% | 0hPa | 2.6V | 00:00:00 | 01:33:39 | 00:00:00 | |
| PETON7-10 | 2026-09-04 12:27:47 | 47.02793 | 19.60240 | 283° | 11km/h | 26233m | 5.2m/s | -48.9°C | 3.2% | 22.3hPa | 2.6V | 00:00:00 | 01:33:27 | 00:00:00 | |
| OE5DRO-10 | 2026-09-04 12:27:42 | 47.02796 | 19.60260 | 214° | 9km/h | 26201m | 7.1m/s | -48.8°C | 3.3% | 22.4hPa | 2.6V | 00:00:00 | 00:00:00 | 00:00:00 | |
| GYPAP8-17 | 2026-09-04 12:27:34 | 47.02781 | 19.60254 | 346° | 11km/h | 26151m | 9.4m/s | -48.9°C | 0.9% | 22.6hPa | 2.6V | 00:00:00 | 00:00:00 | 00:00:00 | |
| PETON7-10 | 2026-09-04 12:27:32 | 47.02775 | 19.60257 | 326° | 9km/h | 26130m | 9.0m/s | -48.8°C | 3.3% | 22.6hPa | 2.6V | 00:00:00 | 00:00:00 | 00:00:00 | |
| PETON7-10 | 2026-09-04 12:27:17 | 47.02742 | 19.60251 | 30° | 11km/h | 26025m | 8.6m/s | -48.4°C | 3.1% | 23.0hPa | 2.7V | 00:00:00 | 00:00:00 | 00:00:00 | |
| PETON7-10 | 2026-09-04 12:27:02 | 47.02721 | 19.60235 | 128° | 9km/h | 25923m | 8.7m/s | -48.7°C | 3.3% | 23.4hPa | 2.7V | 00:00:00 | 01:32:42 | 00:00:00 | |
| PETON7-10 | 2026-09-04 12:26:47 | 47.02710 | 19.60225 | 141° | 9km/h | 25815m | 8.3m/s | -48.7°C | 3.2% | 23.7hPa | 2.7V | 00:00:00 | 00:00:00 | 08:30:00 | |
| OE5DRO-10 | 2026-09-04 12:26:37 | 47.02706 | 19.60209 | 1° | 7km/h | 25733m | 6.6m/s | -48.6°C | 3.2% | 24.1hPa | 2.6V | 00:00:00 | 00:00:00 | 00:00:00 | |
| LZ4TU-5 | 2026-09-04 12:26:34 | 47.02705 | 19.60208 | 60° | 5km/h | 25727m | 6.3m/s | 0°C | 0% | 0hPa | 2.6V | 00:00:00 | 00:00:00 | 00:00:00 | |
| PETON7-10 | 2026-09-04 12:26:32 | 47.02705 | 19.60204 | 131° | 7km/h | 25712m | 6.1m/s | -48.6°C | 3.3% | 24.1hPa | 2.6V | 00:00:00 | 00:00:00 | 00:00:00 | |
| LZ4TU-5 | 2026-09-04 12:26:28 | 47.02710 | 19.60195 | 107° | 11km/h | 25691m | 7.3m/s | 0°C | 0% | 0hPa | 2.6V | 00:00:00 | 00:00:00 | 00:00:00 | |
| GYPAP8-17 | 2026-09-04 12:26:22 | 47.02710 | 19.60179 | 49° | 4km/h | 25652m | 8.6m/s | -48.9°C | 0.8% | 24.4hPa | 2.6V | 00:00:00 | 00:00:00 | 00:00:00 | |
| PETON7-10 | 2026-09-04 12:26:17 | 47.02709 | 19.60176 | 202° | 4km/h | 25611m | 7.9m/s | -49.0°C | 3.3% | 24.5hPa | 2.6V | 00:00:00 | 01:31:57 | 00:00:00 | |
| PETON7-10 | 2026-09-04 12:26:02 | 47.02701 | 19.60180 | 168° | 9km/h | 25510m | 8.5m/s | -49.4°C | 3.3% | 24.9hPa | 2.6V | 00:00:00 | 00:00:00 | 00:00:00 | |
| OE5DRO-10 | 2026-09-04 12:25:49 | 47.02705 | 19.60173 | 331° | 7km/h | 25418m | 4.1m/s | -49.5°C | 3.3% | 25.3hPa | 2.6V | 00:00:00 | 00:00:00 | 00:00:00 | |
| PETON7-10 | 2026-09-04 12:25:47 | 47.02703 | 19.60173 | 47° | 7km/h | 25406m | 8.7m/s | -49.6°C | 3.4% | 25.3hPa | 2.6V | 00:00:00 | 00:00:00 | 00:00:00 | |
| PETON7-10 | 2026-09-04 12:25:32 | 47.02698 | 19.60141 | 4° | 7km/h | 25304m | 8.4m/s | -49.4°C | 3.4% | 25.7hPa | 2.6V | 00:00:00 | 01:31:12 | 00:00:00 | |
| OE5DRO-10 | 2026-09-04 12:25:29 | 47.02697 | 19.60143 | 145° | 5km/h | 25276m | 5.0m/s | -49.3°C | 3.3% | 25.8hPa | 2.6V | 00:00:00 | 00:00:00 | 00:00:00 | |
| GYPAP8-17 | 2026-09-04 12:25:22 | 47.02699 | 19.60134 | 59° | 11km/h | 25242m | 6.8m/s | -49.3°C | 0.9% | 26.0hPa | 2.6V | 00:00:00 | 00:00:00 | 00:00:00 | |
| PETON7-10 | 2026-09-04 12:25:17 | 47.02687 | 19.60121 | 55° | 7km/h | 25200m | 5.6m/s | -49.3°C | 3.4% | 26.1hPa | 2.6V | 00:00:00 | 00:00:00 | 00:00:00 | |
| OE5DRO-10 | 2026-09-04 12:25:07 | 47.02686 | 19.60099 | 54° | 9km/h | 25130m | 7.5m/s | -49.3°C | 3.2% | 26.4hPa | 2.7V | 00:00:00 | 00:00:00 | 00:00:00 | |
| PETON7-10 | 2026-09-04 12:25:02 | 47.02688 | 19.60090 | 185° | 9km/h | 25095m | 5.2m/s | -49.2°C | 3.3% | 26.5hPa | 2.7V | 00:00:00 | 00:00:00 | 00:00:00 | |
| OE5DRO-10 | 2026-09-04 12:24:48 | 47.02704 | 19.60057 | 104° | 16km/h | 24998m | 6.1m/s | -49.3°C | 3.3% | 27.0hPa | 2.7V | 00:00:00 | 00:00:00 | 00:00:00 | |
| PETON7-10 | 2026-09-04 12:24:47 | 47.02705 | 19.60054 | 115° | 16km/h | 24993m | 5.6m/s | -49.4°C | 3.4% | 27.0hPa | 2.7V | 00:00:00 | 01:30:27 | 00:00:00 | |
| PETON7-10 | 2026-09-04 12:24:32 | 47.02754 | 19.60006 | 156° | 26km/h | 24889m | 6.1m/s | -49.5°C | 3.3% | 27.4hPa | 2.7V | 00:00:00 | 00:00:00 | 08:30:00 | |
| LZ4TU-5 | 2026-09-04 12:24:31 | 47.02754 | 19.60006 | 156° | 16km/h | 24889m | 6.2m/s | 0°C | 0% | 0hPa | 2.6V | 00:00:00 | 00:00:00 | 00:00:00 | |
| OE5DRO-10 | 2026-09-04 12:24:29 | 47.02769 | 19.59995 | 155° | 27km/h | 24869m | 6.1m/s | -49.4°C | 3.4% | 27.5hPa | 2.6V | 00:00:00 | 00:00:00 | 00:00:00 | |
| LZ4TU-5 | 2026-09-04 12:24:28 | 47.02776 | 19.59990 | 159° | 29km/h | 24862m | 8.4m/s | 0°C | 0% | 0hPa | 2.6V | 00:00:00 | 00:00:00 | 00:00:00 | |
| GYPAP8-17 | 2026-09-04 12:24:20 | 47.02821 | 19.59958 | 152° | 26km/h | 24814m | 5.6m/s | -49.6°C | 0.8% | 27.8hPa | 2.6V | 00:00:00 | 00:00:00 | 00:00:00 | |
| PETON7-10 | 2026-09-04 12:24:16 | 47.02847 | 19.59935 | 153° | 29km/h | 24780m | 8.5m/s | -49.5°C | 3.4% | 27.9hPa | 2.6V | 00:00:00 | 00:00:00 | 00:00:00 | |
| OE5DRO-10 | 2026-09-04 12:24:10 | 47.02880 | 19.59899 | 139° | 31km/h | 24737m | 8.1m/s | -49.5°C | 3.3% | 28.0hPa | 2.6V | 00:00:00 | 00:00:00 | 00:00:00 | |
| PETON7-10 | 2026-09-04 12:24:01 | 47.02921 | 19.59818 | 123° | 31km/h | 24674m | 5.7m/s | -49.5°C | 3.4% | 28.4hPa | 2.7V | 00:00:00 | 01:29:41 | 00:00:00 | |
| OE3JTB-15 | 2026-09-04 12:24:00 | 47.02935 | 19.59791 | 127° | 29km/h | 24646m | 7.1m/s | -49.8°C | 3.4% | 28.4hPa | 2.7V | 00:00:00 | 00:00:00 | 00:00:00 | |
| OE5DRO-10 | 2026-09-04 12:23:51 | 47.02953 | 19.59723 | 100° | 27km/h | 24603m | 8.7m/s | -50.0°C | 3.4% | 28.6hPa | 2.7V | 00:00:00 | 00:00:00 | 00:00:00 | |
| PETON7-10 | 2026-09-04 12:23:46 | 47.02960 | 19.59660 | 103° | 29km/h | 24568m | 6.1m/s | -49.7°C | 3.1% | 28.8hPa | 2.7V | 00:00:00 | 00:00:00 | 00:00:00 | |
| PETON7-10 | 2026-09-04 12:23:31 | 47.02959 | 19.59500 | 92° | 22km/h | 24465m | 6.6m/s | -50.4°C | 3.4% | 29.3hPa | 2.7V | 00:00:00 | 00:00:00 | 00:00:00 | |
| OE3JTB-15 | 2026-09-04 12:23:26 | 47.02960 | 19.59433 | 72° | 20km/h | 24415m | 7.6m/s | -50.4°C | 3.6% | 29.5hPa | 2.7V | 00:00:00 | 01:29:04 | 00:00:00 | |
| PETON7-10 | 2026-09-04 12:23:16 | 47.02933 | 19.59395 | 43° | 27km/h | 24360m | 8.2m/s | -50.8°C | 3.5% | 29.7hPa | 2.7V | 00:00:00 | 01:28:56 | 00:00:00 | |
| GYPAP8-17 | 2026-09-04 12:23:05 | 47.02884 | 19.59327 | 13° | 26km/h | 24290m | 6.2m/s | -50.9°C | 1.0% | 30.1hPa | 2.7V | 00:00:00 | 00:00:00 | 00:00:00 | |
| PETON7-10 | 2026-09-04 12:23:01 | 47.02850 | 19.59322 | 360° | 20km/h | 24253m | 8.3m/s | -50.7°C | 3.7% | 30.2hPa | 2.7V | 00:00:00 | 00:00:00 | 00:00:00 | |
| OE3JTB-15 | 2026-09-04 12:22:55 | 47.02811 | 19.59306 | 3° | 13km/h | 24189m | 8.2m/s | -50.7°C | 3.5% | 30.5hPa | 2.7V | 00:00:00 | 00:00:00 | 00:00:00 | |
| PETON7-10 | 2026-09-04 12:22:46 | 47.02785 | 19.59325 | 317° | 15km/h | 24146m | 6.3m/s | -50.2°C | 3.5% | 30.7hPa | 2.7V | 00:00:00 | 00:00:00 | 00:00:00 | |
| 9A1FER-3 | 2026-09-04 12:22:32 | 47.02746 | 19.59358 | 259° | 9km/h | 24048m | 6.6m/s | 0°C | 0% | 0hPa | 2.7V | 00:00:00 | 01:28:12 | 00:00:00 | |
| PETON7-10 | 2026-09-04 12:22:31 | 47.02747 | 19.59363 | 244° | 9km/h | 24042m | 6.1m/s | -50.4°C | 3.5% | 31.2hPa | 2.7V | 00:00:00 | 01:28:11 | 00:00:00 | |
| LZ4TU-5 | 2026-09-04 12:22:21 | 47.02747 | 19.59377 | 278° | 7km/h | 23979m | 7.8m/s | 0°C | 0% | 0hPa | 2.7V | 00:00:00 | 00:00:00 | 00:00:00 | |
| 9A1FER-3 | 2026-09-04 12:22:16 | 47.02756 | 19.59402 | 228° | 9km/h | 23936m | 8.6m/s | 0°C | 0% | 0hPa | 2.7V | 00:00:00 | 01:27:56 | 00:00:00 | |
| GYPAP8-17 | 2026-09-04 12:22:02 | 47.02784 | 19.59397 | 214° | 9km/h | 23845m | 7.2m/s | -50.3°C | 0.9% | 32.2hPa | 2.7V | 00:00:00 | 00:00:00 | 00:00:00 | |
| PETON7-10 | 2026-09-04 12:22:01 | 47.02788 | 19.59397 | 161° | 11km/h | 23830m | 5.7m/s | -50.3°C | 3.3% | 32.3hPa | 2.7V | 00:00:00 | 00:00:00 | 00:00:00 | |
| OE3JTB-15 | 2026-09-04 12:21:56 | 47.02795 | 19.59380 | 108° | 7km/h | 23788m | 6.8m/s | -50.6°C | 3.5% | 32.5hPa | 2.7V | 00:00:00 | 01:27:35 | 00:00:00 | |
| PETON7-10 | 2026-09-04 12:21:46 | 47.02806 | 19.59349 | 129° | 7km/h | 23724m | 8.7m/s | -51.0°C | 3.5% | 32.8hPa | 2.7V | 00:00:00 | 01:27:26 | 00:00:00 | |
| 9A1FER-3 | 2026-09-04 12:21:45 | 47.02808 | 19.59346 | 121° | 7km/h | 23717m | 4.8m/s | 0°C | 0% | 0hPa | 2.7V | 00:00:00 | 01:27:25 | 00:00:00 | |
| PETON7-10 | 2026-09-04 12:21:31 | 47.02796 | 19.59343 | 354° | 5km/h | 23623m | 5.1m/s | -50.6°C | 3.4% | 33.3hPa | 2.7V | 00:00:00 | 00:00:00 | 00:00:00 | |
| 9A1FER-3 | 2026-09-04 12:21:30 | 47.02795 | 19.59343 | 16° | 7km/h | 23617m | 6.7m/s | 0°C | 0% | 0hPa | 2.7V | 00:00:00 | 01:27:10 | 00:00:00 | |
| OE3JTB-15 | 2026-09-04 12:21:27 | 47.02792 | 19.59341 | 5° | 9km/h | 23596m | 6.7m/s | -50.7°C | 3.4% | 33.4hPa | 2.7V | 00:00:00 | 00:00:00 | 00:00:00 | |
| OE5DRO-10 | 2026-09-04 12:21:19 | 47.02790 | 19.59364 | 245° | 9km/h | 23540m | 6.6m/s | -50.9°C | 3.5% | 33.7hPa | 2.6V | 00:00:00 | 00:00:00 | 00:00:00 | |
| PETON7-10 | 2026-09-04 12:21:16 | 47.02792 | 19.59367 | 137° | 9km/h | 23519m | 6.4m/s | -51.1°C | 3.7% | 33.9hPa | 2.6V | 00:00:00 | 00:00:00 | 00:00:00 | |
| 9A1FER-3 | 2026-09-04 12:21:15 | 47.02792 | 19.59367 | 167° | 4km/h | 23512m | 8.6m/s | 0°C | 0% | 0hPa | 2.6V | 00:00:00 | 01:26:55 | 00:00:00 | |
| PETON7-10 | 2026-09-04 12:21:01 | 47.02813 | 19.59394 | 197° | 13km/h | 23414m | 9.2m/s | -50.8°C | 3.5% | 34.4hPa | 2.6V | 00:00:00 | 01:26:41 | 00:00:00 | |
| OE3JTB-15 | 2026-09-04 12:20:58 | 47.02821 | 19.59404 | 259° | 13km/h | 23382m | 6.1m/s | -50.9°C | 3.4% | 34.6hPa | 2.6V | 00:00:00 | 00:00:00 | 00:00:00 | |
| GYPAP8-17 | 2026-09-04 12:20:55 | 47.02821 | 19.59404 | 259° | 9km/h | 23382m | 6.2m/s | -51.0°C | 0.9% | 34.6hPa | 2.6V | 00:00:00 | 00:00:00 | 00:00:00 | |
| PETON7-10 | 2026-09-04 12:20:46 | 47.02852 | 19.59401 | 170° | 11km/h | 23313m | 5.4m/s | -51.4°C | 3.4% | 34.9hPa | 2.6V | 00:00:00 | 00:00:00 | 00:00:00 | |
| OE5DRO-10 | 2026-09-04 12:20:39 | 47.02864 | 19.59401 | 183° | 13km/h | 23264m | 8.5m/s | -51.3°C | 3.5% | 35.2hPa | 2.7V | 00:00:00 | 00:00:00 | 00:00:00 | |
| PETON7-10 | 2026-09-04 12:20:31 | 47.02895 | 19.59395 | 167° | 13km/h | 23213m | 6.6m/s | -51.6°C | 3.5% | 35.5hPa | 2.7V | 00:00:00 | 00:00:00 | 00:00:00 | |
| OE3JTB-15 | 2026-09-04 12:20:29 | 47.02910 | 19.59395 | 181° | 9km/h | 23186m | 6.7m/s | -51.8°C | 3.6% | 35.7hPa | 2.7V | 00:00:00 | 01:26:07 | 00:00:00 | |
| OE5DRO-10 | 2026-09-04 12:20:20 | 47.02931 | 19.59397 | 181° | 9km/h | 23136m | 8.4m/s | -52.1°C | 3.6% | 35.9hPa | 2.7V | 00:00:00 | 00:00:00 | 00:00:00 | |
| PETON7-10 | 2026-09-04 12:20:16 | 47.02940 | 19.59396 | 154° | 7km/h | 23109m | 5.9m/s | -52.4°C | 3.7% | 36.1hPa | 2.7V | 00:00:00 | 01:25:56 | 00:00:00 | |
| LZ4TU-5 | 2026-09-04 12:20:14 | 47.02942 | 19.59395 | 154° | 7km/h | 23102m | 7.2m/s | 0°C | 0% | 0hPa | 2.7V | 00:00:00 | 00:00:00 | 00:00:00 | |
| LZ4TU-5 | 2026-09-04 12:20:09 | 47.02951 | 19.59389 | 143° | 7km/h | 23069m | 6.2m/s | 0°C | 0% | 0hPa | 2.7V | 00:00:00 | 00:00:00 | 00:00:00 | |
| PETON7-10 | 2026-09-04 12:20:01 | 47.02967 | 19.59378 | 125° | 9km/h | 23009m | 8.3m/s | -52.9°C | 3.7% | 36.6hPa | 2.7V | 00:00:00 | 00:00:00 | 08:30:00 | |
| OE3JTB-15 | 2026-09-04 12:20:00 | 47.02972 | 19.59368 | 157° | 9km/h | 22982m | 4.9m/s | -53.1°C | 3.9% | 36.8hPa | 2.7V | 00:00:00 | 00:00:00 | 08:30:00 | |
| PETON7-10 | 2026-09-04 12:19:46 | 47.02993 | 19.59362 | 218° | 7km/h | 22908m | 4.8m/s | -52.9°C | 3.9% | 37.2hPa | 2.7V | 00:00:00 | 00:00:00 | 00:00:00 | |
| GYPAP8-17 | 2026-09-04 12:19:43 | 47.02996 | 19.59365 | 208° | 7km/h | 22895m | 8.3m/s | -53.0°C | 1.1% | 37.3hPa | 2.7V | 00:00:00 | 00:00:00 | 00:00:00 | |
| PETON7-10 | 2026-09-04 12:19:31 | 47.03019 | 19.59360 | 170° | 15km/h | 22809m | 7.8m/s | -52.8°C | 3.8% | 37.8hPa | 2.7V | 00:00:00 | 01:25:11 | 00:00:00 | |
| PETON7-10 | 2026-09-04 12:19:16 | 47.03061 | 19.59313 | 144° | 20km/h | 22712m | 5.7m/s | -52.6°C | 3.6% | 38.4hPa | 2.7V | 00:00:00 | 00:00:00 | 00:00:00 | |
| PETON7-10 | 2026-09-04 12:19:01 | 47.03105 | 19.59219 | 115° | 24km/h | 22615m | 7.2m/s | -53.5°C | 3.9% | 38.9hPa | 2.7V | 00:00:00 | 00:00:00 | 00:00:00 | |
| PETON7-10 | 2026-09-04 12:18:46 | 47.03127 | 19.59096 | 102° | 18km/h | 22519m | 4.8m/s | -53.5°C | 3.9% | 39.5hPa | 2.7V | 00:00:00 | 01:24:26 | 00:00:00 | |
| GYPAP8-17 | 2026-09-04 12:18:45 | 47.03127 | 19.59096 | 102° | 20km/h | 22519m | 4.8m/s | -53.5°C | 1.1% | 39.6hPa | 2.7V | 00:00:00 | 00:00:00 | 00:00:00 | |
| OE3JTB-15 | 2026-09-04 12:18:35 | 47.03125 | 19.59003 | 80° | 15km/h | 22434m | 6.3m/s | -53.2°C | 3.8% | 40.1hPa | 2.7V | 00:00:00 | 01:24:13 | 00:00:00 | |
| PETON7-10 | 2026-09-04 12:18:31 | 47.03124 | 19.58993 | 89° | 15km/h | 22421m | 8.2m/s | -53.1°C | 3.8% | 40.1hPa | 2.7V | 00:00:00 | 00:00:00 | 00:00:00 | |
| OE5DRO-10 | 2026-09-04 12:18:28 | 47.03124 | 19.58980 | 81° | 13km/h | 22402m | 8.7m/s | -53.1°C | 3.9% | 40.2hPa | 2.6V | 00:00:00 | 00:00:00 | 00:00:00 | |
| LZ4TU-5 | 2026-09-04 12:18:22 | 47.03121 | 19.58949 | 92° | 16km/h | 22370m | 6.7m/s | 0°C | 0% | 0hPa | 2.6V | 00:00:00 | 00:00:00 | 00:00:00 | |
| LZ4TU-5 | 2026-09-04 12:18:17 | 47.03122 | 19.58924 | 121° | 7km/h | 22338m | 5.4m/s | 0°C | 0% | 0hPa | 2.6V | 00:00:00 | 00:00:00 | 00:00:00 | |
| PETON7-10 | 2026-09-04 12:18:16 | 47.03123 | 19.58918 | 101° | 13km/h | 22324m | 5.7m/s | -53.8°C | 3.9% | 40.8hPa | 2.6V | 00:00:00 | 00:00:00 | 00:00:00 | |
| OE5DRO-10 | 2026-09-04 12:18:09 | 47.03114 | 19.58902 | 34° | 13km/h | 22278m | 8.3m/s | -53.9°C | 3.8% | 41.1hPa | 2.6V | 00:00:00 | 00:00:00 | 00:00:00 | |
| PETON7-10 | 2026-09-04 12:18:00 | 47.03085 | 19.58876 | 14° | 11km/h | 22219m | 4.9m/s | -54.5°C | 4.1% | 41.4hPa | 2.6V | 00:00:00 | 01:23:40 | 00:00:00 | |
| OE5DRO-10 | 2026-09-04 12:17:50 | 47.03060 | 19.58874 | 12° | 7km/h | 22152m | 7.8m/s | -54.6°C | 4.1% | 41.9hPa | 2.6V | 00:00:00 | 00:00:00 | 00:00:00 | |
| PETON7-10 | 2026-09-04 12:17:45 | 47.03047 | 19.58877 | 343° | 5km/h | 22118m | 7.9m/s | -54.7°C | 4.1% | 42.1hPa | 2.6V | 00:00:00 | 00:00:00 | 08:30:00 | |
| GYPAP8-17 | 2026-09-04 12:17:37 | 47.03036 | 19.58879 | 105° | 5km/h | 22073m | 6.3m/s | -54.9°C | 1.2% | 42.4hPa | 2.6V | 00:00:00 | 00:00:00 | 00:00:00 | |
| OE5DRO-10 | 2026-09-04 12:17:31 | 47.03039 | 19.58877 | 324° | 15km/h | 22026m | 8.2m/s | -55.1°C | 4.5% | 42.7hPa | 2.6V | 00:00:00 | 00:00:00 | 00:00:00 | |
| PETON7-10 | 2026-09-04 12:17:30 | 47.03037 | 19.58879 | 325° | 15km/h | 22019m | 5.2m/s | -55.1°C | 4.3% | 42.7hPa | 2.6V | 00:00:00 | 00:00:00 | 00:00:00 | |
| OE3JTB-15 | 2026-09-04 12:17:28 | 47.03023 | 19.58886 | 351° | 15km/h | 21992m | 8.1m/s | -54.9°C | 4.4% | 42.9hPa | 2.6V | 00:00:00 | 00:00:00 | 00:00:00 | |
| PETON7-10 | 2026-09-04 12:17:15 | 47.02982 | 19.58892 | 340° | 15km/h | 21918m | 8.1m/s | -54.4°C | 4.2% | 43.4hPa | 2.6V | 00:00:00 | 01:22:55 | 00:00:00 | |
| OE5DRO-10 | 2026-09-04 12:17:12 | 47.02968 | 19.58903 | 332° | 15km/h | 21897m | 7.4m/s | -54.3°C | 4.2% | 43.6hPa | 2.6V | 00:00:00 | 00:00:00 | 00:00:00 | |
| PETON7-10 | 2026-09-04 12:17:00 | 47.02936 | 19.58939 | 315° | 16km/h | 21817m | 5.9m/s | -54.0°C | 4.2% | 44.1hPa | 2.6V | 00:00:00 | 00:00:00 | 00:00:00 | |
| OE3JTB-15 | 2026-09-04 12:16:59 | 47.02924 | 19.58960 | 317° | 11km/h | 21790m | 5.4m/s | -53.9°C | 4.1% | 44.3hPa | 2.6V | 00:00:00 | 01:22:36 | 00:00:00 | |
| OE5DRO-10 | 2026-09-04 12:16:53 | 47.02917 | 19.58972 | 302° | 13km/h | 21769m | 5.0m/s | 0°C | 0% | 0hPa | 2.6V | 00:00:00 | 00:00:00 | 08:30:00 | |
| PETON7-10 | 2026-09-04 12:16:45 | 47.02903 | 19.59018 | 291° | 9km/h | 21715m | 9.1m/s | -53.4°C | 3.9% | 44.8hPa | 2.6V | 00:00:00 | 00:00:00 | 00:00:00 | |
| OE5DRO-10 | 2026-09-04 12:16:34 | 47.02897 | 19.59050 | 262° | 13km/h | 21639m | 9.0m/s | 0°C | 0% | 0hPa | 2.6V | 00:00:00 | 00:00:00 | 00:00:00 | |
| PETON7-10 | 2026-09-04 12:16:30 | 47.02899 | 19.59066 | 251° | 5km/h | 21613m | 6.7m/s | -53.5°C | 3.9% | 45.5hPa | 2.6V | 00:00:00 | 01:22:10 | 00:00:00 | |
| OE3JTB-15 | 2026-09-04 12:16:29 | 47.02901 | 19.59071 | 140° | 9km/h | 21585m | 7.1m/s | -53.4°C | 4.0% | 45.8hPa | 2.6V | 00:00:00 | 00:00:00 | 00:00:00 | |
| LZ4TU-5 | 2026-09-04 12:16:22 | 47.02903 | 19.59064 | 91° | 7km/h | 21566m | 5.0m/s | 0°C | 0% | 0hPa | 2.7V | 00:00:00 | 00:00:00 | 00:00:00 | |
| LZ4TU-5 | 2026-09-04 12:16:17 | 47.02904 | 19.59064 | 302° | 7km/h | 21534m | 6.5m/s | 0°C | 0% | 0hPa | 2.7V | 00:00:00 | 00:00:00 | 00:00:00 | |
| PETON7-10 | 2026-09-04 12:16:15 | 47.02901 | 19.59068 | 55° | 9km/h | 21513m | 4.0m/s | -53.5°C | 3.9% | 46.3hPa | 2.7V | 00:00:00 | 00:00:00 | 00:00:00 | |
| GYPAP8-17 | 2026-09-04 12:16:14 | 47.02901 | 19.59068 | 0° | 0km/h | 21513m | 4.0m/s | -53.6°C | 1.0% | 46.3hPa | 2.7V | 00:00:00 | 00:00:00 | 00:00:00 | |
| PETON7-10 | 2026-09-04 12:16:00 | 47.02880 | 19.59030 | 21° | 16km/h | 21413m | 5.1m/s | -53.4°C | 3.8% | 47.0hPa | 2.7V | 00:00:00 | 00:00:00 | 00:00:00 | |
| OE3JTB-15 | 2026-09-04 12:15:59 | 47.02873 | 19.59025 | 28° | 16km/h | 21394m | 5.0m/s | -53.3°C | 3.8% | 47.1hPa | 2.7V | 00:00:00 | 00:00:00 | 00:00:00 | |
| PETON7-10 | 2026-09-04 12:15:45 | 47.02825 | 19.59008 | 343° | 16km/h | 21314m | 8.3m/s | -53.9°C | 4.1% | 47.7hPa | 2.7V | 00:00:00 | 01:21:25 | 00:00:00 | |
| OE5DRO-10 | 2026-09-04 12:15:44 | 47.02822 | 19.59009 | 350° | 15km/h | 21308m | 4.8m/s | 0°C | 0% | 0hPa | 2.7V | 00:00:00 | 00:00:00 | 00:00:00 | |
| PETON7-10 | 2026-09-04 12:15:30 | 47.02766 | 19.59008 | 342° | 11km/h | 21216m | 8.3m/s | -54.0°C | 4.1% | 48.5hPa | 2.7V | 00:00:00 | 00:00:00 | 08:30:00 | |
| GYPAP8-17 | 2026-09-04 12:15:20 | 47.02748 | 19.59027 | 313° | 13km/h | 21158m | 5.4m/s | -53.8°C | 1.1% | 48.9hPa | 2.7V | 00:00:00 | 00:00:00 | 00:00:00 | |
| PETON7-10 | 2026-09-04 12:15:15 | 47.02742 | 19.59049 | 286° | 5km/h | 21120m | 5.3m/s | -53.4°C | 3.9% | 49.2hPa | 2.7V | 00:00:00 | 00:00:00 | 00:00:00 | |
| PETON7-10 | 2026-09-04 12:15:00 | 47.02739 | 19.59075 | 204° | 13km/h | 21021m | 4.7m/s | -53.1°C | 3.8% | 50.0hPa | 2.7V | 00:00:00 | 01:20:40 | 00:00:00 | |
| PETON7-10 | 2026-09-04 12:14:45 | 47.02787 | 19.59081 | 175° | 16km/h | 20922m | 6.4m/s | -53.5°C | 3.9% | 50.7hPa | 2.7V | 00:00:00 | 00:00:00 | 00:00:00 | |
| OE3JTB-15 | 2026-09-04 12:14:31 | 47.02840 | 19.59060 | 165° | 16km/h | 20834m | 6.4m/s | -54.0°C | 4.0% | 51.4hPa | 2.7V | 00:00:00 | 00:00:00 | 00:00:00 | |
| PETON7-10 | 2026-09-04 12:14:30 | 47.02845 | 19.59058 | 163° | 20km/h | 20826m | 8.7m/s | -54.0°C | 4.0% | 51.5hPa | 2.7V | 00:00:00 | 00:00:00 | 00:00:00 | |
| GYPAP8-17 | 2026-09-04 12:14:24 | 47.02864 | 19.59032 | 117° | 22km/h | 20793m | 8.5m/s | -54.0°C | 1.2% | 51.8hPa | 2.7V | 00:00:00 | 00:00:00 | 00:00:00 | |
| LZ4TU-5 | 2026-09-04 12:14:17 | 47.02884 | 19.58993 | 141° | 16km/h | 20750m | 6.9m/s | 0°C | 0% | 0hPa | 2.7V | 00:00:00 | 00:00:00 | 00:00:00 | |
| PETON7-10 | 2026-09-04 12:14:15 | 47.02893 | 19.58981 | 133° | 13km/h | 20730m | 8.0m/s | -53.9°C | 3.9% | 52.2hPa | 2.7V | 00:00:00 | 01:19:55 | 00:00:00 | |
| LZ4TU-5 | 2026-09-04 12:14:12 | 47.02896 | 19.58973 | 112° | 11km/h | 20719m | 6.6m/s | 0°C | 0% | 0hPa | 2.7V | 00:00:00 | 00:00:00 | 00:00:00 | |
| OE3JTB-15 | 2026-09-04 12:14:02 | 47.02908 | 19.58926 | 117° | 5km/h | 20648m | 7.3m/s | -54.2°C | 4.0% | 52.9hPa | 2.7V | 00:00:00 | 01:19:42 | 00:00:00 | |
| OE5DRO-10 | 2026-09-04 12:14:01 | 47.02909 | 19.58922 | 115° | 5km/h | 20641m | 5.7m/s | 0°C | 0% | 0hPa | 2.7V | 00:00:00 | 00:00:00 | 00:00:00 | |
| PETON7-10 | 2026-09-04 12:14:00 | 47.02910 | 19.58917 | 107° | 5km/h | 20636m | 5.3m/s | -54.4°C | 4.0% | 53.0hPa | 2.7V | 00:00:00 | 00:00:00 | 00:00:00 | |
| PETON7-10 | 2026-09-04 12:13:45 | 47.02912 | 19.58894 | 58° | 4km/h | 20540m | 5.8m/s | -54.5°C | 3.9% | 53.8hPa | 2.7V | 00:00:00 | 00:00:00 | 00:00:00 | |
| OE5DRO-10 | 2026-09-04 12:13:42 | 47.02908 | 19.58892 | 355° | 4km/h | 20521m | 7.1m/s | 0°C | 0% | 0hPa | 2.7V | 00:00:00 | 00:00:00 | 00:00:00 | |
| OE3JTB-15 | 2026-09-04 12:13:33 | 47.02909 | 19.58903 | 310° | 5km/h | 20464m | 6.2m/s | -54.7°C | 4.0% | 54.5hPa | 2.7V | 00:00:00 | 00:00:00 | 00:00:00 | |
| PETON7-10 | 2026-09-04 12:13:30 | 47.02906 | 19.58906 | 360° | 5km/h | 20444m | 5.4m/s | -54.8°C | 4.1% | 54.7hPa | 2.7V | 00:00:00 | 01:19:10 | 00:00:00 | |
| GYPAP8-17 | 2026-09-04 12:13:28 | 47.02906 | 19.58906 | 0° | 0km/h | 20437m | 8.1m/s | -54.8°C | 1.2% | 54.8hPa | 2.7V | 00:00:00 | 00:00:00 | 00:00:00 | |
| OE5DRO-10 | 2026-09-04 12:13:23 | 47.02905 | 19.58902 | 350° | 7km/h | 20399m | 3.5m/s | 0°C | 0% | 0hPa | 2.7V | 00:00:00 | 00:00:00 | 00:00:00 | |
| PETON7-10 | 2026-09-04 12:13:15 | 47.02890 | 19.58901 | 14° | 5km/h | 20348m | 4.2m/s | -55.2°C | 4.2% | 55.5hPa | 2.7V | 00:00:00 | 00:00:00 | 08:30:00 | |
| OE3JTB-15 | 2026-09-04 12:13:04 | 47.02896 | 19.58898 | 79° | 9km/h | 20278m | 6.1m/s | -55.3°C | 4.3% | 56.1hPa | 2.7V | 00:00:00 | 00:00:00 | 00:00:00 | |
| PETON7-10 | 2026-09-04 12:13:00 | 47.02891 | 19.58897 | 19° | 5km/h | 20252m | 3.3m/s | -55.0°C | 4.2% | 56.3hPa | 2.7V | 00:00:00 | 00:00:00 | 00:00:00 | |
| PETON7-10 | 2026-09-04 12:12:45 | 47.02903 | 19.58879 | 135° | 13km/h | 20153m | 7.9m/s | -55.1°C | 4.2% | 57.2hPa | 2.7V | 00:00:00 | 01:18:25 | 00:00:00 | |
| OE3JTB-15 | 2026-09-04 12:12:35 | 47.02916 | 19.58827 | 90° | 13km/h | 20074m | 4.7m/s | -55.2°C | 4.2% | 57.9hPa | 2.7V | 00:00:00 | 01:18:13 | 00:00:00 | |
| GYPAP8-17 | 2026-09-04 12:12:30 | 47.02918 | 19.58814 | 128° | 11km/h | 20056m | 6.2m/s | -55.3°C | 1.3% | 58.1hPa | 2.7V | 00:00:00 | 00:00:00 | 00:00:00 | |
| OE5DRO-10 | 2026-09-04 12:12:26 | 47.02925 | 19.58801 | 123° | 11km/h | 20029m | 4.6m/s | 0°C | 0% | 0hPa | 2.7V | 00:00:00 | 00:00:00 | 00:00:00 | |
| LZ4TU-5 | 2026-09-04 12:12:25 | 47.02925 | 19.58801 | 123° | 7km/h | 20029m | 4.6m/s | 0°C | 0% | 0hPa | 2.7V | 00:00:00 | 00:00:00 | 00:00:00 | |
| LZ4TU-5 | 2026-09-04 12:12:21 | 47.02923 | 19.58786 | 68° | 15km/h | 20003m | 8.2m/s | 0°C | 0% | 0hPa | 2.7V | 00:00:00 | 00:00:00 | 00:00:00 | |
| PETON7-10 | 2026-09-04 12:12:15 | 47.02928 | 19.58755 | 133° | 11km/h | 19958m | 6.9m/s | -55.1°C | 4.3% | 59.0hPa | 2.7V | 00:00:00 | 00:00:00 | 00:00:00 | |
| OE5DRO-10 | 2026-09-04 12:12:07 | 47.02930 | 19.58726 | 60° | 11km/h | 19907m | 7.2m/s | 0°C | 0% | 0hPa | 2.7V | 00:00:00 | 00:00:00 | 00:00:00 | |
| OE3JTB-15 | 2026-09-04 12:12:05 | 47.02924 | 19.58709 | 90° | 9km/h | 19875m | 7.2m/s | -54.5°C | 4.1% | 59.8hPa | 2.7V | 00:00:00 | 00:00:00 | 00:00:00 | |
| PETON7-10 | 2026-09-04 12:12:00 | 47.02924 | 19.58703 | 82° | 7km/h | 19861m | 5.1m/s | -54.5°C | 4.1% | 59.9hPa | 2.7V | 00:00:00 | 01:17:40 | 00:00:00 | |
| PETON7-10 | 2026-09-04 12:11:45 | 47.02919 | 19.58661 | 104° | 7km/h | 19766m | 6.8m/s | -54.5°C | 3.9% | 60.8hPa | 2.7V | 00:00:00 | 00:00:00 | 00:00:00 | |
| GYPAP8-17 | 2026-09-04 12:11:33 | 47.02922 | 19.58638 | 55° | 9km/h | 19694m | 5.0m/s | -55.6°C | 1.3% | 61.6hPa | 2.7V | 00:00:00 | 00:00:00 | 00:00:00 | |
| OE3JTB-15 | 2026-09-04 12:11:32 | 47.02925 | 19.58626 | 134° | 15km/h | 19667m | 9.1m/s | -55.8°C | 4.4% | 61.7hPa | 2.7V | 00:00:00 | 00:00:00 | 00:00:00 | |
| PETON7-10 | 2026-09-04 12:11:30 | 47.02925 | 19.58626 | 134° | 18km/h | 19667m | 9.1m/s | -55.8°C | 4.4% | 61.7hPa | 2.7V | 00:00:00 | 00:00:00 | 00:00:00 | |
| PETON7-10 | 2026-09-04 12:11:15 | 47.02986 | 19.58591 | 165° | 22km/h | 19570m | 6.1m/s | -55.7°C | 4.3% | 62.7hPa | 2.7V | 00:00:00 | 01:16:55 | 00:00:00 | |
| OE3JTB-15 | 2026-09-04 12:11:03 | 47.03057 | 19.58531 | 148° | 29km/h | 19474m | 3.7m/s | -55.4°C | 4.4% | 63.6hPa | 2.7V | 00:00:00 | 01:16:40 | 00:00:00 | |
| PETON7-10 | 2026-09-04 12:10:59 | 47.03063 | 19.58525 | 147° | 29km/h | 19468m | 7.4m/s | -55.5°C | 4.4% | 63.7hPa | 2.7V | 00:00:00 | 00:00:00 | 08:30:00 | |
| PETON7-10 | 2026-09-04 12:10:44 | 47.03138 | 19.58411 | 143° | 26km/h | 19383m | 4.9m/s | -55.2°C | 4.3% | 64.6hPa | 2.7V | 00:00:00 | 00:00:00 | 00:00:00 | |
| OE3JTB-15 | 2026-09-04 12:10:33 | 47.03196 | 19.58336 | 139° | 35km/h | 19308m | 5.1m/s | -54.7°C | 4.1% | 65.3hPa | 2.7V | 00:00:00 | 00:00:00 | 08:30:00 | |
| PETON7-10 | 2026-09-04 12:10:29 | 47.03208 | 19.58322 | 148° | 29km/h | 19297m | 6.8m/s | -54.7°C | 4.2% | 65.4hPa | 2.7V | 00:00:00 | 01:16:09 | 00:00:00 | |
| GYPAP8-17 | 2026-09-04 12:10:22 | 47.03238 | 19.58292 | 144° | 24km/h | 19263m | 4.9m/s | -55.2°C | 1.3% | 65.8hPa | 2.7V | 00:00:00 | 00:00:00 | 00:00:00 | |
| PETON7-10 | 2026-09-04 12:10:14 | 47.03290 | 19.58212 | 138° | 31km/h | 19210m | 6.9m/s | -55.1°C | 4.2% | 66.3hPa | 2.7V | 00:00:00 | 00:00:00 | 00:00:00 | |
| LZ4TU-5 | 2026-09-04 12:10:10 | 47.03308 | 19.58196 | 152° | 27km/h | 19191m | 7.6m/s | 0°C | 0% | 0hPa | 2.7V | 00:00:00 | 00:00:00 | 00:00:00 | |
| PETON7-10 | 2026-09-04 12:09:59 | 47.03394 | 19.58125 | 152° | 31km/h | 19126m | 5.0m/s | -55.2°C | 4.1% | 67.2hPa | 2.7V | 00:00:00 | 00:00:00 | 00:00:00 | |
| OE3JTB-15 | 2026-09-04 12:09:57 | 47.03435 | 19.58097 | 149° | 37km/h | 19099m | 4.5m/s | -55.2°C | 4.1% | 67.5hPa | 2.7V | 00:00:00 | 00:00:00 | 00:00:00 | |
| PETON7-10 | 2026-09-04 12:09:44 | 47.03493 | 19.58029 | 141° | 37km/h | 19043m | 4.9m/s | -56.0°C | 4.3% | 68.1hPa | 2.7V | 00:00:00 | 01:15:24 | 00:00:00 | |
| PETON7-10 | 2026-09-04 12:09:29 | 47.03597 | 19.57897 | 136° | 31km/h | 18966m | 5.3m/s | -56.1°C | 4.5% | 68.9hPa | 2.7V | 00:00:00 | 00:00:00 | 00:00:00 | |
| OE3JTB-15 | 2026-09-04 12:09:28 | 47.03615 | 19.57859 | 116° | 33km/h | 18943m | 6.3m/s | -55.9°C | 4.4% | 69.1hPa | 2.7V | 00:00:00 | 01:15:05 | 00:00:00 | |
| GYPAP8-17 | 2026-09-04 12:09:20 | 47.03626 | 19.57817 | 113° | 33km/h | 18920m | 5.1m/s | -55.8°C | 1.4% | 69.5hPa | 2.7V | 00:00:00 | 00:00:00 | 00:00:00 | |
| PETON7-10 | 2026-09-04 12:09:14 | 47.03658 | 19.57749 | 130° | 38km/h | 18881m | 4.5m/s | -55.9°C | 4.3% | 69.8hPa | 2.7V | 00:00:00 | 00:00:00 | 00:00:00 | |
| PETON7-10 | 2026-09-04 12:08:59 | 47.03722 | 19.57555 | 111° | 40km/h | 18800m | 6.4m/s | -56.2°C | 4.3% | 70.7hPa | 2.7V | 00:00:00 | 01:14:39 | 00:00:00 | |
| PETON7-10 | 2026-09-04 12:08:44 | 47.03764 | 19.57345 | 98° | 37km/h | 18721m | 6.8m/s | -57.0°C | 4.6% | 71.6hPa | 2.7V | 00:00:00 | 00:00:00 | 08:30:00 | |
| OE3JTB-15 | 2026-09-04 12:08:36 | 47.03766 | 19.57184 | 90° | 33km/h | 18654m | 5.2m/s | -56.9°C | 4.8% | 72.4hPa | 2.7V | 00:00:00 | 00:00:00 | 00:00:00 | |
| PETON7-10 | 2026-09-04 12:08:29 | 47.03764 | 19.57141 | 88° | 42km/h | 18636m | 6.5m/s | -56.8°C | 4.7% | 72.6hPa | 2.7V | 00:00:00 | 00:00:00 | 00:00:00 | |
| GYPAP8-17 | 2026-09-04 12:08:26 | 47.03762 | 19.57111 | 80° | 42km/h | 18627m | 5.0m/s | -56.8°C | 1.4% | 72.8hPa | 2.7V | 00:00:00 | 00:00:00 | 00:00:00 | |
| LZ4TU-5 | 2026-09-04 12:08:15 | 47.03740 | 19.56942 | 91° | 38km/h | 18568m | 5.3m/s | 0°C | 0% | 0hPa | 2.7V | 00:00:00 | 00:00:00 | 00:00:00 | |
| PETON7-10 | 2026-09-04 12:08:14 | 47.03739 | 19.56916 | 86° | 35km/h | 18557m | 4.4m/s | -56.5°C | 4.5% | 73.5hPa | 2.7V | 00:00:00 | 01:13:54 | 00:00:00 | |
| LZ4TU-5 | 2026-09-04 12:08:10 | 47.03736 | 19.56879 | 79° | 37km/h | 18542m | 4.8m/s | 0°C | 0% | 0hPa | 2.7V | 00:00:00 | 00:00:00 | 00:00:00 | |
| PETON7-10 | 2026-09-04 12:07:59 | 47.03706 | 19.56726 | 72° | 35km/h | 18475m | 6.8m/s | -56.4°C | 4.5% | 74.5hPa | 2.7V | 00:00:00 | 00:00:00 | 00:00:00 | |
| PETON7-10 | 2026-09-04 12:07:45 | 47.03648 | 19.56551 | 63° | 27km/h | 18392m | 5.2m/s | -56.3°C | 4.6% | 75.5hPa | 2.7V | 00:00:00 | 00:00:00 | 00:00:00 | |
| GYPAP8-17 | 2026-09-04 12:07:30 | 47.03590 | 19.56452 | 48° | 24km/h | 18321m | 5.5m/s | -55.9°C | 1.4% | 76.4hPa | 2.7V | 00:00:00 | 00:00:00 | 00:00:00 | |
| PETON7-10 | 2026-09-04 12:07:29 | 47.03582 | 19.56438 | 57° | 26km/h | 18309m | 3.8m/s | -55.8°C | 4.5% | 76.4hPa | 2.7V | 00:00:00 | 01:13:09 | 00:00:00 | |
| PETON7-10 | 2026-09-04 12:07:14 | 47.03516 | 19.56343 | 39° | 22km/h | 18226m | 5.3m/s | -55.4°C | 4.4% | 77.5hPa | 2.7V | 00:00:00 | 00:00:00 | 00:00:00 | |
| PETON7-10 | 2026-09-04 12:06:59 | 47.03447 | 19.56279 | 22° | 20km/h | 18146m | 6.0m/s | -54.9°C | 4.3% | 78.4hPa | 2.7V | 00:00:00 | 00:00:00 | 00:00:00 | |
| PETON7-10 | 2026-09-04 12:06:44 | 47.03383 | 19.56235 | 31° | 13km/h | 18065m | 6.3m/s | -54.6°C | 4.3% | 79.4hPa | 2.7V | 00:00:00 | 01:12:24 | 00:00:00 | |
| GYPAP8-17 | 2026-09-04 12:06:37 | 47.03360 | 19.56204 | 73° | 15km/h | 18031m | 4.1m/s | -54.3°C | 1.4% | 79.9hPa | 2.7V | 00:00:00 | 00:00:00 | 00:00:00 | |
| PETON7-10 | 2026-09-04 12:06:29 | 47.03363 | 19.56190 | 61° | 11km/h | 17981m | 5.3m/s | -53.9°C | 3.8% | 80.5hPa | 2.7V | 00:00:00 | 00:00:00 | 08:30:00 | |
| PETON7-10 | 2026-09-04 12:06:14 | 47.03354 | 19.56142 | 110° | 24km/h | 17891m | 5.7m/s | -55.6°C | 4.0% | 81.6hPa | 2.7V | 00:00:00 | 00:00:00 | 00:00:00 | |
| PETON7-10 | 2026-09-04 12:05:59 | 47.03395 | 19.56033 | 161° | 27km/h | 17807m | 3.1m/s | -56.8°C | 4.7% | 82.7hPa | 2.7V | 00:00:00 | 01:11:39 | 00:00:00 | |
| PETON7-10 | 2026-09-04 12:05:44 | 47.03460 | 19.55947 | 158° | 26km/h | 17700m | 7.0m/s | -57.7°C | 4.8% | 84.1hPa | 2.7V | 00:00:00 | 00:00:00 | 00:00:00 | |
| GYPAP8-17 | 2026-09-04 12:05:41 | 47.03471 | 19.55941 | 161° | 24km/h | 17688m | 6.0m/s | -57.6°C | 1.6% | 84.3hPa | 2.7V | 00:00:00 | 00:00:00 | 00:00:00 | |
| PETON7-10 | 2026-09-04 12:05:29 | 47.03549 | 19.55930 | 128° | 35km/h | 17617m | 4.5m/s | -57.6°C | 4.8% | 85.3hPa | 2.7V | 00:00:00 | 00:00:00 | 00:00:00 | |
| PETON7-10 | 2026-09-04 12:05:14 | 47.03672 | 19.55901 | 154° | 35km/h | 17520m | 5.0m/s | -57.0°C | 4.7% | 86.6hPa | 2.7V | 00:00:00 | 01:10:54 | 00:00:00 | |
| PETON7-10 | 2026-09-04 12:04:59 | 47.03796 | 19.55845 | 161° | 47km/h | 17416m | 6.0m/s | -56.8°C | 4.7% | 88.0hPa | 2.7V | 00:00:00 | 00:00:00 | 00:00:00 | |
| PETON7-10 | 2026-09-04 12:04:44 | 47.03955 | 19.55727 | 147° | 51km/h | 17339m | 5.6m/s | -57.0°C | 4.8% | 89.1hPa | 2.7V | 00:00:00 | 00:00:00 | 00:00:00 | |
| 9A1FER-10 | 2026-09-04 12:04:30 | 47.04097 | 19.55561 | 139° | 46km/h | 17270m | 3.8m/s | 0°C | 0% | 0hPa | 2.7V | 00:00:00 | 01:10:10 | 00:00:00 | |
| PETON7-10 | 2026-09-04 12:04:29 | 47.04107 | 19.55547 | 135° | 46km/h | 17266m | 4.1m/s | -57.1°C | 4.8% | 90.2hPa | 2.7V | 00:00:00 | 01:10:09 | 00:00:00 | |
| PETON7-10 | 2026-09-04 12:04:14 | 47.04215 | 19.55360 | 123° | 38km/h | 17185m | 6.8m/s | -57.2°C | 4.8% | 91.3hPa | 2.7V | 00:00:00 | 00:00:00 | 08:30:00 | |
| GYPAP8-17 | 2026-09-04 12:04:10 | 47.04231 | 19.55322 | 121° | 35km/h | 17168m | 6.4m/s | -57.2°C | 1.6% | 91.6hPa | 2.7V | 00:00:00 | 00:00:00 | 00:00:00 | |
| PETON7-10 | 2026-09-04 12:03:59 | 47.04278 | 19.55171 | 116° | 35km/h | 17108m | 5.0m/s | -57.5°C | 4.8% | 92.4hPa | 2.7V | 00:00:00 | 00:00:00 | 00:00:00 | |
| PETON7-10 | 2026-09-04 12:03:44 | 47.04314 | 19.54984 | 95° | 37km/h | 17034m | 4.5m/s | -58.3°C | 5.1% | 93.5hPa | 2.7V | 00:00:00 | 01:09:24 | 00:00:00 | |
| OE3JTB-15 | 2026-09-04 12:03:43 | 47.04320 | 19.54924 | 95° | 33km/h | 17011m | 4.9m/s | -58.3°C | 5.4% | 93.8hPa | 2.7V | 00:00:00 | 01:09:20 | 00:00:00 | |
| PETON7-10 | 2026-09-04 12:03:29 | 47.04316 | 19.54784 | 97° | 29km/h | 16953m | 4.2m/s | -58.0°C | 5.2% | 94.7hPa | 2.7V | 00:00:00 | 00:00:00 | 00:00:00 | |
| PETON7-10 | 2026-09-04 12:03:14 | 47.04319 | 19.54627 | 85° | 22km/h | 16868m | 6.9m/s | -57.4°C | 5.2% | 96.0hPa | 2.7V | 00:00:00 | 00:00:00 | 00:00:00 | |
| OE3JTB-15 | 2026-09-04 12:03:13 | 47.04315 | 19.54598 | 80° | 29km/h | 16843m | 5.3m/s | -57.1°C | 5.2% | 96.4hPa | 2.7V | 00:00:00 | 00:00:00 | 00:00:00 | |
| GYPAP8-17 | 2026-09-04 12:03:05 | 47.04315 | 19.54565 | 88° | 24km/h | 16819m | 4.5m/s | -56.9°C | 1.7% | 96.8hPa | 2.7V | 00:00:00 | 00:00:00 | 00:00:00 | |
| PETON7-10 | 2026-09-04 12:02:59 | 47.04322 | 19.54504 | 99° | 26km/h | 16770m | 5.2m/s | -56.4°C | 4.9% | 97.5hPa | 2.7V | 00:00:00 | 01:08:39 | 00:00:00 | |
| PETON7-10 | 2026-09-04 12:02:44 | 47.04317 | 19.54371 | 126° | 33km/h | 16675m | 5.9m/s | -56.1°C | 4.6% | 98.9hPa | 2.7V | 00:00:00 | 00:00:00 | 00:00:00 | |
| PETON7-10 | 2026-09-04 12:02:14 | 47.04401 | 19.54022 | 112° | 35km/h | 16488m | 4.9m/s | -57.0°C | 5.1% | 101.9hPa | 2.7V | 00:00:00 | 01:07:54 | 00:00:00 | |
| OE3JTB-15 | 2026-09-04 12:02:13 | 47.04422 | 19.53975 | 129° | 35km/h | 16463m | 6.1m/s | -56.9°C | 5.1% | 102.3hPa | 2.7V | 00:00:00 | 00:00:00 | 00:00:00 | |
| PETON7-10 | 2026-09-04 12:01:59 | 47.04470 | 19.53859 | 123° | 35km/h | 16401m | 5.3m/s | -56.5°C | 4.9% | 103.3hPa | 2.7V | 00:00:00 | 00:00:00 | 08:30:00 | |
| GYPAP8-17 | 2026-09-04 12:01:55 | 47.04488 | 19.53827 | 132° | 37km/h | 16384m | 5.0m/s | -56.3°C | 1.8% | 103.7hPa | 2.7V | 00:00:00 | 00:00:00 | 00:00:00 | |
| PETON7-10 | 2026-09-04 12:01:44 | 47.04553 | 19.53706 | 121° | 42km/h | 16313m | 7.3m/s | -56.2°C | 4.8% | 104.7hPa | 2.7V | 00:00:00 | 00:00:00 | 00:00:00 | |
| OE3JTB-15 | 2026-09-04 12:01:43 | 47.04572 | 19.53659 | 125° | 40km/h | 16289m | 4.5m/s | -56.2°C | 4.8% | 105.2hPa | 2.7V | 00:00:00 | 01:07:20 | 00:00:00 | |
| PETON7-10 | 2026-09-04 12:01:29 | 47.04650 | 19.53520 | 116° | 42km/h | 16220m | 5.7m/s | -56.4°C | 4.8% | 106.3hPa | 2.7V | 00:00:00 | 01:07:09 | 00:00:00 | |
| PETON7-10 | 2026-09-04 12:01:14 | 47.04735 | 19.53330 | 115° | 38km/h | 16135m | 4.3m/s | -56.8°C | 5.0% | 107.7hPa | 2.7V | 00:00:00 | 00:00:00 | 00:00:00 | |
| OE3JTB-15 | 2026-09-04 12:01:12 | 47.04751 | 19.53278 | 121° | 42km/h | 16115m | 4.8m/s | -57.3°C | 5.1% | 108.1hPa | 2.7V | 00:00:00 | 00:00:00 | 08:30:00 | |
| PETON7-10 | 2026-09-04 12:00:59 | 47.04808 | 19.53152 | 129° | 49km/h | 16058m | 3.9m/s | -58.0°C | 5.4% | 109.0hPa | 2.7V | 00:00:00 | 00:00:00 | 00:00:00 | |
| GYPAP8-17 | 2026-09-04 12:00:58 | 47.04808 | 19.53152 | 130° | 47km/h | 16058m | 4.0m/s | -58.0°C | 2.1% | 109.1hPa | 2.7V | 00:00:00 | 00:00:00 | 00:00:00 | |
| PETON7-10 | 2026-09-04 12:00:44 | 47.04892 | 19.52904 | 114° | 46km/h | 15979m | 5.9m/s | -57.7°C | 5.3% | 110.5hPa | 2.7V | 00:00:00 | 01:06:24 | 00:00:00 | |
| OE3JTB-15 | 2026-09-04 12:00:43 | 47.04908 | 19.52843 | 112° | 47km/h | 15957m | 4.5m/s | -57.8°C | 5.3% | 110.8hPa | 2.7V | 00:00:00 | 00:00:00 | 00:00:00 | |
| PETON7-10 | 2026-09-04 12:00:28 | 47.04971 | 19.52657 | 124° | 47km/h | 15892m | 5.6m/s | -57.8°C | 5.3% | 112.0hPa | 2.7V | 00:00:00 | 00:00:00 | 00:00:00 | |
| PETON7-10 | 2026-09-04 12:00:13 | 47.05076 | 19.52439 | 130° | 55km/h | 15811m | 5.1m/s | -58.2°C | 5.4% | 113.5hPa | 2.7V | 00:00:00 | 00:00:00 | 00:00:00 | |
| ATIDSZ-14 | 2026-09-04 12:00:05 | 47.05140 | 19.52333 | 126° | 55km/h | 15773m | 6.2m/s | -58.5°C | 2.3% | 114.2hPa | 2.7V | 00:00:00 | 00:00:00 | 00:00:00 | |
| GYPAP8-17 | 2026-09-04 12:00:02 | 47.05160 | 19.52282 | 119° | 55km/h | 15757m | 6.2m/s | -58.4°C | 2.3% | 114.5hPa | 2.7V | 00:00:00 | 00:00:00 | 00:00:00 | |
| PETON7-10 | 2026-09-04 11:59:58 | 47.05193 | 19.52195 | 123° | 51km/h | 15731m | 6.1m/s | -58.4°C | 5.5% | 114.9hPa | 2.7V | 00:00:00 | 01:05:38 | 00:00:00 | |
| ATIDSZ-14 | 2026-09-04 11:59:44 | 47.05278 | 19.51984 | 119° | 46km/h | 15665m | 4.0m/s | -58.2°C | 2.3% | 116.2hPa | 2.7V | 00:00:00 | 00:00:00 | 00:00:00 | |
| PETON7-10 | 2026-09-04 11:59:43 | 47.05290 | 19.51951 | 118° | 49km/h | 15656m | 5.6m/s | -58.2°C | 5.7% | 116.3hPa | 2.7V | 00:00:00 | 00:00:00 | 08:30:00 | |
| OE3JTB-15 | 2026-09-04 11:59:41 | 47.05316 | 19.51883 | 124° | 42km/h | 15637m | 4.9m/s | -58.2°C | 5.6% | 116.7hPa | 2.7V | 00:00:00 | 00:00:00 | 00:00:00 | |
| PETON7-10 | 2026-09-04 11:59:28 | 47.05382 | 19.51720 | 116° | 40km/h | 15583m | 5.9m/s | -58.2°C | 5.7% | 117.7hPa | 2.7V | 00:00:00 | 00:00:00 | 00:00:00 | |
| ATIDSZ-14 | 2026-09-04 11:59:22 | 47.05410 | 19.51646 | 117° | 37km/h | 15556m | 7.0m/s | -58.0°C | 2.4% | 118.2hPa | 2.7V | 00:00:00 | 00:00:00 | 00:00:00 | |
| PETON7-10 | 2026-09-04 11:59:13 | 47.05456 | 19.51527 | 136° | 33km/h | 15498m | 6.5m/s | -57.9°C | 5.7% | 119.2hPa | 2.7V | 00:00:00 | 01:04:53 | 00:00:00 | |
| OE3JTB-15 | 2026-09-04 11:59:11 | 47.05475 | 19.51478 | 126° | 40km/h | 15466m | 6.4m/s | -57.7°C | 5.4% | 119.8hPa | 2.7V | 00:00:00 | 00:00:00 | 00:00:00 | |
| ATIDSZ-14 | 2026-09-04 11:58:59 | 47.05519 | 19.51401 | 133° | 35km/h | 15420m | 4.3m/s | -57.4°C | 2.4% | 120.8hPa | 2.7V | 00:00:00 | 00:00:00 | 00:00:00 | |
| PETON7-10 | 2026-09-04 11:58:58 | 47.05532 | 19.51384 | 141° | 33km/h | 15412m | 5.6m/s | -57.4°C | 5.6% | 120.9hPa | 2.7V | 00:00:00 | 00:00:00 | 00:00:00 | |
| GYPAP8-17 | 2026-09-04 11:58:51 | 47.05562 | 19.51336 | 123° | 27km/h | 15380m | 4.7m/s | -58.0°C | 2.5% | 121.5hPa | 2.7V | 00:00:00 | 00:00:00 | 00:00:00 | |
| PETON7-10 | 2026-09-04 11:58:43 | 47.05613 | 19.51248 | 148° | 42km/h | 15333m | 4.6m/s | -57.9°C | 5.9% | 122.4hPa | 2.7V | 00:00:00 | 00:00:00 | 00:00:00 | |
| ATIDSZ-14 | 2026-09-04 11:58:39 | 47.05641 | 19.51225 | 152° | 40km/h | 15316m | 5.5m/s | -57.9°C | 2.6% | 122.8hPa | 2.7V | 00:00:00 | 00:00:00 | 00:00:00 | |
| PETON7-10 | 2026-09-04 11:58:28 | 47.05745 | 19.51109 | 155° | 53km/h | 15250m | 6.6m/s | -57.8°C | 5.9% | 124.1hPa | 2.7V | 00:00:00 | 01:04:08 | 00:00:00 | |
| PETON7-10 | 2026-09-04 11:58:13 | 47.05912 | 19.50956 | 140° | 53km/h | 15163m | 6.7m/s | -57.7°C | 6.0% | 125.8hPa | 2.7V | 00:00:00 | 00:00:00 | 00:00:00 | |
| PETON7-10 | 2026-09-04 11:57:58 | 47.06055 | 19.50751 | 127° | 49km/h | 15079m | 6.1m/s | -57.7°C | 6.1% | 127.5hPa | 2.7V | 00:00:00 | 00:00:00 | 00:00:00 | |
| GYPAP8-17 | 2026-09-04 11:57:57 | 47.06055 | 19.50751 | 128° | 58km/h | 15079m | 6.2m/s | -57.7°C | 2.8% | 127.5hPa | 2.7V | 00:00:00 | 00:00:00 | 00:00:00 | |
| ATIDSZ-14 | 2026-09-04 11:57:52 | 47.06101 | 19.50673 | 140° | 51km/h | 15052m | 5.0m/s | -57.7°C | 3.0% | 128.1hPa | 2.7V | 00:00:00 | 00:00:00 | 00:00:00 | |
| PETON7-10 | 2026-09-04 11:57:41 | 47.06198 | 19.50521 | 146° | 47km/h | 14983m | 4.1m/s | -57.4°C | 6.3% | 129.5hPa | 2.7V | 00:00:00 | 01:03:21 | 00:00:00 | |
| ATIDSZ-14 | 2026-09-04 11:57:31 | 47.06270 | 19.50423 | 130° | 46km/h | 14926m | 7.8m/s | -57.4°C | 3.1% | 130.7hPa | 2.7V | 00:00:00 | 00:00:00 | 00:00:00 | |
| PETON7-10 | 2026-09-04 11:57:26 | 47.06330 | 19.50348 | 145° | 49km/h | 14884m | 10.3m/s | -57.4°C | 6.5% | 131.5hPa | 2.7V | 00:00:00 | 00:00:00 | 08:30:00 | |
| OE3JTB-15 | 2026-09-04 11:57:14 | 47.06467 | 19.50160 | 129° | 55km/h | 14784m | 9.7m/s | -57.6°C | 6.9% | 133.7hPa | 2.7V | 00:00:00 | 00:00:00 | 00:00:00 | |
| PETON7-10 | 2026-09-04 11:57:11 | 47.06467 | 19.50160 | 129° | 57km/h | 14784m | 9.7m/s | -57.6°C | 6.9% | 133.7hPa | 2.7V | 00:00:00 | 00:00:00 | 00:00:00 | |
| GYPAP8-17 | 2026-09-04 11:56:59 | 47.06571 | 19.49990 | 134° | 58km/h | 14705m | 5.1m/s | -57.8°C | 4.0% | 135.4hPa | 2.7V | 00:00:00 | 00:00:00 | 00:00:00 | |
| PETON7-10 | 2026-09-04 11:56:56 | 47.06605 | 19.49927 | 124° | 58km/h | 14676m | 4.7m/s | -57.9°C | 7.3% | 135.9hPa | 2.7V | 00:00:00 | 01:02:36 | 00:00:00 | |
| ATIDSZ-14 | 2026-09-04 11:56:49 | 47.06666 | 19.49852 | 152° | 60km/h | 14635m | 6.1m/s | -58.1°C | 4.7% | 136.8hPa | 2.7V | 00:00:00 | 00:00:00 | 00:00:00 | |
| OE3JTB-15 | 2026-09-04 11:56:45 | 47.06773 | 19.49745 | 143° | 75km/h | 14583m | 5.7m/s | -59.1°C | 9.2% | 137.9hPa | 2.7V | 00:00:00 | 01:02:22 | 00:00:00 | |
| PETON7-10 | 2026-09-04 11:56:41 | 47.06784 | 19.49731 | 141° | 60km/h | 14575m | 9.0m/s | -59.1°C | 9.3% | 138.1hPa | 2.7V | 00:00:00 | 00:00:00 | 00:00:00 | |
| ATIDSZ-14 | 2026-09-04 11:56:29 | 47.06918 | 19.49585 | 151° | 58km/h | 14509m | 8.0m/s | -58.8°C | 6.2% | 139.6hPa | 2.7V | 00:00:00 | 00:00:00 | 00:00:00 | |
| PETON7-10 | 2026-09-04 11:56:26 | 47.06968 | 19.49537 | 147° | 60km/h | 14482m | 5.8m/s | -58.6°C | 10.5% | 140.1hPa | 2.7V | 00:00:00 | 00:00:00 | 00:00:00 | |
| PETON7-10 | 2026-09-04 11:56:11 | 47.07171 | 19.49393 | 161° | 77km/h | 14398m | 9.2m/s | -58.8°C | 12.5% | 142.0hPa | 2.7V | 00:00:00 | 01:01:51 | 00:00:00 | |
| ATIDSZ-14 | 2026-09-04 11:56:08 | 47.07206 | 19.49375 | 162° | 68km/h | 14382m | 8.1m/s | -59.1°C | 8.2% | 142.4hPa | 2.7V | 00:00:00 | 00:00:00 | 00:00:00 | |
| GYPAP8-17 | 2026-09-04 11:55:57 | 47.07402 | 19.49249 | 146° | 80km/h | 14294m | 9.1m/s | -59.7°C | 10.2% | 144.4hPa | 2.7V | 00:00:00 | 00:00:00 | 00:00:00 | |
| PETON7-10 | 2026-09-04 11:55:56 | 47.07434 | 19.49216 | 146° | 75km/h | 14280m | 5.4m/s | -59.6°C | 15.5% | 144.7hPa | 2.7V | 00:00:00 | 00:00:00 | 00:00:00 | |
| ATIDSZ-14 | 2026-09-04 11:55:48 | 47.07547 | 19.49100 | 144° | 82km/h | 14230m | 7.2m/s | -59.7°C | 12.3% | 145.9hPa | 2.7V | 00:00:00 | 00:00:00 | 00:00:00 | |
| PETON7-10 | 2026-09-04 11:55:41 | 47.07676 | 19.49000 | 154° | 82km/h | 14178m | 6.7m/s | -60.2°C | 18.0% | 147.1hPa | 2.7V | 00:00:00 | 00:00:00 | 00:00:00 | |
| OE3JTB-15 | 2026-09-04 11:55:28 | 47.07956 | 19.48806 | 148° | 93km/h | 14088m | 4.2m/s | -61.7°C | 25.2% | 149.3hPa | 2.7V | 00:00:00 | 00:00:00 | 08:30:00 | |
| PETON7-10 | 2026-09-04 11:55:26 | 47.07956 | 19.48806 | 148° | 86km/h | 14088m | 4.2m/s | -61.7°C | 25.2% | 149.3hPa | 2.7V | 00:00:00 | 01:01:06 | 00:00:00 | |
| ATIDSZ-14 | 2026-09-04 11:55:25 | 47.07956 | 19.48806 | 149° | 82km/h | 14088m | 4.3m/s | -61.7°C | 19.1% | 149.3hPa | 2.7V | 00:00:00 | 00:00:00 | 00:00:00 | |
| PETON7-10 | 2026-09-04 11:55:11 | 47.08236 | 19.48552 | 147° | 99km/h | 13994m | 5.2m/s | -62.7°C | 32.4% | 151.6hPa | 2.7V | 00:00:00 | 00:00:00 | 08:30:00 | |
| ATIDSZ-14 | 2026-09-04 11:55:05 | 47.08342 | 19.48463 | 152° | 102km/h | 13962m | 6.9m/s | -63.2°C | 28.4% | 152.4hPa | 2.7V | 00:00:00 | 00:00:00 | 00:00:00 | |
| GYPAP8-17 | 2026-09-04 11:55:02 | 47.08407 | 19.48408 | 149° | 99km/h | 13942m | 7.1m/s | -63.5°C | 30.1% | 152.9hPa | 2.7V | 00:00:00 | 00:00:00 | 00:00:00 | |
| PETON7-10 | 2026-09-04 11:54:56 | 47.08548 | 19.48258 | 142° | 84km/h | 13893m | 9.7m/s | -63.5°C | 41.7% | 154.0hPa | 2.7V | 00:00:00 | 00:00:00 | 00:00:00 | |
| ATIDSZ-14 | 2026-09-04 11:54:45 | 47.08735 | 19.48038 | 141° | 75km/h | 13821m | 6.1m/s | -63.5°C | 37.2% | 155.9hPa | 2.7V | 00:00:00 | 00:00:00 | 00:00:00 | |
| PETON7-10 | 2026-09-04 11:54:41 | 47.08797 | 19.47969 | 144° | 75km/h | 13795m | 6.4m/s | -63.6°C | 45.9% | 156.6hPa | 2.7V | 00:00:00 | 01:00:21 | 00:00:00 | |
| PETON7-10 | 2026-09-04 11:54:26 | 47.09034 | 19.47741 | 152° | 88km/h | 13687m | 3.5m/s | -65.3°C | 54.6% | 159.3hPa | 2.7V | 00:00:00 | 00:00:00 | 00:00:00 | |
| ATIDSZ-14 | 2026-09-04 11:54:24 | 47.09053 | 19.47726 | 152° | 80km/h | 13681m | 9.1m/s | -65.4°C | 45.2% | 159.5hPa | 2.7V | 00:00:00 | 00:00:00 | 00:00:00 | |
| OE3JTB-15 | 2026-09-04 11:54:21 | 47.09125 | 19.47680 | 159° | 100km/h | 13656m | 10.4m/s | -66.5°C | 60.3% | 160.2hPa | 2.7V | 00:00:00 | 01:00:01 | 00:00:00 | |
| PETON7-10 | 2026-09-04 11:54:11 | 47.09336 | 19.47545 | 159° | 97km/h | 13578m | 7.9m/s | -66.9°C | 59.9% | 162.1hPa | 2.7V | 00:00:00 | 00:00:00 | 00:00:00 | |
| GYPAP8-17 | 2026-09-04 11:54:06 | 47.09417 | 19.47506 | 163° | 89km/h | 13544m | 8.9m/s | -67.0°C | 50.8% | 163.2hPa | 2.7V | 00:00:00 | 00:00:00 | 00:00:00 | |
| ATIDSZ-14 | 2026-09-04 11:54:04 | 47.09464 | 19.47485 | 164° | 99km/h | 13528m | 9.4m/s | -67.0°C | 52.6% | 163.6hPa | 2.7V | 00:00:00 | 00:00:00 | 00:00:00 | |
| PETON7-10 | 2026-09-04 11:53:56 | 47.09692 | 19.47384 | 161° | 106km/h | 13467m | 2.0m/s | -66.6°C | 64.4% | 165.2hPa | 2.7V | 00:00:00 | 00:59:36 | 00:00:00 | |
| PETON7-10 | 2026-09-04 11:53:41 | 47.10081 | 19.47251 | 169° | 115km/h | 13346m | 9.1m/s | -66.7°C | 60.9% | 168.6hPa | 2.7V | 00:00:00 | 00:00:00 | 00:00:00 | |
| ATIDSZ-14 | 2026-09-04 11:53:35 | 47.10220 | 19.47210 | 170° | 108km/h | 13312m | 5.2m/s | -66.6°C | 51.7% | 169.7hPa | 2.9V | 00:00:00 | 00:00:00 | 00:00:00 | |
| PETON7-10 | 2026-09-04 11:53:26 | 47.10508 | 19.47136 | 170° | 117km/h | 13244m | 5.7m/s | -66.1°C | 61.8% | 171.4hPa | 2.9V | 00:00:00 | 00:00:00 | 00:00:00 | |
| PETON7-10 | 2026-09-04 11:53:11 | 47.10939 | 19.47034 | 179° | 113km/h | 13140m | 3.9m/s | -65.2°C | 58.0% | 174.3hPa | 2.9V | 00:00:00 | 00:58:51 | 00:00:00 | |
| ATIDSZ-14 | 2026-09-04 11:53:03 | 47.11135 | 19.46993 | 167° | 119km/h | 13080m | 8.9m/s | -64.9°C | 44.9% | 176.1hPa | 2.9V | 00:00:00 | 00:00:00 | 00:00:00 | |
| PETON7-10 | 2026-09-04 11:52:56 | 47.11356 | 19.46901 | 166° | 117km/h | 13028m | 4.2m/s | -64.9°C | 58.0% | 177.5hPa | 2.9V | 00:00:00 | 00:00:00 | 08:30:00 | |
| GYPAP8-17 | 2026-09-04 11:52:46 | 47.11620 | 19.46801 | 164° | 113km/h | 12967m | 5.9m/s | -64.7°C | 47.3% | 179.4hPa | 2.9V | 00:00:00 | 00:00:00 | 00:00:00 | |
| PETON7-10 | 2026-09-04 11:52:41 | 47.11784 | 19.46717 | 162° | 117km/h | 12920m | 7.0m/s | -64.3°C | 58.7% | 180.8hPa | 2.9V | 00:00:00 | 00:00:00 | 00:00:00 | |
| ATIDSZ-14 | 2026-09-04 11:52:39 | 47.11813 | 19.46704 | 164° | 120km/h | 12914m | 6.6m/s | -64.3°C | 49.5% | 181.1hPa | 2.9V | 00:00:00 | 00:00:00 | 00:00:00 | |
| PETON7-10 | 2026-09-04 11:52:26 | 47.12205 | 19.46529 | 171° | 119km/h | 12815m | 5.5m/s | -63.3°C | 58.5% | 183.9hPa | 2.9V | 00:00:00 | 00:58:06 | 00:00:00 | |
| ATIDSZ-14 | 2026-09-04 11:52:16 | 47.12466 | 19.46406 | 159° | 131km/h | 12748m | 3.3m/s | -62.8°C | 50.8% | 185.9hPa | 2.9V | 00:00:00 | 00:00:00 | 00:00:00 | |
| PETON7-10 | 2026-09-04 11:52:11 | 47.12625 | 19.46318 | 159° | 117km/h | 12711m | 8.6m/s | -62.5°C | 55.1% | 187.0hPa | 2.9V | 00:00:00 | 00:00:00 | 00:00:00 | |
| OE3JTB-15 | 2026-09-04 11:52:03 | 47.12896 | 19.46143 | 158° | 117km/h | 12647m | 4.3m/s | -61.9°C | 57.5% | 189.0hPa | 2.9V | 00:00:00 | 00:00:00 | 00:00:00 | |
| PETON7-10 | 2026-09-04 11:51:56 | 47.13032 | 19.46069 | 159° | 113km/h | 12616m | 5.6m/s | -61.6°C | 58.1% | 189.9hPa | 2.9V | 00:00:00 | 00:00:00 | 00:00:00 | |
| ATIDSZ-14 | 2026-09-04 11:51:53 | 47.13086 | 19.46036 | 158° | 113km/h | 12604m | 7.2m/s | -61.6°C | 48.8% | 190.3hPa | 2.9V | 00:00:00 | 00:00:00 | 00:00:00 | |
| GYPAP8-17 | 2026-09-04 11:51:47 | 47.13239 | 19.45926 | 156° | 115km/h | 12570m | 5.6m/s | -61.3°C | 48.1% | 191.4hPa | 2.9V | 00:00:00 | 00:00:00 | 00:00:00 | |
| PETON7-10 | 2026-09-04 11:51:41 | 47.13424 | 19.45820 | 156° | 117km/h | 12525m | 5.7m/s | -60.9°C | 59.1% | 192.8hPa | 2.9V | 00:00:00 | 00:57:21 | 00:00:00 | |
| ATIDSZ-14 | 2026-09-04 11:51:33 | 47.13609 | 19.45662 | 153° | 130km/h | 12488m | 2.9m/s | -60.6°C | 51.6% | 193.9hPa | 2.9V | 00:00:00 | 00:00:00 | 00:00:00 | |
| PETON7-10 | 2026-09-04 11:51:26 | 47.13814 | 19.45529 | 155° | 110km/h | 12426m | 7.1m/s | -60.1°C | 60.8% | 195.8hPa | 2.9V | 00:00:00 | 00:00:00 | 00:00:00 | |
| PETON7-10 | 2026-09-04 11:51:11 | 47.14199 | 19.45288 | 153° | 111km/h | 12336m | 5.6m/s | -59.3°C | 60.6% | 198.8hPa | 2.9V | 00:00:00 | 00:00:00 | 00:00:00 | |
| OE3JTB-15 | 2026-09-04 11:51:05 | 47.14409 | 19.45169 | 156° | 108km/h | 12290m | 7.4m/s | 0°C | 0% | 0hPa | 2.9V | 00:00:00 | 00:56:43 | 00:00:00 | |
| PETON7-10 | 2026-09-04 11:50:56 | 47.14587 | 19.45044 | 152° | 108km/h | 12232m | 7.7m/s | -58.4°C | 60.0% | 202.1hPa | 2.9V | 00:00:00 | 00:56:36 | 00:00:00 | |
| GYPAP8-17 | 2026-09-04 11:50:53 | 47.14636 | 19.45008 | 156° | 110km/h | 12220m | 8.7m/s | -58.4°C | 51.0% | 202.5hPa | 2.9V | 00:00:00 | 00:00:00 | 00:00:00 | |
| ATIDSZ-14 | 2026-09-04 11:50:50 | 47.14712 | 19.44962 | 158° | 110km/h | 12197m | 6.2m/s | -58.1°C | 51.1% | 203.2hPa | 2.9V | 00:00:00 | 00:00:00 | 00:00:00 | |
| PETON7-10 | 2026-09-04 11:50:41 | 47.14960 | 19.44800 | 154° | 110km/h | 12135m | 4.7m/s | -57.5°C | 60.4% | 205.2hPa | 2.9V | 00:00:00 | 00:00:00 | 08:30:00 | |
| OE3JTB-15 | 2026-09-04 11:50:35 | 47.15150 | 19.44644 | 158° | 113km/h | 12089m | 7.2m/s | 0°C | 0% | 0hPa | 2.7V | 00:00:00 | 00:00:00 | 00:00:00 | |
| ATIDSZ-14 | 2026-09-04 11:50:30 | 47.15200 | 19.44615 | 160° | 108km/h | 12074m | 9.0m/s | -57.2°C | 52.6% | 207.2hPa | 2.7V | 00:00:00 | 00:00:00 | 00:00:00 | |
| PETON7-10 | 2026-09-04 11:50:26 | 47.15330 | 19.44525 | 155° | 111km/h | 12037m | 5.7m/s | -56.7°C | 59.9% | 208.4hPa | 2.7V | 00:00:00 | 00:00:00 | 00:00:00 | |
| PETON7-10 | 2026-09-04 11:50:10 | 47.15738 | 19.44244 | 157° | 111km/h | 11942m | 5.5m/s | -56.0°C | 63.3% | 211.5hPa | 2.7V | 00:00:00 | 00:55:50 | 00:00:00 | |
| ATIDSZ-14 | 2026-09-04 11:50:03 | 47.15886 | 19.44139 | 152° | 117km/h | 11906m | 7.4m/s | -55.8°C | 53.4% | 212.8hPa | 2.7V | 00:00:00 | 00:00:00 | 00:00:00 | |
| GYPAP8-17 | 2026-09-04 11:49:59 | 47.15985 | 19.44052 | 153° | 115km/h | 11879m | 6.8m/s | -55.5°C | 52.3% | 213.7hPa | 2.7V | 00:00:00 | 00:00:00 | 00:00:00 | |
| PETON7-10 | 2026-09-04 11:49:55 | 47.16118 | 19.43958 | 154° | 115km/h | 11848m | 4.1m/s | -55.1°C | 61.4% | 214.7hPa | 2.7V | 00:00:00 | 00:00:00 | 00:00:00 | |
| PETON7-10 | 2026-09-04 11:49:40 | 47.16508 | 19.43680 | 156° | 113km/h | 11767m | 8.5m/s | -54.5°C | 59.9% | 217.4hPa | 2.9V | 00:00:00 | 00:00:00 | 00:00:00 | |
| OE3JTB-15 | 2026-09-04 11:49:33 | 47.16751 | 19.43521 | 157° | 108km/h | 11713m | 5.3m/s | 0°C | 0% | 0hPa | 2.9V | 00:00:00 | 00:00:00 | 00:00:00 | |
| PETON7-10 | 2026-09-04 11:49:25 | 47.16893 | 19.43412 | 154° | 108km/h | 11680m | 5.7m/s | -53.6°C | 59.8% | 220.4hPa | 2.9V | 00:00:00 | 00:55:05 | 00:00:00 | |
| ATIDSZ-14 | 2026-09-04 11:49:20 | 47.16994 | 19.43340 | 155° | 106km/h | 11652m | 5.0m/s | -53.3°C | 54.4% | 221.4hPa | 2.9V | 00:00:00 | 00:00:00 | 00:00:00 | |
| PETON7-10 | 2026-09-04 11:49:10 | 47.17263 | 19.43161 | 158° | 108km/h | 11592m | 5.8m/s | -52.9°C | 62.8% | 223.5hPa | 2.9V | 00:00:00 | 00:00:00 | 00:00:00 | |
| OE3JTB-15 | 2026-09-04 11:49:04 | 47.17469 | 19.43030 | 157° | 108km/h | 11552m | 4.1m/s | 0°C | 0% | 0hPa | 2.9V | 00:00:00 | 00:54:42 | 00:00:00 | |
| ATIDSZ-14 | 2026-09-04 11:48:59 | 47.17517 | 19.42996 | 153° | 102km/h | 11540m | 6.1m/s | -52.5°C | 55.6% | 225.3hPa | 2.9V | 00:00:00 | 00:00:00 | 00:00:00 | |
| GYPAP8-17 | 2026-09-04 11:48:56 | 47.17586 | 19.42943 | 156° | 106km/h | 11523m | 7.9m/s | -52.3°C | 54.1% | 225.9hPa | 2.9V | 00:00:00 | 00:00:00 | 00:00:00 | |
| PETON7-10 | 2026-09-04 11:48:55 | 47.17638 | 19.42910 | 158° | 113km/h | 11510m | 5.4m/s | -52.1°C | 60.4% | 226.3hPa | 2.9V | 00:00:00 | 00:00:00 | 00:00:00 | |
| PETON7-10 | 2026-09-04 11:48:40 | 47.18027 | 19.42657 | 157° | 104km/h | 11427m | 5.1m/s | -51.4°C | 62.4% | 229.2hPa | 2.9V | 00:00:00 | 00:54:20 | 00:00:00 | |
| ATIDSZ-14 | 2026-09-04 11:48:38 | 47.18051 | 19.42642 | 156° | 99km/h | 11421m | 5.6m/s | -51.4°C | 55.8% | 229.5hPa | 2.9V | 00:00:00 | 00:00:00 | 00:00:00 | |
| OE3JTB-15 | 2026-09-04 11:48:34 | 47.18245 | 19.42501 | 151° | 100km/h | 11375m | 6.4m/s | 0°C | 0% | 0hPa | 2.9V | 00:00:00 | 00:00:00 | 00:00:00 | |
| PETON7-10 | 2026-09-04 11:48:25 | 47.18385 | 19.42412 | 160° | 102km/h | 11342m | 4.3m/s | -50.7°C | 64.3% | 232.2hPa | 2.9V | 00:00:00 | 00:00:00 | 08:30:00 | |
| ATIDSZ-14 | 2026-09-04 11:48:17 | 47.18563 | 19.42312 | 158° | 110km/h | 11298m | 5.6m/s | -50.3°C | 60.4% | 233.9hPa | 2.9V | 00:00:00 | 00:00:00 | 00:00:00 | |
| PETON7-10 | 2026-09-04 11:48:10 | 47.18750 | 19.42201 | 161° | 111km/h | 11253m | 7.7m/s | -49.9°C | 63.6% | 235.3hPa | 2.9V | 00:00:00 | 00:00:00 | 00:00:00 | |
| ATIDSZ-14 | 2026-09-04 11:47:56 | 47.19083 | 19.41983 | 153° | 106km/h | 11173m | 4.7m/s | -49.2°C | 56.6% | 238.4hPa | 2.9V | 00:00:00 | 00:00:00 | 00:00:00 | |
| PETON7-10 | 2026-09-04 11:47:55 | 47.19134 | 19.41949 | 159° | 110km/h | 11163m | 4.4m/s | -49.0°C | 62.9% | 238.7hPa | 2.9V | 00:00:00 | 00:53:35 | 00:00:00 | |
| GYPAP8-17 | 2026-09-04 11:47:49 | 47.19267 | 19.41887 | 158° | 104km/h | 11139m | 3.9m/s | -48.8°C | 57.7% | 239.5hPa | 2.9V | 00:00:00 | 00:00:00 | 00:00:00 | |
| PETON7-10 | 2026-09-04 11:47:40 | 47.19513 | 19.41712 | 158° | 106km/h | 11080m | 8.5m/s | -48.4°C | 60.9% | 241.7hPa | 2.9V | 00:00:00 | 00:00:00 | 00:00:00 | |
| ATIDSZ-14 | 2026-09-04 11:47:36 | 47.19596 | 19.41667 | 165° | 113km/h | 11057m | 5.0m/s | -48.2°C | 56.4% | 242.5hPa | 2.9V | 00:00:00 | 00:00:00 | 00:00:00 | |
| PETON7-10 | 2026-09-04 11:47:25 | 47.19883 | 19.41499 | 160° | 108km/h | 10981m | 5.9m/s | -47.5°C | 59.1% | 245.2hPa | 2.9V | 00:00:00 | 00:00:00 | 00:00:00 | |
| ATIDSZ-14 | 2026-09-04 11:47:15 | 47.20108 | 19.41380 | 159° | 104km/h | 10933m | 5.5m/s | -47.1°C | 55.7% | 247.1hPa | 2.9V | 00:00:00 | 00:00:00 | 00:00:00 | |
| PETON7-10 | 2026-09-04 11:47:10 | 47.20265 | 19.41276 | 154° | 104km/h | 10904m | 5.1m/s | -46.9°C | 61.2% | 248.1hPa | 2.9V | 00:00:00 | 00:52:50 | 00:00:00 | |
| PETON7-10 | 2026-09-04 11:46:55 | 47.20638 | 19.41087 | 161° | 106km/h | 10829m | 10.4m/s | -46.3°C | 66.0% | 251.0hPa | 2.9V | 00:00:00 | 00:00:00 | 00:00:00 | |
| GYPAP8-17 | 2026-09-04 11:46:46 | 47.20830 | 19.40985 | 160° | 120km/h | 10779m | 7.3m/s | -45.9°C | 59.6% | 252.9hPa | 2.9V | 00:00:00 | 00:00:00 | 00:00:00 | |
| PETON7-10 | 2026-09-04 11:46:40 | 47.21011 | 19.40883 | 157° | 100km/h | 10741m | 7.8m/s | -45.6°C | 66.2% | 254.3hPa | 2.9V | 00:00:00 | 00:00:00 | 00:00:00 | |
| ATIDSZ-14 | 2026-09-04 11:46:33 | 47.21146 | 19.40800 | 154° | 102km/h | 10707m | 4.6m/s | -45.3°C | 60.7% | 255.7hPa | 2.9V | 00:00:00 | 00:00:00 | 00:00:00 | |
| PETON7-10 | 2026-09-04 11:46:25 | 47.21364 | 19.40653 | 157° | 100km/h | 10651m | 4.9m/s | -44.7°C | 65.9% | 257.8hPa | 2.9V | 00:00:00 | 00:52:05 | 00:00:00 | |
| ATIDSZ-14 | 2026-09-04 11:46:13 | 47.21615 | 19.40506 | 156° | 108km/h | 10590m | 4.0m/s | -44.3°C | 59.7% | 260.2hPa | 2.9V | 00:00:00 | 00:00:00 | 00:00:00 | |
| PETON7-10 | 2026-09-04 11:46:10 | 47.21718 | 19.40446 | 162° | 106km/h | 10572m | 5.9m/s | -44.1°C | 66.2% | 260.8hPa | 2.9V | 00:00:00 | 00:00:00 | 08:30:00 | |
| PETON7-10 | 2026-09-04 11:45:55 | 47.22097 | 19.40271 | 156° | 100km/h | 10494m | 4.6m/s | -43.4°C | 64.0% | 264.0hPa | 2.9V | 00:00:00 | 00:00:00 | 00:00:00 | |
| ATIDSZ-14 | 2026-09-04 11:45:51 | 47.22169 | 19.40226 | 160° | 102km/h | 10478m | 5.2m/s | -43.3°C | 57.9% | 264.6hPa | 2.9V | 00:00:00 | 00:00:00 | 00:00:00 | |
| PETON7-10 | 2026-09-04 11:45:40 | 47.22458 | 19.40086 | 159° | 108km/h | 10413m | 7.1m/s | -42.7°C | 61.7% | 267.1hPa | 2.9V | 00:00:00 | 00:51:20 | 00:00:00 | |
| ATIDSZ-14 | 2026-09-04 11:45:31 | 47.22653 | 19.39989 | 157° | 110km/h | 10359m | 4.6m/s | -42.2°C | 56.8% | 269.2hPa | 2.9V | 00:00:00 | 00:00:00 | 00:00:00 | |
| PETON7-10 | 2026-09-04 11:45:25 | 47.22839 | 19.39883 | 158° | 100km/h | 10315m | 6.0m/s | -41.8°C | 63.9% | 271.0hPa | 2.9V | 00:00:00 | 00:00:00 | 00:00:00 | |
| GYPAP8-17 | 2026-09-04 11:45:18 | 47.22986 | 19.39788 | 161° | 106km/h | 10272m | 6.3m/s | -41.5°C | 59.1% | 272.7hPa | 2.9V | 00:00:00 | 00:00:00 | 00:00:00 | |
| PETON7-10 | 2026-09-04 11:45:10 | 47.23199 | 19.39688 | 164° | 100km/h | 10226m | 6.3m/s | -41.1°C | 65.2% | 274.5hPa | 2.9V | 00:00:00 | 00:00:00 | 00:00:00 | |
| ATIDSZ-14 | 2026-09-04 11:45:04 | 47.23322 | 19.39612 | 158° | 110km/h | 10202m | 6.5m/s | -40.9°C | 60.6% | 275.6hPa | 2.9V | 00:00:00 | 00:00:00 | 00:00:00 | |
| PETON7-10 | 2026-09-04 11:44:55 | 47.23551 | 19.39484 | 151° | 102km/h | 10151m | 5.3m/s | -40.5°C | 65.6% | 277.7hPa | 2.9V | 00:00:00 | 00:50:35 | 00:00:00 | |
| ATIDSZ-14 | 2026-09-04 11:44:43 | 47.23807 | 19.39334 | 156° | 108km/h | 10086m | 5.9m/s | -40.1°C | 62.8% | 280.4hPa | 2.9V | 00:00:00 | 00:00:00 | 00:00:00 | |
| PETON7-10 | 2026-09-04 11:44:25 | 47.24217 | 19.39059 | 161° | 91km/h | 9961m | 4.9m/s | -39.0°C | 68.4% | 285.4hPa | 2.9V | 00:00:00 | 00:00:00 | 00:00:00 | |
| ATIDSZ-14 | 2026-09-04 11:44:23 | 47.24256 | 19.39038 | 160° | 88km/h | 9952m | 3.8m/s | -38.9°C | 64.8% | 285.9hPa | 2.9V | 00:00:00 | 00:00:00 | 00:00:00 | |
| GYPAP8-17 | 2026-09-04 11:44:12 | 47.24466 | 19.38886 | 157° | 91km/h | 9883m | 9.6m/s | -38.4°C | 63.2% | 288.7hPa | 2.9V | 00:00:00 | 00:00:00 | 00:00:00 | |
| PETON7-10 | 2026-09-04 11:44:10 | 47.24536 | 19.38843 | 159° | 97km/h | 9858m | 7.8m/s | -38.1°C | 67.0% | 289.7hPa | 2.9V | 00:00:00 | 00:49:50 | 00:00:00 | |
| ATIDSZ-14 | 2026-09-04 11:44:02 | 47.24693 | 19.38727 | 150° | 93km/h | 9808m | 7.5m/s | -37.7°C | 62.4% | 291.7hPa | 2.9V | 00:00:00 | 00:00:00 | 00:00:00 | |
| PETON7-10 | 2026-09-04 11:43:55 | 47.24854 | 19.38590 | 150° | 91km/h | 9760m | 8.9m/s | -37.2°C | 67.7% | 293.8hPa | 2.9V | 00:00:00 | 00:00:00 | 08:30:00 | |
| ATIDSZ-14 | 2026-09-04 11:43:42 | 47.25096 | 19.38383 | 150° | 89km/h | 9669m | 7.9m/s | -36.4°C | 62.0% | 297.7hPa | 2.9V | 00:00:00 | 00:00:00 | 00:00:00 | |
| PETON7-10 | 2026-09-04 11:43:40 | 47.25153 | 19.38336 | 150° | 89km/h | 9646m | 8.3m/s | -36.2°C | 66.0% | 298.6hPa | 2.9V | 00:00:00 | 00:00:00 | 00:00:00 | |
| PETON7-10 | 2026-09-04 11:43:24 | 47.25452 | 19.38047 | 151° | 89km/h | 9537m | 8.2m/s | -35.2°C | 66.3% | 303.4hPa | 2.9V | 00:00:00 | 00:49:04 | 00:00:00 | |
| ATIDSZ-14 | 2026-09-04 11:43:20 | 47.25517 | 19.38001 | 158° | 93km/h | 9510m | 8.0m/s | -35.1°C | 63.4% | 304.6hPa | 2.9V | 00:00:00 | 00:00:00 | 00:00:00 | |
| PETON7-10 | 2026-09-04 11:43:09 | 47.25753 | 19.37824 | 157° | 89km/h | 9432m | 6.2m/s | -34.4°C | 71.6% | 307.9hPa | 2.9V | 00:00:00 | 00:00:00 | 00:00:00 | |
| ATIDSZ-14 | 2026-09-04 11:42:59 | 47.25940 | 19.37692 | 156° | 88km/h | 9377m | 7.9m/s | -34.0°C | 68.2% | 310.4hPa | 2.9V | 00:00:00 | 00:00:00 | 00:00:00 | |
| GYPAP8-17 | 2026-09-04 11:42:50 | 47.26125 | 19.37574 | 155° | 93km/h | 9308m | 9.1m/s | 0°C | 0% | 313.5hPa | 2.9V | 00:00:00 | 00:00:00 | 00:00:00 | |
| PETON7-10 | 2026-09-04 11:42:39 | 47.26364 | 19.37393 | 152° | 86km/h | 9222m | 8.9m/s | -32.6°C | 70.6% | 317.5hPa | 2.9V | 00:00:00 | 00:48:19 | 00:00:00 | |
| ATIDSZ-14 | 2026-09-04 11:42:38 | 47.26364 | 19.37393 | 153° | 89km/h | 9222m | 9.0m/s | -32.6°C | 67.0% | 317.5hPa | 2.9V | 00:00:00 | 00:00:00 | 00:00:00 | |
| PETON7-10 | 2026-09-04 11:42:24 | 47.26651 | 19.37174 | 153° | 82km/h | 9109m | 10.6m/s | -31.7°C | 70.5% | 322.4hPa | 2.9V | 00:00:00 | 00:00:00 | 00:00:00 | |
| ATIDSZ-14 | 2026-09-04 11:42:17 | 47.26754 | 19.37089 | 150° | 86km/h | 9058m | 6.8m/s | -31.2°C | 68.0% | 324.9hPa | 2.9V | 00:00:00 | 00:00:00 | 00:00:00 | |
| PETON7-10 | 2026-09-04 11:42:09 | 47.26932 | 19.36957 | 156° | 88km/h | 8989m | 7.8m/s | -30.6°C | 70.8% | 328.1hPa | 2.9V | 00:00:00 | 00:00:00 | 00:00:00 | |
| ATIDSZ-14 | 2026-09-04 11:41:56 | 47.27171 | 19.36785 | 158° | 89km/h | 8896m | 7.7m/s | -29.9°C | 65.9% | 332.4hPa | 2.9V | 00:00:00 | 00:00:00 | 00:00:00 | |
| PETON7-10 | 2026-09-04 11:41:54 | 47.27229 | 19.36744 | 149° | 78km/h | 8870m | 9.4m/s | -29.7°C | 67.7% | 333.5hPa | 2.9V | 00:00:00 | 00:47:34 | 00:00:00 | |
| GYPAP8-17 | 2026-09-04 11:41:42 | 47.27414 | 19.36578 | 152° | 86km/h | 8789m | 8.4m/s | 0°C | 0% | 0hPa | 2.9V | 00:00:00 | 00:00:00 | 00:00:00 | |
| PETON7-10 | 2026-09-04 11:41:39 | 47.27481 | 19.36518 | 142° | 77km/h | 8754m | 9.5m/s | -28.8°C | 64.9% | 338.9hPa | 2.9V | 00:00:00 | 00:00:00 | 08:30:00 | |
| ATIDSZ-14 | 2026-09-04 11:41:36 | 47.27510 | 19.36481 | 140° | 78km/h | 8739m | 7.9m/s | -28.7°C | 60.8% | 339.7hPa | 2.9V | 00:00:00 | 00:00:00 | 00:00:00 | |
| PETON7-10 | 2026-09-04 11:41:24 | 47.27724 | 19.36289 | 145° | 75km/h | 8636m | 7.2m/s | -28.0°C | 64.8% | 344.5hPa | 2.9V | 00:00:00 | 00:00:00 | 00:00:00 | |
| ATIDSZ-14 | 2026-09-04 11:41:16 | 47.27857 | 19.36164 | 156° | 69km/h | 8584m | 6.6m/s | -27.6°C | 61.2% | 347.2hPa | 2.9V | 00:00:00 | 00:00:00 | 00:00:00 | |
| PETON7-10 | 2026-09-04 11:41:08 | 47.27984 | 19.36059 | 160° | 73km/h | 8528m | 5.8m/s | -27.1°C | 64.7% | 349.9hPa | 2.9V | 00:00:00 | 00:46:48 | 00:00:00 | |
| ATIDSZ-14 | 2026-09-04 11:40:54 | 47.28191 | 19.35875 | 143° | 68km/h | 8443m | 6.2m/s | -26.6°C | 67.8% | 354.1hPa | 2.9V | 00:00:00 | 00:00:00 | 00:00:00 | |
| PETON7-10 | 2026-09-04 11:40:53 | 47.28223 | 19.35848 | 153° | 80km/h | 8433m | 6.6m/s | -26.5°C | 70.7% | 354.7hPa | 2.9V | 00:00:00 | 00:00:00 | 00:00:00 | |
| PETON7-10 | 2026-09-04 11:40:38 | 47.28487 | 19.35619 | 149° | 78km/h | 8326m | 6.8m/s | -25.8°C | 71.5% | 359.9hPa | 2.9V | 00:00:00 | 00:00:00 | 00:00:00 | |
| GYPAP8-17 | 2026-09-04 11:40:37 | 47.28487 | 19.35619 | 150° | 80km/h | 8326m | 6.9m/s | 0°C | 0% | 0hPa | 2.9V | 00:00:00 | 00:00:00 | 00:00:00 | |
| ATIDSZ-14 | 2026-09-04 11:40:29 | 47.28616 | 19.35509 | 152° | 78km/h | 8266m | 4.7m/s | -25.3°C | 67.9% | 363.0hPa | 2.9V | 00:00:00 | 00:00:00 | 00:00:00 | |
| PETON7-10 | 2026-09-04 11:40:23 | 47.28749 | 19.35408 | 149° | 78km/h | 8219m | 7.2m/s | -25.0°C | 69.8% | 365.3hPa | 2.9V | 00:00:00 | 00:46:03 | 00:00:00 | |
| ATIDSZ-14 | 2026-09-04 11:40:09 | 47.28967 | 19.35208 | 150° | 68km/h | 8136m | 5.4m/s | -25.0°C | 83.2% | 369.6hPa | 2.9V | 00:00:00 | 00:00:00 | 00:00:00 | |
| PETON7-10 | 2026-09-04 11:40:08 | 47.28999 | 19.35183 | 154° | 88km/h | 8123m | 7.2m/s | -24.8°C | 86.0% | 370.3hPa | 2.9V | 00:00:00 | 00:00:00 | 00:00:00 | |
| PETON7-10 | 2026-09-04 11:39:53 | 47.29256 | 19.34879 | 148° | 78km/h | 8031m | 6.3m/s | -24.1°C | 83.5% | 374.8hPa | 2.9V | 00:00:00 | 00:00:00 | 00:00:00 | |
| ATIDSZ-14 | 2026-09-04 11:39:49 | 47.29306 | 19.34830 | 146° | 82km/h | 8010m | 5.9m/s | -23.9°C | 80.4% | 376.0hPa | 2.9V | 00:00:00 | 00:00:00 | 00:00:00 | |
| PETON7-10 | 2026-09-04 11:39:38 | 47.29495 | 19.34616 | 141° | 77km/h | 7925m | 7.5m/s | -23.1°C | 80.9% | 380.3hPa | 2.9V | 00:00:00 | 00:45:18 | 00:00:00 | |
| ATIDSZ-14 | 2026-09-04 11:39:29 | 47.29627 | 19.34475 | 141° | 77km/h | 7870m | 6.8m/s | -22.7°C | 77.8% | 383.2hPa | 2.9V | 00:00:00 | 00:00:00 | 00:00:00 | |
| PETON7-10 | 2026-09-04 11:39:23 | 47.29726 | 19.34360 | 152° | 78km/h | 7819m | 8.5m/s | -22.3°C | 80.1% | 385.9hPa | 2.9V | 00:00:00 | 00:00:00 | 08:30:00 | |
| PETON7-10 | 2026-09-04 11:39:08 | 47.29979 | 19.34130 | 146° | 86km/h | 7711m | 6.7m/s | -21.4°C | 77.8% | 391.6hPa | 3.0V | 00:00:00 | 00:00:00 | 00:00:00 | |
| PETON7-10 | 2026-09-04 11:38:53 | 47.30244 | 19.33856 | 146° | 77km/h | 7611m | 7.8m/s | -20.7°C | 78.2% | 396.8hPa | 3.0V | 00:00:00 | 00:44:33 | 00:00:00 | |
| PETON7-10 | 2026-09-04 11:38:38 | 47.30480 | 19.33613 | 138° | 75km/h | 7507m | 7.0m/s | -19.9°C | 78.7% | 402.5hPa | 3.0V | 00:00:00 | 00:00:00 | 00:00:00 | |
| ATIDSZ-14 | 2026-09-04 11:38:24 | 47.30693 | 19.33392 | 143° | 73km/h | 7409m | 7.1m/s | -19.2°C | 74.6% | 407.8hPa | 0V | 00:00:00 | 00:00:00 | 00:00:00 | |
| PETON7-10 | 2026-09-04 11:38:23 | 47.30708 | 19.33376 | 143° | 75km/h | 7402m | 6.3m/s | -19.1°C | 77.5% | 0hPa | 0V | 00:00:00 | 00:00:00 | 00:00:00 | |
| PETON7-10 | 2026-09-04 11:38:08 | 47.30937 | 19.33136 | 144° | 75km/h | 7300m | 6.3m/s | 0°C | 0% | 0hPa | 0V | 00:00:00 | 00:43:48 | 00:00:00 | |
| ATIDSZ-14 | 2026-09-04 11:38:03 | 47.31008 | 19.33073 | 153° | 82km/h | 7274m | 7.6m/s | -18.2°C | 75.3% | 415.2hPa | 0V | 00:00:00 | 00:00:00 | 00:00:00 | |
| GYPAP8-17 | 2026-09-04 11:37:59 | 47.31073 | 19.33014 | 146° | 66km/h | 7247m | 5.0m/s | 0°C | 0% | 0hPa | 0V | 00:00:00 | 00:00:00 | 00:00:00 | |
| PETON7-10 | 2026-09-04 11:37:53 | 47.31175 | 19.32914 | 145° | 68km/h | 7201m | 4.4m/s | 0°C | 0% | 0hPa | 0V | 00:00:00 | 00:00:00 | 00:00:00 | |
| ATIDSZ-14 | 2026-09-04 11:37:42 | 47.31318 | 19.32769 | 143° | 68km/h | 7134m | 8.5m/s | -17.7°C | 83.3% | 423.2hPa | 0V | 00:00:00 | 00:00:00 | 00:00:00 | |
| PETON7-10 | 2026-09-04 11:37:38 | 47.31383 | 19.32700 | 147° | 68km/h | 7102m | 5.7m/s | 0°C | 0% | 0hPa | 0V | 00:00:00 | 00:00:00 | 00:00:00 | |
| ATIDSZ-14 | 2026-09-04 11:37:21 | 47.31586 | 19.32463 | 146° | 73km/h | 7003m | 6.1m/s | -17.3°C | 82.0% | 430.6hPa | 0V | 00:00:00 | 00:00:00 | 00:00:00 | |
| PETON7-10 | 2026-09-04 11:37:09 | 47.31769 | 19.32261 | 144° | 69km/h | 6924m | 6.4m/s | 0°C | 0% | 0hPa | 0V | 00:00:00 | 00:42:49 | 00:00:00 | |
| ATIDSZ-14 | 2026-09-04 11:36:56 | 47.31929 | 19.32061 | 145° | 62km/h | 6844m | 8.3m/s | -16.0°C | 87.5% | 439.8hPa | 0V | 00:00:00 | 00:00:00 | 00:00:00 | |
| PETON7-10 | 2026-09-04 11:36:54 | 47.31972 | 19.32010 | 140° | 73km/h | 6827m | 7.1m/s | 0°C | 0% | 0hPa | 0V | 00:00:00 | 00:00:00 | 00:00:00 | |
| GYPAP8-17 | 2026-09-04 11:36:49 | 47.32025 | 19.31936 | 135° | 71km/h | 6802m | 7.2m/s | 0°C | 0% | 0hPa | 0V | 00:00:00 | 00:00:00 | 00:00:00 | |
| ATIDSZ-14 | 2026-09-04 11:36:35 | 47.32209 | 19.31697 | 136° | 68km/h | 6721m | 5.9m/s | -14.9°C | 80.1% | 447.1hPa | 0V | 00:00:00 | 00:00:00 | 00:00:00 | |
| ATIDSZ-14 | 2026-09-04 11:36:14 | 47.32505 | 19.31354 | 145° | 73km/h | 6605m | 4.3m/s | -14.0°C | 82.1% | 453.9hPa | 0V | 00:00:00 | 00:00:00 | 00:00:00 | |
| GYPAP8-17 | 2026-09-04 11:35:58 | 47.32726 | 19.31060 | 145° | 75km/h | 6525m | 4.5m/s | 0°C | 0% | 0hPa | 0V | 00:00:00 | 00:00:00 | 00:00:00 | |
| ATIDSZ-14 | 2026-09-04 11:35:54 | 47.32784 | 19.31001 | 145° | 68km/h | 6501m | 4.9m/s | -13.5°C | 87.2% | 460.2hPa | 0V | 00:00:00 | 00:00:00 | 00:00:00 | |
| ATIDSZ-14 | 2026-09-04 11:35:33 | 47.33090 | 19.30654 | 145° | 78km/h | 6395m | 4.1m/s | -12.9°C | 65.4% | 466.9hPa | 0V | 00:00:00 | 00:00:00 | 00:00:00 | |
| ATIDSZ-14 | 2026-09-04 11:35:13 | 47.33387 | 19.30312 | 146° | 75km/h | 6294m | 4.5m/s | -12.5°C | 71.3% | 472.9hPa | 0V | 00:00:00 | 00:00:00 | 00:00:00 | |
| GYPAP8-17 | 2026-09-04 11:34:54 | 47.33672 | 19.29967 | 143° | 69km/h | 6201m | 6.3m/s | 0°C | 0% | 0hPa | 0V | 00:00:00 | 00:00:00 | 00:00:00 | |
| ATIDSZ-14 | 2026-09-04 11:34:53 | 47.33704 | 19.29935 | 146° | 80km/h | 6192m | 3.8m/s | -13.4°C | 80.6% | 479.1hPa | 0V | 00:00:00 | 00:00:00 | 00:00:00 | |
| ATIDSZ-14 | 2026-09-04 11:34:33 | 47.34014 | 19.29603 | 147° | 75km/h | 6092m | 5.6m/s | -13.4°C | 58.1% | 485.5hPa | 0V | 00:00:00 | 00:00:00 | 00:00:00 | |
| ATIDSZ-14 | 2026-09-04 11:34:10 | 47.34379 | 19.29290 | 152° | 77km/h | 5967m | 5.8m/s | -12.7°C | 0% | 493.4hPa | 0V | 00:00:00 | 00:00:00 | 00:00:00 | |
| ATIDSZ-14 | 2026-09-04 11:33:49 | 47.34723 | 19.28990 | 152° | 80km/h | 5846m | 4.9m/s | -11.8°C | 0% | 501.4hPa | 0V | 00:00:00 | 00:00:00 | 00:00:00 | |
| ATIDSZ-14 | 2026-09-04 11:33:29 | 47.35069 | 19.28759 | 161° | 71km/h | 5723m | 4.6m/s | -11.0°C | 0% | 509.6hPa | 0V | 00:00:00 | 00:00:00 | 00:00:00 | |
| ATIDSZ-14 | 2026-09-04 11:33:03 | 47.35496 | 19.28511 | 161° | 75km/h | 5545m | 6.8m/s | -9.7°C | 0% | 521.3hPa | 0V | 00:00:00 | 00:00:00 | 00:00:00 | |
| ATIDSZ-14 | 2026-09-04 11:32:39 | 47.35875 | 19.28218 | 149° | 69km/h | 5378m | 6.9m/s | -8.6°C | 0% | 532.9hPa | 0V | 00:00:00 | 00:00:00 | 00:00:00 | |
| GYPAP8-17 | 2026-09-04 11:32:29 | 47.36025 | 19.28089 | 151° | 68km/h | 5307m | 7.5m/s | 0°C | 0% | 0hPa | 0V | 00:00:00 | 00:00:00 | 00:00:00 | |
| ATIDSZ-14 | 2026-09-04 11:32:04 | 47.36375 | 19.27706 | 146° | 80km/h | 5142m | 6.3m/s | -6.7°C | 0% | 549.2hPa | 0V | 00:00:00 | 00:00:00 | 00:00:00 | |
| ATIDSZ-14 | 2026-09-04 11:31:44 | 47.36645 | 19.27428 | 142° | 62km/h | 5008m | 6.7m/s | 0°C | 0% | 558.8hPa | 0V | 00:00:00 | 00:00:00 | 00:00:00 | |
| GYPAP8-17 | 2026-09-04 11:31:43 | 47.36658 | 19.27413 | 144° | 64km/h | 5001m | 7.4m/s | 0°C | 0% | 0hPa | 0V | 00:00:00 | 00:00:00 | 00:00:00 | |
| ATIDSZ-14 | 2026-09-04 11:31:23 | 47.36930 | 19.27156 | 149° | 57km/h | 4867m | 7.2m/s | 0°C | 0% | 568.9hPa | 0V | 00:00:00 | 00:00:00 | 00:00:00 | |
| ATIDSZ-14 | 2026-09-04 11:31:02 | 47.37188 | 19.26857 | 137° | 55km/h | 4739m | 4.8m/s | 0°C | 0% | 578.3hPa | 0V | 00:00:00 | 00:00:00 | 00:00:00 | |
| GYPAP8-17 | 2026-09-04 11:30:56 | 47.37255 | 19.26772 | 142° | 58km/h | 4702m | 7.4m/s | 0°C | 0% | 0hPa | 0V | 00:00:00 | 00:00:00 | 00:00:00 | |
| ATIDSZ-14 | 2026-09-04 11:30:42 | 47.37422 | 19.26568 | 140° | 58km/h | 4609m | 7.0m/s | 0°C | 0% | 587.6hPa | 0V | 00:00:00 | 00:00:00 | 00:00:00 | |
| ATIDSZ-14 | 2026-09-04 11:30:20 | 47.37680 | 19.26222 | 137° | 60km/h | 4478m | 6.5m/s | 0°C | 0% | 0hPa | 0V | 00:00:00 | 00:00:00 | 00:00:00 | |
| ATIDSZ-14 | 2026-09-04 11:29:04 | 47.38564 | 19.25153 | 138° | 62km/h | 4001m | 6.0m/s | 0°C | 0% | 0hPa | 0V | 00:00:00 | 00:00:00 | 00:00:00 | |
| OM5KV | 2026-09-04 11:28:48 | 47.38736 | 19.24949 | 142° | 53km/h | 3904m | 7.6m/s | 2.0°C | 61.2% | 641.8hPa | 0V | 00:00:00 | 00:00:00 | 00:00:00 | |
| OM5KV | 2026-09-04 11:28:43 | 47.38790 | 19.24877 | 134° | 53km/h | 3873m | 7.8m/s | 2.3°C | 58.8% | 644.4hPa | 0V | 00:00:00 | 00:00:00 | 00:00:00 | |
| ATIDSZ-14 | 2026-09-04 11:28:40 | 47.38821 | 19.24835 | 146° | 58km/h | 3854m | 2.7m/s | 0°C | 0% | 0hPa | 0V | 00:00:00 | 00:00:00 | 00:00:00 | |
| OM5KV | 2026-09-04 11:28:36 | 47.38867 | 19.24783 | 143° | 57km/h | 3831m | 5.4m/s | 2.7°C | 57.7% | 647.9hPa | 0V | 00:00:00 | 00:00:00 | 00:00:00 | |
| OM5KV | 2026-09-04 11:28:29 | 47.38945 | 19.24687 | 137° | 53km/h | 3788m | 5.7m/s | 2.9°C | 57.0% | 651.3hPa | 0V | 00:00:00 | 00:00:00 | 00:00:00 | |
| OM5KV | 2026-09-04 11:28:24 | 47.38997 | 19.24616 | 139° | 53km/h | 3756m | 7.2m/s | 3.1°C | 54.5% | 653.8hPa | 0V | 00:00:00 | 00:00:00 | 00:00:00 | |
| OM5KV | 2026-09-04 11:28:18 | 47.39058 | 19.24537 | 133° | 49km/h | 3719m | 6.2m/s | 3.2°C | 42.6% | 656.8hPa | 0V | 00:00:00 | 00:00:00 | 00:00:00 | |
| OM5KV | 2026-09-04 11:28:17 | 47.39067 | 19.24523 | 135° | 53km/h | 3713m | 6.4m/s | 3.3°C | 41.3% | 657.3hPa | 0V | 00:00:00 | 00:00:00 | 00:00:00 | |
| OM5KV | 2026-09-04 11:28:06 | 47.39175 | 19.24369 | 138° | 53km/h | 3648m | 7.0m/s | 3.7°C | 44.2% | 662.6hPa | 0V | 00:00:00 | 00:00:00 | 00:00:00 | |
| OM5KV | 2026-09-04 11:28:01 | 47.39229 | 19.24298 | 139° | 57km/h | 3616m | 6.9m/s | 4.0°C | 44.2% | 665.3hPa | 0V | 00:00:00 | 00:00:00 | 00:00:00 | |
| OM5KV | 2026-09-04 11:28:00 | 47.39240 | 19.24284 | 139° | 58km/h | 3609m | 6.2m/s | 4.0°C | 44.7% | 665.8hPa | 0V | 00:00:00 | 00:00:00 | 00:00:00 | |
| OM5KV | 2026-09-04 11:27:56 | 47.39286 | 19.24228 | 140° | 64km/h | 3585m | 6.9m/s | 4.2°C | 48.7% | 667.7hPa | 0V | 00:00:00 | 00:00:00 | 00:00:00 | |
| OM5KV | 2026-09-04 11:27:55 | 47.39299 | 19.24212 | 137° | 68km/h | 3579m | 6.5m/s | 4.2°C | 49.1% | 668.2hPa | 0V | 00:00:00 | 00:00:00 | 00:00:00 | |
| OM5KV | 2026-09-04 11:27:51 | 47.39360 | 19.24130 | 144° | 60km/h | 3549m | 5.0m/s | 4.4°C | 56.9% | 670.5hPa | 0V | 00:00:00 | 00:00:00 | 00:00:00 | |
| OM5KV | 2026-09-04 11:27:49 | 47.39373 | 19.24118 | 147° | 57km/h | 3544m | 5.1m/s | 4.4°C | 57.8% | 671.0hPa | 0V | 00:00:00 | 00:00:00 | 00:00:00 | |
| OM5KV | 2026-09-04 11:27:47 | 47.39397 | 19.24093 | 143° | 58km/h | 3532m | 8.3m/s | 4.4°C | 58.1% | 671.8hPa | 0V | 00:00:00 | 00:00:00 | 00:00:00 | |
| OM5KV | 2026-09-04 11:27:44 | 47.39429 | 19.24047 | 133° | 58km/h | 3516m | 6.2m/s | 4.6°C | 56.8% | 673.1hPa | 0V | 00:00:00 | 00:00:00 | 00:00:00 | |
| OM5KV | 2026-09-04 11:27:41 | 47.39464 | 19.23999 | 142° | 66km/h | 3499m | 6.4m/s | 4.7°C | 54.7% | 674.5hPa | 0V | 00:00:00 | 00:00:00 | 00:00:00 | |
| OM5KV | 2026-09-04 11:27:38 | 47.39499 | 19.23956 | 146° | 58km/h | 3481m | 5.6m/s | 4.9°C | 50.9% | 676.0hPa | 0V | 00:00:00 | 00:00:00 | 00:00:00 | |
| OM5KV | 2026-09-04 11:27:36 | 47.39534 | 19.23917 | 141° | 58km/h | 3463m | 6.4m/s | 5.1°C | 18.4% | 677.4hPa | 0V | 00:00:00 | 00:00:00 | 00:00:00 | |
| OM5KV | 2026-09-04 11:27:32 | 47.39566 | 19.23877 | 141° | 58km/h | 3445m | 7.4m/s | 5.2°C | 10.6% | 678.9hPa | 0V | 00:00:00 | 00:00:00 | 00:00:00 | |
| OM5KV | 2026-09-04 11:27:29 | 47.39602 | 19.23831 | 141° | 62km/h | 3426m | 8.1m/s | 5.3°C | 10.4% | 680.4hPa | 0V | 00:00:00 | 00:00:00 | 00:00:00 | |
| OM5KV | 2026-09-04 11:27:23 | 47.39669 | 19.23747 | 137° | 58km/h | 3394m | 5.8m/s | 5.5°C | 10.7% | 683.3hPa | 0V | 00:00:00 | 00:00:00 | 00:00:00 | |
| ATIDSZ-14 | 2026-09-04 11:27:19 | 47.39716 | 19.23692 | 141° | 58km/h | 3370m | 7.4m/s | 0°C | 0% | 0hPa | 0V | 00:00:00 | 00:00:00 | 00:00:00 | |
| OM5KV | 2026-09-04 11:27:16 | 47.39747 | 19.23647 | 138° | 57km/h | 3352m | 6.2m/s | 5.7°C | 10.8% | 686.7hPa | 0V | 00:00:00 | 00:00:00 | 00:00:00 | |
| OM5KV | 2026-09-04 11:27:06 | 47.39863 | 19.23496 | 131° | 58km/h | 3296m | 6.6m/s | 6.0°C | 9.0% | 691.5hPa | 0V | 00:00:00 | 00:00:00 | 00:00:00 | |
| ATIDSZ-14 | 2026-09-04 11:26:57 | 47.39964 | 19.23375 | 142° | 60km/h | 3241m | 5.5m/s | 0°C | 0% | 0hPa | 0V | 00:00:00 | 00:00:00 | 00:00:00 | |
| OM5KV | 2026-09-04 11:26:54 | 47.39996 | 19.23330 | 135° | 53km/h | 3221m | 7.0m/s | 6.6°C | 6.3% | 698.0hPa | 0V | 00:00:00 | 00:00:00 | 00:00:00 | |
| OM5KV | 2026-09-04 11:26:48 | 47.40061 | 19.23255 | 136° | 55km/h | 3185m | 5.1m/s | 6.8°C | 4.5% | 701.2hPa | 0V | 00:00:00 | 00:00:00 | 00:00:00 | |
| OM5KV | 2026-09-04 11:26:47 | 47.40071 | 19.23240 | 135° | 60km/h | 3180m | 6.9m/s | 6.8°C | 4.0% | 701.6hPa | 0V | 00:00:00 | 00:00:00 | 00:00:00 | |
| OM5KV | 2026-09-04 11:26:44 | 47.40100 | 19.23198 | 133° | 46km/h | 3159m | 5.1m/s | 6.8°C | 2.8% | 703.4hPa | 0V | 00:00:00 | 00:00:00 | 00:00:00 | |
| OM5KV | 2026-09-04 11:26:38 | 47.40163 | 19.23126 | 140° | 53km/h | 3120m | 6.8m/s | 6.8°C | 2.6% | 706.6hPa | 0V | 00:00:00 | 00:00:00 | 00:00:00 | |
| OM5KV | 2026-09-04 11:26:37 | 47.40172 | 19.23112 | 132° | 49km/h | 3114m | 5.5m/s | 6.8°C | 2.5% | 707.1hPa | 0V | 00:00:00 | 00:00:00 | 00:00:00 | |
| ATIDSZ-14 | 2026-09-04 11:26:36 | 47.40180 | 19.23098 | 130° | 47km/h | 3108m | 6.1m/s | 0°C | 0% | 0hPa | 0V | 00:00:00 | 00:00:00 | 00:00:00 | |
| OM5KV | 2026-09-04 11:26:30 | 47.40235 | 19.23017 | 139° | 51km/h | 3069m | 7.6m/s | 7.1°C | 2.3% | 711.0hPa | 0V | 00:00:00 | 00:00:00 | 00:00:00 | |
| OM5KV | 2026-09-04 11:26:25 | 47.40282 | 19.22957 | 137° | 47km/h | 3038m | 5.9m/s | 7.2°C | 2.3% | 713.6hPa | 0V | 00:00:00 | 00:00:00 | 00:00:00 | |
| OM5KV | 2026-09-04 11:26:18 | 47.40349 | 19.22880 | 144° | 47km/h | 2993m | 6.2m/s | 7.4°C | 2.6% | 717.6hPa | 0V | 00:00:00 | 00:00:00 | 00:00:00 | |
| ATIDSZ-14 | 2026-09-04 11:26:15 | 47.40378 | 19.22843 | 135° | 53km/h | 2973m | 6.7m/s | 0°C | 0% | 0hPa | 0V | 00:00:00 | 00:00:00 | 00:00:00 | |
| OM5KV | 2026-09-04 11:26:13 | 47.40397 | 19.22816 | 143° | 47km/h | 2960m | 7.3m/s | 7.2°C | 6.0% | 720.6hPa | 0V | 00:00:00 | 00:00:00 | 00:00:00 | |
| OM5KV | 2026-09-04 11:26:12 | 47.40406 | 19.22806 | 143° | 46km/h | 2953m | 5.9m/s | 7.1°C | 6.6% | 721.1hPa | 0V | 00:00:00 | 00:00:00 | 00:00:00 | |
| OM5KV | 2026-09-04 11:26:07 | 47.40450 | 19.22747 | 138° | 49km/h | 2918m | 8.7m/s | 6.7°C | 16.5% | 724.1hPa | 0V | 00:00:00 | 00:00:00 | 00:00:00 | |
| OM5KV | 2026-09-04 11:26:06 | 47.40459 | 19.22734 | 138° | 51km/h | 2911m | 5.1m/s | 6.7°C | 17.1% | 724.7hPa | 0V | 00:00:00 | 00:00:00 | 00:00:00 | |
| OM5KV | 2026-09-04 11:26:03 | 47.40487 | 19.22697 | 144° | 47km/h | 2893m | 5.0m/s | 6.8°C | 18.4% | 726.4hPa | 0V | 00:00:00 | 00:00:00 | 00:00:00 | |
| OM5KV | 2026-09-04 11:26:00 | 47.40516 | 19.22664 | 138° | 49km/h | 2874m | 6.8m/s | 6.6°C | 28.0% | 728.1hPa | 0V | 00:00:00 | 00:00:00 | 00:00:00 | |
| OM5KV | 2026-09-04 11:25:54 | 47.40570 | 19.22590 | 139° | 51km/h | 2834m | 7.7m/s | 6.8°C | 30.3% | 731.7hPa | 0V | 00:00:00 | 00:00:00 | 00:00:00 | |
| ATIDSZ-14 | 2026-09-04 11:25:53 | 47.40580 | 19.22577 | 141° | 49km/h | 2828m | 6.9m/s | 0°C | 0% | 0hPa | 0V | 00:00:00 | 00:00:00 | 00:00:00 | |
| OM5KV | 2026-09-04 11:25:48 | 47.40634 | 19.22517 | 140° | 51km/h | 2794m | 7.9m/s | 6.7°C | 42.0% | 735.3hPa | 0V | 00:00:00 | 00:00:00 | 00:00:00 | |
| OM5KV | 2026-09-04 11:25:44 | 47.40672 | 19.22458 | 129° | 58km/h | 2770m | 7.1m/s | 6.7°C | 46.6% | 737.6hPa | 0V | 00:00:00 | 00:00:00 | 00:00:00 | |
| OM5KV | 2026-09-04 11:25:43 | 47.40681 | 19.22441 | 132° | 55km/h | 2762m | 8.4m/s | 6.7°C | 46.3% | 738.2hPa | 0V | 00:00:00 | 00:00:00 | 00:00:00 | |
| OM5KV | 2026-09-04 11:25:39 | 47.40726 | 19.22383 | 141° | 62km/h | 2736m | 8.0m/s | 6.8°C | 49.1% | 740.6hPa | 0V | 00:00:00 | 00:00:00 | 00:00:00 | |
| OM5KV | 2026-09-04 11:25:38 | 47.40738 | 19.22368 | 139° | 60km/h | 2729m | 6.0m/s | 6.7°C | 50.7% | 741.2hPa | 0V | 00:00:00 | 00:00:00 | 00:00:00 | |
| OM5KV | 2026-09-04 11:25:37 | 47.40750 | 19.22353 | 141° | 60km/h | 2722m | 7.9m/s | 6.7°C | 52.1% | 741.6hPa | 0V | 00:00:00 | 00:00:00 | 00:00:00 | |
| OM5KV | 2026-09-04 11:25:32 | 47.40804 | 19.22279 | 138° | 57km/h | 2689m | 7.7m/s | 6.8°C | 56.8% | 744.6hPa | 0V | 00:00:00 | 00:00:00 | 00:00:00 | |
| OM5KV | 2026-09-04 11:25:21 | 47.40931 | 19.22111 | 138° | 60km/h | 2614m | 6.7m/s | 7.0°C | 64.3% | 751.3hPa | 0V | 00:00:00 | 00:00:00 | 00:00:00 | |
| OM5KV | 2026-09-04 11:25:20 | 47.40943 | 19.22095 | 139° | 62km/h | 2608m | 5.5m/s | 7.0°C | 64.4% | 751.9hPa | 0V | 00:00:00 | 00:00:00 | 00:00:00 | |
| OM5KV | 2026-09-04 11:25:15 | 47.40996 | 19.22013 | 132° | 62km/h | 2576m | 7.9m/s | 7.1°C | 68.2% | 754.9hPa | 0V | 00:00:00 | 00:00:00 | 00:00:00 | |
| OM5KV | 2026-09-04 11:25:14 | 47.41007 | 19.21995 | 131° | 66km/h | 2569m | 6.5m/s | 7.2°C | 69.5% | 755.5hPa | 0V | 00:00:00 | 00:00:00 | 00:00:00 | |
| OM5KV | 2026-09-04 11:25:10 | 47.41047 | 19.21923 | 134° | 55km/h | 2544m | 6.5m/s | 7.4°C | 69.5% | 758.0hPa | 0V | 00:00:00 | 00:00:00 | 00:00:00 | |
| OM5KV | 2026-09-04 11:25:09 | 47.41057 | 19.21908 | 136° | 57km/h | 2538m | 6.5m/s | 7.4°C | 68.8% | 758.5hPa | 0V | 00:00:00 | 00:00:00 | 00:00:00 | |
| OM5KV | 2026-09-04 11:25:05 | 47.41095 | 19.21842 | 129° | 57km/h | 2512m | 7.1m/s | 7.6°C | 69.1% | 760.9hPa | 0V | 00:00:00 | 00:00:00 | 00:00:00 | |
| OM5KV | 2026-09-04 11:25:04 | 47.41104 | 19.21826 | 131° | 58km/h | 2504m | 8.0m/s | 7.6°C | 69.3% | 761.6hPa | 0V | 00:00:00 | 00:00:00 | 00:00:00 | |
| OM5KV | 2026-09-04 11:24:56 | 47.41184 | 19.21683 | 124° | 62km/h | 2451m | 6.0m/s | 7.9°C | 69.9% | 766.5hPa | 0V | 00:00:00 | 00:00:00 | 00:00:00 | |
| OM5KV | 2026-09-04 11:24:53 | 47.41211 | 19.21627 | 132° | 62km/h | 2429m | 7.1m/s | 8.1°C | 70.2% | 768.5hPa | 0V | 00:00:00 | 00:00:00 | 00:00:00 | |
| OM5KV | 2026-09-04 11:24:46 | 47.41273 | 19.21503 | 127° | 62km/h | 2379m | 6.7m/s | 8.4°C | 72.8% | 773.0hPa | 0V | 00:00:00 | 00:00:00 | 00:00:00 | |
| OM5KV | 2026-09-04 11:24:41 | 47.41326 | 19.21420 | 130° | 64km/h | 2344m | 6.6m/s | 8.7°C | 72.2% | 776.3hPa | 0V | 00:00:00 | 00:00:00 | 00:00:00 | |
| OM5KV | 2026-09-04 11:24:40 | 47.41336 | 19.21402 | 129° | 60km/h | 2338m | 5.6m/s | 8.7°C | 72.2% | 777.0hPa | 0V | 00:00:00 | 00:00:00 | 00:00:00 | |
| OM5KV | 2026-09-04 11:24:35 | 47.41383 | 19.21313 | 129° | 64km/h | 2305m | 8.1m/s | 8.9°C | 72.3% | 780.0hPa | 0V | 00:00:00 | 00:00:00 | 00:00:00 | |
| OM5KV | 2026-09-04 11:24:34 | 47.41393 | 19.21295 | 128° | 57km/h | 2298m | 6.5m/s | 9.0°C | 72.2% | 780.7hPa | 0V | 00:00:00 | 00:00:00 | 00:00:00 | |
| OM5KV | 2026-09-04 11:24:29 | 47.41442 | 19.21207 | 128° | 58km/h | 2266m | 7.8m/s | 9.1°C | 74.1% | 784.0hPa | 0V | 00:00:00 | 00:00:00 | 00:00:00 | |
| OM5KV | 2026-09-04 11:24:28 | 47.41451 | 19.21190 | 130° | 58km/h | 2258m | 7.5m/s | 9.2°C | 73.8% | 784.8hPa | 0V | 00:00:00 | 00:00:00 | 00:00:00 | |
| OM5KV | 2026-09-04 11:24:23 | 47.41499 | 19.21105 | 133° | 58km/h | 2223m | 6.2m/s | 9.5°C | 73.4% | 787.9hPa | 0V | 00:00:00 | 00:00:00 | 00:00:00 | |
| OM5KV | 2026-09-04 11:24:18 | 47.41545 | 19.21019 | 127° | 57km/h | 2189m | 7.7m/s | 9.4°C | 76.8% | 791.2hPa | 0V | 00:00:00 | 00:00:00 | 00:00:00 | |
| OM5KV | 2026-09-04 11:24:17 | 47.41555 | 19.21000 | 130° | 64km/h | 2182m | 7.3m/s | 9.5°C | 76.4% | 791.9hPa | 0V | 00:00:00 | 00:00:00 | 00:00:00 | |
| OM5KV | 2026-09-04 11:24:07 | 47.41653 | 19.20815 | 129° | 64km/h | 2112m | 7.1m/s | 9.8°C | 78.8% | 798.6hPa | 0V | 00:00:00 | 00:00:00 | 00:00:00 | |
| OM5KV | 2026-09-04 11:24:06 | 47.41664 | 19.20795 | 129° | 68km/h | 2106m | 5.0m/s | 9.8°C | 78.9% | 799.1hPa | 0V | 00:00:00 | 00:00:00 | 00:00:00 | |
| OM5KV | 2026-09-04 11:24:01 | 47.41710 | 19.20708 | 127° | 57km/h | 2072m | 9.4m/s | 10.0°C | 78.3% | 802.3hPa | 0V | 00:00:00 | 00:00:00 | 00:00:00 | |
| OM5KV | 2026-09-04 11:24:00 | 47.41718 | 19.20691 | 126° | 57km/h | 2065m | 5.8m/s | 10.1°C | 78.2% | 803.2hPa | 0V | 00:00:00 | 00:00:00 | 00:00:00 | |
| OM5KV | 2026-09-04 11:23:55 | 47.41763 | 19.20606 | 127° | 53km/h | 2031m | 6.4m/s | 10.4°C | 77.0% | 806.4hPa | 0V | 00:00:00 | 00:00:00 | 00:00:00 | |
| OM5KV | 2026-09-04 11:23:54 | 47.41771 | 19.20590 | 132° | 53km/h | 2024m | 9.2m/s | 10.3°C | 79.0% | 806.9hPa | 0V | 00:00:00 | 00:00:00 | 00:00:00 | |
| OM5KV | 2026-09-04 11:23:50 | 47.41804 | 19.20535 | 128° | 47km/h | 1995m | 5.8m/s | 10.5°C | 78.6% | 809.9hPa | 0V | 00:00:00 | 00:00:00 | 00:00:00 | |
| OM5KV | 2026-09-04 11:23:49 | 47.41812 | 19.20521 | 129° | 53km/h | 1989m | 6.9m/s | 10.5°C | 78.3% | 810.4hPa | 0V | 00:00:00 | 00:00:00 | 00:00:00 | |
| OM5KV | 2026-09-04 11:23:44 | 47.41854 | 19.20447 | 134° | 51km/h | 1958m | 6.9m/s | 10.9°C | 76.7% | 813.5hPa | 0V | 00:00:00 | 00:00:00 | 00:00:00 | |
| OM5KV | 2026-09-04 11:23:44 | 47.41854 | 19.20447 | 134° | 51km/h | 1958m | 6.9m/s | 10.9°C | 76.7% | 813.5hPa | 0V | 00:00:00 | 00:00:00 | 00:00:00 | |
| OM5KV | 2026-09-04 11:23:38 | 47.41909 | 19.20367 | 135° | 49km/h | 1917m | 7.7m/s | 10.9°C | 78.5% | 817.5hPa | 0V | 00:00:00 | 00:00:00 | 00:00:00 | |
| OM5KV | 2026-09-04 11:23:31 | 47.41963 | 19.20282 | 132° | 40km/h | 1866m | 7.5m/s | 11.3°C | 78.4% | 822.4hPa | 0V | 00:00:00 | 00:00:00 | 00:00:00 | |
| OM5KV | 2026-09-04 11:23:28 | 47.41984 | 19.20250 | 144° | 38km/h | 1844m | 6.7m/s | 11.5°C | 77.7% | 824.4hPa | 0V | 00:00:00 | 00:00:00 | 00:00:00 | |
| OM5KV | 2026-09-04 11:23:27 | 47.41991 | 19.20241 | 136° | 37km/h | 1836m | 7.5m/s | 11.5°C | 77.5% | 825.0hPa | 0V | 00:00:00 | 00:00:00 | 00:00:00 | |
| OM5KV | 2026-09-04 11:23:22 | 47.42025 | 19.20185 | 127° | 37km/h | 1801m | 6.5m/s | 11.8°C | 76.6% | 828.5hPa | 0V | 00:00:00 | 00:00:00 | 00:00:00 | |
| OM5KV | 2026-09-04 11:23:21 | 47.42030 | 19.20174 | 122° | 38km/h | 1794m | 7.6m/s | 11.8°C | 76.7% | 829.2hPa | 0V | 00:00:00 | 00:00:00 | 00:00:00 | |
| OM5KV | 2026-09-04 11:23:21 | 47.42030 | 19.20174 | 122° | 38km/h | 1794m | 7.6m/s | 11.8°C | 76.7% | 829.2hPa | 0V | 00:00:00 | 00:00:00 | 00:00:00 | |
| OM5KV | 2026-09-04 11:23:16 | 47.42056 | 19.20122 | 132° | 33km/h | 1759m | 7.4m/s | 12.2°C | 74.9% | 832.6hPa | 0V | 00:00:00 | 00:00:00 | 00:00:00 | |
| OM5KV | 2026-09-04 11:23:15 | 47.42061 | 19.20113 | 138° | 33km/h | 1752m | 7.1m/s | 0°C | 0% | 833.3hPa | 0V | 00:00:00 | 00:00:00 | 00:00:00 | |
| OM5KV | 2026-09-04 11:23:11 | 47.42086 | 19.20080 | 139° | 33km/h | 1724m | 7.0m/s | 12.4°C | 75.8% | 836.2hPa | 0V | 00:00:00 | 00:00:00 | 00:00:00 | |
| OM5KV | 2026-09-04 11:23:08 | 47.42101 | 19.20053 | 124° | 31km/h | 1700m | 8.5m/s | 0°C | 0% | 838.5hPa | 0V | 00:00:00 | 00:00:00 | 00:00:00 | |
| OM5KV | 2026-09-04 11:23:05 | 47.42114 | 19.20022 | 126° | 35km/h | 1677m | 8.1m/s | 12.8°C | 75.5% | 840.8hPa | 0V | 00:00:00 | 00:00:00 | 00:00:00 | |
| OM5KV | 2026-09-04 11:23:02 | 47.42132 | 19.19990 | 131° | 35km/h | 1654m | 8.9m/s | 0°C | 0% | 0hPa | 0V | 00:00:00 | 00:00:00 | 00:00:00 | |
| OM5KV | 2026-09-04 11:22:59 | 47.42152 | 19.19958 | 138° | 38km/h | 1631m | 7.3m/s | 13.2°C | 0% | 0hPa | 0V | 00:00:00 | 00:00:00 | 00:00:00 | |
| OM5KV | 2026-09-04 11:22:56 | 47.42171 | 19.19931 | 134° | 31km/h | 1604m | 10.2m/s | 0°C | 0% | 0hPa | 0V | 00:00:00 | 00:00:00 | 00:00:00 | |
| OM5KV | 2026-09-04 11:22:51 | 47.42201 | 19.19886 | 129° | 37km/h | 1564m | 8.2m/s | 0°C | 0% | 0hPa | 0V | 00:00:00 | 00:00:00 | 00:00:00 | |
| OM5KV | 2026-09-04 11:22:44 | 47.42240 | 19.19821 | 135° | 35km/h | 1502m | 9.2m/s | 0°C | 0% | 0hPa | 0V | 00:00:00 | 00:00:00 | 00:00:00 | |
| OM5KV | 2026-09-04 11:22:39 | 47.42269 | 19.19776 | 142° | 33km/h | 1456m | 7.6m/s | 0°C | 0% | 0hPa | 0V | 00:00:00 | 00:00:00 | 00:00:00 | |
| OM5KV | 2026-09-04 11:22:38 | 47.42275 | 19.19768 | 142° | 33km/h | 1449m | 8.9m/s | 0°C | 0% | 0hPa | 0V | 00:00:00 | 00:00:00 | 00:00:00 | |
| OM5KV | 2026-09-04 11:22:33 | 47.42307 | 19.19719 | 138° | 33km/h | 1407m | 8.1m/s | 0°C | 0% | 0hPa | 0V | 00:00:00 | 00:00:00 | 00:00:00 | |
| OM5KV | 2026-09-04 11:22:28 | 47.42335 | 19.19672 | 132° | 31km/h | 1359m | 11.6m/s | 0°C | 0% | 0hPa | 0V | 00:00:00 | 00:00:00 | 00:00:00 | |
| OM5KV | 2026-09-04 11:22:27 | 47.42340 | 19.19663 | 134° | 27km/h | 1349m | 9.3m/s | 0°C | 0% | 0hPa | 0V | 00:00:00 | 00:00:00 | 00:00:00 | |
| OM5KV | 2026-09-04 11:22:22 | 47.42362 | 19.19628 | 137° | 22km/h | 1297m | 8.9m/s | 0°C | 0% | 0hPa | 0V | 00:00:00 | 00:00:00 | 00:00:00 | |
| OM5KV | 2026-09-04 11:22:15 | 47.42392 | 19.19585 | 134° | 20km/h | 1240m | 6.6m/s | 0°C | 0% | 0hPa | 0V | 00:00:00 | 00:00:00 | 00:00:00 | |
| OM5KV | 2026-09-04 11:22:15 | 47.42392 | 19.19585 | 134° | 20km/h | 1240m | 6.6m/s | 0°C | 0% | 0hPa | 0V | 00:00:00 | 00:00:00 | 00:00:00 |